QFA12 KLAX-YSSY
Flight info
| Callsign | QFA12 |
|---|---|
| Flight time | 14h 7m |
| Altitude | 30000 |
| Route | SUMMR2 DINTY DCT DUETS DCT 3335N12855W/N0497F320 DCT DADIE DCT 2935N13652W 2805N13951W 2609N14233W 2331N14523W 2051N14805W/N0500F340 1738N15121W 1339N15528W 1301N15608W 0856N16004W 0610N16242W 0201N16654W/N0498F360 0025S16912W 0346S17237W 05S174W 0607S17516W 0820S17747W 1208S17802E 1518S17437E 1747S17212E/N0487F380 2126S16902E 2324S16727E 2741S16335E 2813S16300E 2952S16106E 3044S15953E DCT GOOMA H258 RIKNI N774 MARLN |
| Aircraft | A388/J-SADE2E3FGHIJ3J4J5M1RWXY/LB1D1 |
Departure
| Time | 2026-04-23 03:19 |
|---|---|
| Airport | Los Angeles International Airport (KLAX) |
Arrival
| Time | 2026-04-23 17:26 |
|---|---|
| Airport | Sydney Kingsford Smith International Airport (YSSY) |
| Time | Latitude | Longitude | Altitude | Speed | Heading |
|---|---|---|---|---|---|
| 2026-04-23 02:43 | 33.94546 | -118.41624 | 98 ft | 0 kts | 84° |
| 2026-04-23 03:02 | 33.94545 | -118.41637 | 104 ft | 3 kts | 84° |
| 2026-04-23 03:02 | 33.94543 | -118.41661 | 105 ft | 3 kts | 83° |
| 2026-04-23 03:02 | 33.94541 | -118.41677 | 96 ft | 3 kts | 75° |
| 2026-04-23 03:02 | 33.94534 | -118.41694 | 96 ft | 3 kts | 23° |
| 2026-04-23 03:03 | 33.94515 | -118.41699 | 96 ft | 3 kts | 357° |
| 2026-04-23 03:03 | 33.94497 | -118.41697 | 96 ft | 2 kts | 352° |
| 2026-04-23 03:03 | 33.94494 | -118.41697 | 97 ft | 1 kts | 352° |
| 2026-04-23 03:10 | 33.94498 | -118.41697 | 98 ft | 2 kts | 352° |
| 2026-04-23 03:10 | 33.94530 | -118.41702 | 99 ft | 7 kts | 353° |
| 2026-04-23 03:11 | 33.94586 | -118.41711 | 99 ft | 9 kts | 341° |
| 2026-04-23 03:11 | 33.94633 | -118.41758 | 99 ft | 9 kts | 294° |
| 2026-04-23 03:11 | 33.94677 | -118.41802 | 100 ft | 8 kts | 359° |
| 2026-04-23 03:11 | 33.94715 | -118.41772 | 101 ft | 8 kts | 57° |
| 2026-04-23 03:12 | 33.94736 | -118.41699 | 98 ft | 11 kts | 82° |
| 2026-04-23 03:12 | 33.94749 | -118.41590 | 100 ft | 15 kts | 82° |
| 2026-04-23 03:12 | 33.94767 | -118.41447 | 100 ft | 19 kts | 75° |
| 2026-04-23 03:12 | 33.94792 | -118.41286 | 100 ft | 20 kts | 81° |
| 2026-04-23 03:13 | 33.94813 | -118.41118 | 100 ft | 21 kts | 82° |
| 2026-04-23 03:13 | 33.94827 | -118.40944 | 102 ft | 22 kts | 83° |
| 2026-04-23 03:13 | 33.94845 | -118.40762 | 99 ft | 23 kts | 83° |
| 2026-04-23 03:13 | 33.94866 | -118.40568 | 101 ft | 24 kts | 82° |
| 2026-04-23 03:14 | 33.94885 | -118.40388 | 99 ft | 19 kts | 83° |
| 2026-04-23 03:14 | 33.94901 | -118.40234 | 101 ft | 19 kts | 83° |
| 2026-04-23 03:14 | 33.94916 | -118.40089 | 101 ft | 11 kts | 84° |
| 2026-04-23 03:14 | 33.94923 | -118.40015 | 98 ft | 8 kts | 84° |
| 2026-04-23 03:15 | 33.94929 | -118.39970 | 98 ft | 8 kts | 67° |
| 2026-04-23 03:15 | 33.94935 | -118.39958 | 99 ft | 0 kts | 55° |
| 2026-04-23 03:17 | 33.94935 | -118.39957 | 99 ft | 0 kts | 54° |
| 2026-04-23 03:17 | 33.94944 | -118.39944 | 99 ft | 4 kts | 42° |
| 2026-04-23 03:17 | 33.94974 | -118.39924 | 99 ft | 6 kts | 9° |
| 2026-04-23 03:17 | 33.95019 | -118.39935 | 99 ft | 7 kts | 323° |
| 2026-04-23 03:18 | 33.95043 | -118.39982 | 101 ft | 7 kts | 276° |
| 2026-04-23 03:18 | 33.95039 | -118.40088 | 101 ft | 33 kts | 263° |
| 2026-04-23 03:18 | 33.94973 | -118.40635 | 104 ft | 97 kts | 263° |
| 2026-04-23 03:18 | 33.94870 | -118.41632 | 101 ft | 143 kts | 263° |
| 2026-04-23 03:19 | 33.94738 | -118.42947 | 132 ft | 169 kts | 263° |
| 2026-04-23 03:19 | 33.94603 | -118.44335 | 578 ft | 165 kts | 263° |
| 2026-04-23 03:19 | 33.94476 | -118.45712 | 1002 ft | 167 kts | 263° |
| 2026-04-23 03:19 | 33.94355 | -118.47101 | 1424 ft | 167 kts | 268° |
| 2026-04-23 03:20 | 33.94311 | -118.48549 | 1769 ft | 175 kts | 269° |
| 2026-04-23 03:20 | 33.94267 | -118.50050 | 1911 ft | 185 kts | 269° |
| 2026-04-23 03:20 | 33.94178 | -118.51627 | 1999 ft | 195 kts | 266° |
| 2026-04-23 03:20 | 33.94037 | -118.53279 | 2082 ft | 201 kts | 266° |
| 2026-04-23 03:21 | 33.93902 | -118.54984 | 2145 ft | 210 kts | 266° |
| 2026-04-23 03:21 | 33.93763 | -118.56817 | 2260 ft | 228 kts | 265° |
| 2026-04-23 03:21 | 33.93609 | -118.58800 | 2431 ft | 247 kts | 266° |
| 2026-04-23 03:21 | 33.93445 | -118.60888 | 2830 ft | 254 kts | 265° |
| 2026-04-23 03:22 | 33.93275 | -118.63033 | 3351 ft | 256 kts | 266° |
| 2026-04-23 03:22 | 33.93103 | -118.65213 | 3819 ft | 261 kts | 266° |
| 2026-04-23 03:22 | 33.92935 | -118.67365 | 4362 ft | 264 kts | 266° |
| 2026-04-23 03:22 | 33.92764 | -118.69571 | 4891 ft | 267 kts | 267° |
| 2026-04-23 03:23 | 33.92591 | -118.71797 | 5446 ft | 266 kts | 266° |
| 2026-04-23 03:23 | 33.92419 | -118.74026 | 5999 ft | 268 kts | 266° |
| 2026-04-23 03:23 | 33.92245 | -118.76264 | 6574 ft | 268 kts | 266° |
| 2026-04-23 03:23 | 33.92070 | -118.78503 | 7122 ft | 267 kts | 266° |
| 2026-04-23 03:24 | 33.91896 | -118.80705 | 7687 ft | 266 kts | 266° |
| 2026-04-23 03:24 | 33.91724 | -118.82924 | 8275 ft | 265 kts | 268° |
| 2026-04-23 03:24 | 33.91734 | -118.85141 | 8805 ft | 264 kts | 274° |
| 2026-04-23 03:24 | 33.91819 | -118.87356 | 9396 ft | 264 kts | 274° |
| 2026-04-23 03:25 | 33.91889 | -118.89555 | 9968 ft | 263 kts | 274° |
| 2026-04-23 03:25 | 33.91954 | -118.91773 | 10264 ft | 272 kts | 274° |
| 2026-04-23 03:25 | 33.92024 | -118.94122 | 10390 ft | 286 kts | 274° |
| 2026-04-23 03:25 | 33.92095 | -118.96542 | 10487 ft | 300 kts | 274° |
| 2026-04-23 03:26 | 33.92186 | -118.99108 | 10616 ft | 311 kts | 277° |
| 2026-04-23 03:26 | 33.92612 | -119.01653 | 11056 ft | 311 kts | 288° |
| 2026-04-23 03:26 | 33.93465 | -119.04049 | 11533 ft | 312 kts | 298° |
| 2026-04-23 03:26 | 33.94630 | -119.06278 | 12020 ft | 312 kts | 301° |
| 2026-04-23 03:27 | 33.95788 | -119.08495 | 12488 ft | 314 kts | 300° |
| 2026-04-23 03:27 | 33.96944 | -119.10740 | 12955 ft | 314 kts | 300° |
| 2026-04-23 03:27 | 33.98080 | -119.12953 | 13404 ft | 315 kts | 300° |
| 2026-04-23 03:27 | 33.99234 | -119.15201 | 13878 ft | 316 kts | 300° |
| 2026-04-23 03:28 | 34.00491 | -119.17395 | 14276 ft | 319 kts | 307° |
| 2026-04-23 03:28 | 34.02014 | -119.19356 | 14659 ft | 324 kts | 314° |
| 2026-04-23 03:28 | 34.03792 | -119.21063 | 15045 ft | 329 kts | 320° |
| 2026-04-23 03:28 | 34.05685 | -119.22649 | 15428 ft | 331 kts | 320° |
| 2026-04-23 03:29 | 34.07549 | -119.24244 | 15798 ft | 332 kts | 319° |
| 2026-04-23 03:29 | 34.09434 | -119.25870 | 16133 ft | 335 kts | 319° |
| 2026-04-23 03:29 | 34.11335 | -119.27512 | 16471 ft | 337 kts | 319° |
| 2026-04-23 03:29 | 34.13251 | -119.29164 | 16833 ft | 339 kts | 319° |
| 2026-04-23 03:30 | 34.15173 | -119.30821 | 17205 ft | 341 kts | 319° |
| 2026-04-23 03:30 | 34.17111 | -119.32491 | 17568 ft | 343 kts | 319° |
| 2026-04-23 03:30 | 34.19060 | -119.34171 | 17906 ft | 345 kts | 319° |
| 2026-04-23 03:30 | 34.21014 | -119.35856 | 18276 ft | 347 kts | 318° |
| 2026-04-23 03:31 | 34.22975 | -119.37546 | 18737 ft | 344 kts | 318° |
| 2026-04-23 03:31 | 34.24926 | -119.39230 | 19012 ft | 346 kts | 318° |
| 2026-04-23 03:31 | 34.26891 | -119.40930 | 19298 ft | 348 kts | 318° |
| 2026-04-23 03:31 | 34.28869 | -119.42640 | 19602 ft | 349 kts | 318° |
| 2026-04-23 03:32 | 34.30843 | -119.44348 | 19902 ft | 350 kts | 318° |
| 2026-04-23 03:32 | 34.32834 | -119.46072 | 20187 ft | 352 kts | 318° |
| 2026-04-23 03:32 | 34.34804 | -119.47778 | 20470 ft | 353 kts | 318° |
| 2026-04-23 03:32 | 34.36812 | -119.49520 | 20761 ft | 354 kts | 317° |
| 2026-04-23 03:33 | 34.38584 | -119.51540 | 21008 ft | 347 kts | 303° |
| 2026-04-23 03:33 | 34.39843 | -119.54006 | 21283 ft | 343 kts | 291° |
| 2026-04-23 03:33 | 34.40555 | -119.56757 | 21513 ft | 344 kts | 279° |
| 2026-04-23 03:33 | 34.40686 | -119.59645 | 21811 ft | 346 kts | 267° |
| 2026-04-23 03:34 | 34.40462 | -119.62549 | 22066 ft | 347 kts | 266° |
| 2026-04-23 03:34 | 34.40254 | -119.65464 | 22351 ft | 348 kts | 267° |
| 2026-04-23 03:34 | 34.40055 | -119.68372 | 22626 ft | 350 kts | 267° |
| 2026-04-23 03:34 | 34.39853 | -119.71317 | 22906 ft | 351 kts | 267° |
| 2026-04-23 03:35 | 34.39648 | -119.74278 | 23161 ft | 353 kts | 267° |
| 2026-04-23 03:35 | 34.39440 | -119.77240 | 23428 ft | 354 kts | 267° |
| 2026-04-23 03:35 | 34.39230 | -119.80221 | 23694 ft | 355 kts | 267° |
| 2026-04-23 03:35 | 34.39017 | -119.83217 | 23918 ft | 356 kts | 267° |
| 2026-04-23 03:36 | 34.38804 | -119.86211 | 24128 ft | 358 kts | 267° |
| 2026-04-23 03:36 | 34.38588 | -119.89226 | 24360 ft | 359 kts | 267° |
| 2026-04-23 03:36 | 34.38375 | -119.92204 | 24593 ft | 360 kts | 267° |
| 2026-04-23 03:36 | 34.38156 | -119.95243 | 24817 ft | 361 kts | 267° |
| 2026-04-23 03:37 | 34.37936 | -119.98290 | 25043 ft | 362 kts | 266° |
| 2026-04-23 03:37 | 34.37718 | -120.01296 | 25309 ft | 364 kts | 266° |
| 2026-04-23 03:37 | 34.37496 | -120.04352 | 25542 ft | 365 kts | 266° |
| 2026-04-23 03:37 | 34.37271 | -120.07428 | 25808 ft | 366 kts | 266° |
| 2026-04-23 03:38 | 34.37046 | -120.10503 | 26050 ft | 367 kts | 266° |
| 2026-04-23 03:38 | 34.36818 | -120.13597 | 26280 ft | 369 kts | 266° |
| 2026-04-23 03:38 | 34.36590 | -120.16700 | 26535 ft | 370 kts | 266° |
| 2026-04-23 03:38 | 34.36360 | -120.19805 | 26815 ft | 372 kts | 266° |
| 2026-04-23 03:39 | 34.36132 | -120.22879 | 27079 ft | 373 kts | 266° |
| 2026-04-23 03:39 | 34.35894 | -120.26060 | 27349 ft | 374 kts | 266° |
| 2026-04-23 03:39 | 34.35662 | -120.29163 | 27623 ft | 376 kts | 266° |
| 2026-04-23 03:39 | 34.35425 | -120.32330 | 27894 ft | 377 kts | 266° |
| 2026-04-23 03:40 | 34.35186 | -120.35503 | 28160 ft | 379 kts | 266° |
| 2026-04-23 03:40 | 34.34945 | -120.38697 | 28434 ft | 380 kts | 266° |
| 2026-04-23 03:40 | 34.34694 | -120.41887 | 28670 ft | 383 kts | 264° |
| 2026-04-23 03:40 | 34.34244 | -120.45043 | 28931 ft | 385 kts | 259° |
| 2026-04-23 03:41 | 34.33516 | -120.48184 | 29214 ft | 388 kts | 254° |
| 2026-04-23 03:41 | 34.32524 | -120.51247 | 29457 ft | 392 kts | 249° |
| 2026-04-23 03:41 | 34.31330 | -120.54233 | 29732 ft | 394 kts | 248° |
| 2026-04-23 03:41 | 34.30154 | -120.57190 | 30010 ft | 396 kts | 248° |
| 2026-04-23 03:42 | 34.28963 | -120.60215 | 30201 ft | 399 kts | 248° |
| 2026-04-23 03:42 | 34.27759 | -120.63278 | 30182 ft | 407 kts | 248° |
| 2026-04-23 03:42 | 34.25260 | -120.69606 | 30179 ft | 423 kts | 248° |
| 2026-04-23 03:43 | 34.22724 | -120.75994 | 30178 ft | 425 kts | 248° |
| 2026-04-23 03:43 | 34.20154 | -120.82451 | 30178 ft | 424 kts | 248° |
| 2026-04-23 03:44 | 34.17626 | -120.88796 | 30179 ft | 425 kts | 248° |
| 2026-04-23 03:44 | 34.15033 | -120.95294 | 30178 ft | 425 kts | 248° |
| 2026-04-23 03:45 | 34.12477 | -121.01688 | 30182 ft | 426 kts | 248° |
| 2026-04-23 03:45 | 34.09892 | -121.08139 | 30184 ft | 426 kts | 247° |
| 2026-04-23 03:46 | 34.07308 | -121.14577 | 30183 ft | 426 kts | 247° |
| 2026-04-23 03:46 | 34.04721 | -121.21009 | 30191 ft | 426 kts | 247° |
| 2026-04-23 03:47 | 34.02148 | -121.27397 | 30189 ft | 427 kts | 247° |
| 2026-04-23 03:47 | 33.99541 | -121.33855 | 30197 ft | 427 kts | 247° |
| 2026-04-23 03:48 | 33.96948 | -121.40265 | 30196 ft | 427 kts | 247° |
| 2026-04-23 03:48 | 33.94341 | -121.46699 | 30193 ft | 427 kts | 247° |
| 2026-04-23 03:49 | 33.91737 | -121.53113 | 30186 ft | 427 kts | 247° |
| 2026-04-23 03:49 | 33.89111 | -121.59571 | 30199 ft | 429 kts | 247° |
| 2026-04-23 03:50 | 33.86485 | -121.66013 | 30201 ft | 429 kts | 247° |
| 2026-04-23 03:50 | 33.83851 | -121.72463 | 30210 ft | 429 kts | 247° |
| 2026-04-23 03:51 | 33.81225 | -121.78883 | 30213 ft | 429 kts | 247° |
| 2026-04-23 03:51 | 33.78585 | -121.85327 | 30222 ft | 429 kts | 246° |
| 2026-04-23 03:52 | 33.75942 | -121.91762 | 30220 ft | 430 kts | 246° |
| 2026-04-23 03:52 | 33.73287 | -121.98215 | 30204 ft | 429 kts | 246° |
| 2026-04-23 03:53 | 33.70641 | -122.04638 | 30211 ft | 430 kts | 246° |
| 2026-04-23 03:53 | 33.68002 | -122.11029 | 30213 ft | 430 kts | 246° |
| 2026-04-23 03:54 | 33.65337 | -122.17472 | 30220 ft | 431 kts | 246° |
| 2026-04-23 03:54 | 33.62666 | -122.23915 | 30222 ft | 431 kts | 246° |
| 2026-04-23 03:55 | 33.59988 | -122.30364 | 30222 ft | 431 kts | 246° |
| 2026-04-23 03:55 | 33.57325 | -122.36767 | 30222 ft | 431 kts | 246° |
| 2026-04-23 03:56 | 33.54632 | -122.43228 | 30225 ft | 432 kts | 246° |
| 2026-04-23 03:56 | 33.51932 | -122.49692 | 30225 ft | 432 kts | 246° |
| 2026-04-23 03:57 | 33.49271 | -122.56089 | 30228 ft | 431 kts | 248° |
| 2026-04-23 03:57 | 33.47348 | -122.62875 | 30223 ft | 429 kts | 258° |
| 2026-04-23 03:58 | 33.45943 | -122.69837 | 30233 ft | 430 kts | 257° |
| 2026-04-23 03:58 | 33.44518 | -122.76744 | 30235 ft | 429 kts | 257° |
| 2026-04-23 03:59 | 33.43078 | -122.83700 | 30238 ft | 429 kts | 257° |
| 2026-04-23 03:59 | 33.41644 | -122.90610 | 30234 ft | 429 kts | 257° |
| 2026-04-23 04:00 | 33.40202 | -122.97541 | 30244 ft | 430 kts | 257° |
| 2026-04-23 04:00 | 33.38749 | -123.04498 | 30244 ft | 430 kts | 257° |
| 2026-04-23 04:01 | 33.37302 | -123.11409 | 30244 ft | 430 kts | 257° |
| 2026-04-23 04:01 | 33.35843 | -123.18362 | 30247 ft | 430 kts | 257° |
| 2026-04-23 04:02 | 33.34387 | -123.25276 | 30243 ft | 432 kts | 257° |
| 2026-04-23 04:02 | 33.32908 | -123.32277 | 30247 ft | 433 kts | 257° |
| 2026-04-23 04:03 | 33.31430 | -123.39253 | 30249 ft | 432 kts | 257° |
| 2026-04-23 04:03 | 33.30198 | -123.45051 | 30249 ft | 432 kts | 257° |
| 2026-04-23 04:04 | 33.28467 | -123.53171 | 30252 ft | 432 kts | 257° |
| 2026-04-23 04:04 | 33.27226 | -123.58979 | 30252 ft | 432 kts | 256° |
| 2026-04-23 04:05 | 33.25739 | -123.65918 | 30252 ft | 432 kts | 256° |
| 2026-04-23 04:05 | 33.24243 | -123.72881 | 30252 ft | 432 kts | 256° |
| 2026-04-23 04:06 | 33.22740 | -123.79853 | 30258 ft | 432 kts | 256° |
| 2026-04-23 04:06 | 33.21240 | -123.86793 | 30261 ft | 432 kts | 256° |
| 2026-04-23 04:07 | 33.19730 | -123.93759 | 30263 ft | 432 kts | 256° |
| 2026-04-23 04:07 | 33.18224 | -124.00685 | 30260 ft | 433 kts | 256° |
| 2026-04-23 04:08 | 33.16704 | -124.07654 | 30262 ft | 433 kts | 256° |
| 2026-04-23 04:08 | 33.15182 | -124.14613 | 30265 ft | 433 kts | 256° |
| 2026-04-23 04:09 | 33.13661 | -124.21549 | 30262 ft | 433 kts | 256° |
| 2026-04-23 04:09 | 33.12129 | -124.28512 | 30262 ft | 434 kts | 256° |
| 2026-04-23 04:10 | 33.10600 | -124.35445 | 30265 ft | 434 kts | 256° |
| 2026-04-23 04:10 | 33.09059 | -124.42407 | 30265 ft | 434 kts | 256° |
| 2026-04-23 04:11 | 33.07718 | -124.49420 | 30264 ft | 433 kts | 263° |
| 2026-04-23 04:11 | 33.07636 | -124.56595 | 30271 ft | 436 kts | 274° |
| 2026-04-23 04:12 | 33.08571 | -124.63721 | 30273 ft | 437 kts | 277° |
| 2026-04-23 04:12 | 33.09529 | -124.70904 | 30273 ft | 436 kts | 277° |
| 2026-04-23 04:13 | 33.10477 | -124.78030 | 30271 ft | 437 kts | 277° |
| 2026-04-23 04:13 | 33.11432 | -124.85221 | 30276 ft | 438 kts | 277° |
| 2026-04-23 04:14 | 33.12377 | -124.92374 | 30276 ft | 437 kts | 277° |
| 2026-04-23 04:14 | 33.13323 | -124.99570 | 30273 ft | 438 kts | 277° |
| 2026-04-23 04:15 | 33.14256 | -125.06700 | 30279 ft | 437 kts | 277° |
| 2026-04-23 04:16 | 33.15658 | -125.17479 | 30282 ft | 437 kts | 277° |
| 2026-04-23 04:16 | 33.16591 | -125.24694 | 30280 ft | 440 kts | 277° |
| 2026-04-23 04:17 | 33.17518 | -125.31893 | 30281 ft | 442 kts | 277° |
| 2026-04-23 04:17 | 33.18448 | -125.39144 | 30281 ft | 441 kts | 277° |
| 2026-04-23 04:18 | 33.19373 | -125.46396 | 30287 ft | 441 kts | 277° |
| 2026-04-23 04:18 | 33.20291 | -125.53630 | 30287 ft | 442 kts | 277° |
| 2026-04-23 04:19 | 33.21207 | -125.60882 | 30290 ft | 443 kts | 277° |
| 2026-04-23 04:19 | 33.22119 | -125.68137 | 30290 ft | 443 kts | 277° |
| 2026-04-23 04:20 | 33.23032 | -125.75442 | 30282 ft | 444 kts | 277° |
| 2026-04-23 04:20 | 33.23938 | -125.82717 | 30289 ft | 446 kts | 277° |
| 2026-04-23 04:21 | 33.24847 | -125.90049 | 30292 ft | 446 kts | 277° |
| 2026-04-23 04:21 | 33.25748 | -125.97359 | 30295 ft | 445 kts | 277° |
| 2026-04-23 04:22 | 33.26651 | -126.04720 | 30298 ft | 445 kts | 277° |
| 2026-04-23 04:22 | 33.27544 | -126.12036 | 30294 ft | 445 kts | 277° |
| 2026-04-23 04:23 | 33.28430 | -126.19335 | 30308 ft | 445 kts | 277° |
| 2026-04-23 04:23 | 33.29316 | -126.26663 | 30304 ft | 445 kts | 276° |
| 2026-04-23 04:24 | 33.30198 | -126.33999 | 30297 ft | 444 kts | 276° |
| 2026-04-23 04:24 | 33.31066 | -126.41255 | 30298 ft | 444 kts | 276° |
| 2026-04-23 04:25 | 33.31936 | -126.48566 | 30298 ft | 444 kts | 276° |
| 2026-04-23 04:25 | 33.32807 | -126.55925 | 30298 ft | 446 kts | 276° |
| 2026-04-23 04:26 | 33.33671 | -126.63258 | 30300 ft | 446 kts | 276° |
| 2026-04-23 04:26 | 33.34533 | -126.70618 | 30297 ft | 445 kts | 276° |
| 2026-04-23 04:27 | 33.35384 | -126.77914 | 30299 ft | 446 kts | 276° |
| 2026-04-23 04:27 | 33.36237 | -126.85276 | 30298 ft | 447 kts | 276° |
| 2026-04-23 04:28 | 33.37507 | -126.96299 | 30300 ft | 447 kts | 276° |
| 2026-04-23 04:28 | 33.38352 | -127.03686 | 30300 ft | 449 kts | 276° |
| 2026-04-23 04:29 | 33.39197 | -127.11108 | 30304 ft | 449 kts | 276° |
| 2026-04-23 04:29 | 33.40033 | -127.18493 | 30303 ft | 446 kts | 276° |
| 2026-04-23 04:30 | 33.40861 | -127.25849 | 30307 ft | 448 kts | 276° |
| 2026-04-23 04:30 | 33.41684 | -127.33199 | 30305 ft | 449 kts | 276° |
| 2026-04-23 04:31 | 33.42513 | -127.40646 | 30306 ft | 449 kts | 276° |
| 2026-04-23 04:31 | 33.43332 | -127.48046 | 30302 ft | 448 kts | 276° |
| 2026-04-23 04:32 | 33.44147 | -127.55443 | 30306 ft | 450 kts | 276° |
| 2026-04-23 04:32 | 33.44958 | -127.62850 | 30308 ft | 449 kts | 276° |
| 2026-04-23 04:33 | 33.45769 | -127.70298 | 30309 ft | 449 kts | 276° |
| 2026-04-23 04:33 | 33.46568 | -127.77680 | 30309 ft | 450 kts | 276° |
| 2026-04-23 04:34 | 33.47369 | -127.85114 | 30309 ft | 450 kts | 276° |
| 2026-04-23 04:34 | 33.48164 | -127.92545 | 30309 ft | 450 kts | 276° |
| 2026-04-23 04:35 | 33.48958 | -128.00008 | 30309 ft | 451 kts | 276° |
| 2026-04-23 04:35 | 33.49746 | -128.07446 | 30310 ft | 450 kts | 276° |
| 2026-04-23 04:36 | 33.50527 | -128.14873 | 30313 ft | 449 kts | 276° |
| 2026-04-23 04:36 | 33.51302 | -128.22289 | 30314 ft | 451 kts | 275° |
| 2026-04-23 04:37 | 33.52080 | -128.29778 | 30311 ft | 451 kts | 275° |
| 2026-04-23 04:37 | 33.52848 | -128.37204 | 30311 ft | 451 kts | 275° |
| 2026-04-23 04:38 | 33.53618 | -128.44697 | 30314 ft | 451 kts | 275° |
| 2026-04-23 04:38 | 33.54378 | -128.52141 | 30315 ft | 450 kts | 275° |
| 2026-04-23 04:39 | 33.55135 | -128.59605 | 30700 ft | 452 kts | 275° |
| 2026-04-23 04:39 | 33.55514 | -128.63358 | 30989 ft | 453 kts | 275° |
| 2026-04-23 04:39 | 33.55890 | -128.67094 | 31211 ft | 455 kts | 275° |
| 2026-04-23 04:40 | 33.56268 | -128.70865 | 31423 ft | 458 kts | 276° |
| 2026-04-23 04:40 | 33.56648 | -128.74651 | 31715 ft | 459 kts | 276° |
| 2026-04-23 04:40 | 33.57030 | -128.78474 | 31971 ft | 460 kts | 276° |
| 2026-04-23 04:40 | 33.57409 | -128.82288 | 32225 ft | 461 kts | 275° |
| 2026-04-23 04:41 | 33.57452 | -128.86146 | 32317 ft | 461 kts | 264° |
| 2026-04-23 04:41 | 33.56924 | -128.89904 | 32310 ft | 462 kts | 255° |
| 2026-04-23 04:41 | 33.54280 | -128.96928 | 32313 ft | 466 kts | 237° |
| 2026-04-23 04:42 | 33.50075 | -129.02818 | 32314 ft | 468 kts | 231° |
| 2026-04-23 04:42 | 33.45757 | -129.08671 | 32315 ft | 468 kts | 231° |
| 2026-04-23 04:43 | 33.41446 | -129.14508 | 32316 ft | 468 kts | 231° |
| 2026-04-23 04:43 | 33.37121 | -129.20341 | 32315 ft | 468 kts | 231° |
| 2026-04-23 04:44 | 33.32811 | -129.26141 | 32316 ft | 468 kts | 231° |
| 2026-04-23 04:44 | 33.28474 | -129.31967 | 32319 ft | 468 kts | 231° |
| 2026-04-23 04:45 | 33.24149 | -129.37767 | 32320 ft | 468 kts | 231° |
| 2026-04-23 04:45 | 33.19806 | -129.43583 | 32318 ft | 468 kts | 231° |
| 2026-04-23 04:46 | 33.15460 | -129.49393 | 32312 ft | 470 kts | 230° |
| 2026-04-23 04:46 | 33.11112 | -129.55197 | 32304 ft | 471 kts | 230° |
| 2026-04-23 04:47 | 33.06747 | -129.61013 | 32318 ft | 471 kts | 230° |
| 2026-04-23 04:47 | 33.02387 | -129.66813 | 32320 ft | 470 kts | 230° |
| 2026-04-23 04:48 | 32.98029 | -129.72603 | 32326 ft | 471 kts | 230° |
| 2026-04-23 04:48 | 32.93645 | -129.78417 | 32328 ft | 471 kts | 230° |
| 2026-04-23 04:49 | 32.90003 | -129.83240 | 32307 ft | 470 kts | 230° |
| 2026-04-23 04:49 | 32.84902 | -129.89985 | 32325 ft | 470 kts | 230° |
| 2026-04-23 04:50 | 32.80531 | -129.95754 | 32317 ft | 470 kts | 230° |
| 2026-04-23 04:50 | 32.76140 | -130.01539 | 32315 ft | 470 kts | 230° |
| 2026-04-23 04:51 | 32.72494 | -130.06337 | 32319 ft | 472 kts | 230° |
| 2026-04-23 04:51 | 32.68077 | -130.12141 | 32319 ft | 472 kts | 230° |
| 2026-04-23 04:52 | 32.63672 | -130.17920 | 32318 ft | 472 kts | 230° |
| 2026-04-23 04:52 | 32.59281 | -130.23671 | 32320 ft | 472 kts | 230° |
| 2026-04-23 04:53 | 32.54883 | -130.29422 | 32320 ft | 472 kts | 230° |
| 2026-04-23 04:53 | 32.50464 | -130.35192 | 32319 ft | 472 kts | 230° |
| 2026-04-23 04:54 | 32.46052 | -130.40943 | 32316 ft | 472 kts | 230° |
| 2026-04-23 04:54 | 32.41636 | -130.46691 | 32317 ft | 472 kts | 230° |
| 2026-04-23 04:55 | 32.37221 | -130.52429 | 32315 ft | 472 kts | 230° |
| 2026-04-23 04:55 | 32.32800 | -130.58165 | 32304 ft | 472 kts | 230° |
| 2026-04-23 04:56 | 32.28353 | -130.63925 | 32316 ft | 473 kts | 230° |
| 2026-04-23 04:56 | 32.23941 | -130.69632 | 32316 ft | 473 kts | 230° |
| 2026-04-23 04:57 | 32.19495 | -130.75373 | 32317 ft | 473 kts | 230° |
| 2026-04-23 04:57 | 32.15055 | -130.81098 | 32316 ft | 473 kts | 230° |
| 2026-04-23 04:58 | 32.10598 | -130.86836 | 32316 ft | 473 kts | 230° |
| 2026-04-23 04:58 | 32.06152 | -130.92551 | 32312 ft | 473 kts | 230° |
| 2026-04-23 04:59 | 32.01708 | -130.98254 | 32317 ft | 473 kts | 230° |
| 2026-04-23 04:59 | 31.97259 | -131.03955 | 32313 ft | 473 kts | 230° |
| 2026-04-23 05:00 | 31.92834 | -131.09617 | 32316 ft | 472 kts | 229° |
| 2026-04-23 05:00 | 31.88365 | -131.15327 | 32320 ft | 473 kts | 229° |
| 2026-04-23 05:01 | 31.83919 | -131.20997 | 32311 ft | 474 kts | 229° |
| 2026-04-23 05:01 | 31.79449 | -131.26690 | 32308 ft | 473 kts | 229° |
| 2026-04-23 05:02 | 31.74975 | -131.32380 | 32307 ft | 474 kts | 229° |
| 2026-04-23 05:02 | 31.70497 | -131.38066 | 32310 ft | 474 kts | 229° |
| 2026-04-23 05:03 | 31.66012 | -131.43751 | 32310 ft | 473 kts | 229° |
| 2026-04-23 05:03 | 31.61566 | -131.49378 | 32310 ft | 473 kts | 229° |
| 2026-04-23 05:04 | 31.57080 | -131.55048 | 32308 ft | 473 kts | 229° |
| 2026-04-23 05:04 | 31.52595 | -131.60709 | 32306 ft | 473 kts | 229° |
| 2026-04-23 05:05 | 31.48109 | -131.66362 | 32306 ft | 474 kts | 229° |
| 2026-04-23 05:05 | 31.43607 | -131.72026 | 32304 ft | 474 kts | 229° |
| 2026-04-23 05:06 | 31.39141 | -131.77636 | 32302 ft | 473 kts | 229° |
| 2026-04-23 05:06 | 31.34657 | -131.83260 | 32306 ft | 473 kts | 229° |
| 2026-04-23 05:07 | 31.30147 | -131.88910 | 32303 ft | 473 kts | 229° |
| 2026-04-23 05:07 | 31.25638 | -131.94548 | 32304 ft | 473 kts | 229° |
| 2026-04-23 05:08 | 31.21167 | -132.00131 | 32306 ft | 472 kts | 229° |
| 2026-04-23 05:08 | 31.16666 | -132.05746 | 32303 ft | 473 kts | 229° |
| 2026-04-23 05:09 | 31.12315 | -132.11437 | 32300 ft | 471 kts | 235° |
| 2026-04-23 05:09 | 31.09048 | -132.18036 | 32298 ft | 469 kts | 248° |
| 2026-04-23 05:10 | 31.06857 | -132.25177 | 32298 ft | 469 kts | 251° |
| 2026-04-23 05:10 | 31.04703 | -132.32369 | 32298 ft | 469 kts | 251° |
| 2026-04-23 05:11 | 31.02545 | -132.39552 | 32295 ft | 469 kts | 251° |
| 2026-04-23 05:11 | 31.00379 | -132.46751 | 32295 ft | 469 kts | 251° |
| 2026-04-23 05:12 | 30.98223 | -132.53893 | 32293 ft | 469 kts | 251° |
| 2026-04-23 05:12 | 30.96042 | -132.61098 | 32292 ft | 469 kts | 251° |
| 2026-04-23 05:13 | 30.93886 | -132.68208 | 32295 ft | 469 kts | 250° |
| 2026-04-23 05:14 | 30.90611 | -132.78974 | 32292 ft | 469 kts | 250° |
| 2026-04-23 05:14 | 30.88432 | -132.86118 | 32293 ft | 469 kts | 250° |
| 2026-04-23 05:15 | 30.86242 | -132.93283 | 32291 ft | 469 kts | 250° |
| 2026-04-23 05:15 | 30.84052 | -133.00431 | 32293 ft | 469 kts | 250° |
| 2026-04-23 05:16 | 30.81860 | -133.07568 | 32298 ft | 468 kts | 250° |
| 2026-04-23 05:16 | 30.79673 | -133.14672 | 32292 ft | 468 kts | 250° |
| 2026-04-23 05:17 | 30.77479 | -133.21786 | 32291 ft | 468 kts | 250° |
| 2026-04-23 05:17 | 30.75284 | -133.28886 | 32290 ft | 466 kts | 250° |
| 2026-04-23 05:18 | 30.73089 | -133.35972 | 32292 ft | 467 kts | 250° |
| 2026-04-23 05:18 | 30.70883 | -133.43074 | 32292 ft | 467 kts | 250° |
| 2026-04-23 05:19 | 30.68672 | -133.50181 | 32287 ft | 466 kts | 250° |
| 2026-04-23 05:19 | 30.66471 | -133.57238 | 32289 ft | 466 kts | 250° |
| 2026-04-23 05:20 | 30.64262 | -133.64303 | 32296 ft | 466 kts | 250° |
| 2026-04-23 05:20 | 30.62040 | -133.71397 | 32289 ft | 465 kts | 250° |
| 2026-04-23 05:21 | 30.59830 | -133.78436 | 32288 ft | 465 kts | 250° |
| 2026-04-23 05:21 | 30.57607 | -133.85501 | 32289 ft | 464 kts | 250° |
| 2026-04-23 05:22 | 30.55389 | -133.92535 | 32291 ft | 464 kts | 250° |
| 2026-04-23 05:22 | 30.53172 | -133.99551 | 32290 ft | 464 kts | 250° |
| 2026-04-23 05:23 | 30.50954 | -134.06556 | 32289 ft | 463 kts | 249° |
| 2026-04-23 05:23 | 30.48733 | -134.13556 | 32290 ft | 463 kts | 249° |
| 2026-04-23 05:24 | 30.46505 | -134.20560 | 32291 ft | 464 kts | 249° |
| 2026-04-23 05:24 | 30.44267 | -134.27583 | 32286 ft | 462 kts | 249° |
| 2026-04-23 05:25 | 30.42042 | -134.34550 | 32290 ft | 463 kts | 249° |
| 2026-04-23 05:25 | 30.39810 | -134.41522 | 32292 ft | 462 kts | 249° |
| 2026-04-23 05:26 | 30.37558 | -134.48542 | 32287 ft | 462 kts | 249° |
| 2026-04-23 05:26 | 30.35320 | -134.55505 | 32285 ft | 461 kts | 249° |
| 2026-04-23 05:27 | 30.33085 | -134.62444 | 32282 ft | 461 kts | 249° |
| 2026-04-23 05:27 | 30.30854 | -134.69357 | 32284 ft | 461 kts | 249° |
| 2026-04-23 05:28 | 30.28609 | -134.76296 | 32285 ft | 461 kts | 249° |
| 2026-04-23 05:28 | 30.26342 | -134.83290 | 32285 ft | 461 kts | 249° |
| 2026-04-23 05:29 | 30.24087 | -134.90234 | 32283 ft | 461 kts | 249° |
| 2026-04-23 05:29 | 30.21845 | -134.97120 | 32284 ft | 461 kts | 249° |
| 2026-04-23 05:30 | 30.19586 | -135.04047 | 32286 ft | 459 kts | 249° |
| 2026-04-23 05:30 | 30.17329 | -135.10953 | 32282 ft | 459 kts | 249° |
| 2026-04-23 05:31 | 30.15066 | -135.17863 | 32285 ft | 459 kts | 249° |
| 2026-04-23 05:31 | 30.12806 | -135.24750 | 32281 ft | 458 kts | 249° |
| 2026-04-23 05:32 | 30.10533 | -135.31662 | 32281 ft | 459 kts | 249° |
| 2026-04-23 05:32 | 30.08274 | -135.38518 | 32294 ft | 459 kts | 249° |
| 2026-04-23 05:33 | 30.06011 | -135.45371 | 32279 ft | 458 kts | 249° |
| 2026-04-23 05:33 | 30.03738 | -135.52240 | 32278 ft | 458 kts | 249° |
| 2026-04-23 05:34 | 30.01458 | -135.59119 | 32288 ft | 458 kts | 248° |
| 2026-04-23 05:34 | 29.99170 | -135.66004 | 32278 ft | 458 kts | 248° |
| 2026-04-23 05:35 | 29.96890 | -135.72852 | 32282 ft | 458 kts | 248° |
| 2026-04-23 05:35 | 29.94599 | -135.79720 | 32282 ft | 458 kts | 248° |
| 2026-04-23 05:36 | 29.92307 | -135.86578 | 32279 ft | 458 kts | 248° |
| 2026-04-23 05:36 | 29.90023 | -135.93399 | 32279 ft | 458 kts | 248° |
| 2026-04-23 05:37 | 29.87728 | -136.00237 | 32281 ft | 457 kts | 248° |
| 2026-04-23 05:37 | 29.85454 | -136.06999 | 32276 ft | 457 kts | 248° |
| 2026-04-23 05:38 | 29.83155 | -136.13823 | 32276 ft | 457 kts | 248° |
| 2026-04-23 05:38 | 29.80861 | -136.20613 | 32281 ft | 457 kts | 248° |
| 2026-04-23 05:39 | 29.78550 | -136.27447 | 32279 ft | 457 kts | 248° |
| 2026-04-23 05:39 | 29.76236 | -136.34275 | 32278 ft | 457 kts | 248° |
| 2026-04-23 05:40 | 29.73938 | -136.41038 | 32278 ft | 458 kts | 248° |
| 2026-04-23 05:40 | 29.71617 | -136.47865 | 32282 ft | 458 kts | 248° |
| 2026-04-23 05:41 | 29.69680 | -136.53549 | 32274 ft | 458 kts | 248° |
| 2026-04-23 05:41 | 29.67351 | -136.60367 | 32272 ft | 459 kts | 249° |
| 2026-04-23 05:42 | 29.65009 | -136.67211 | 32275 ft | 458 kts | 248° |
| 2026-04-23 05:42 | 29.62688 | -136.73988 | 32284 ft | 459 kts | 248° |
| 2026-04-23 05:43 | 29.60350 | -136.80809 | 32274 ft | 458 kts | 249° |
| 2026-04-23 05:43 | 29.57888 | -136.87568 | 32277 ft | 458 kts | 244° |
| 2026-04-23 05:44 | 29.54759 | -136.93960 | 32273 ft | 458 kts | 241° |
| 2026-04-23 05:44 | 29.51682 | -137.00317 | 32274 ft | 459 kts | 242° |
| 2026-04-23 05:45 | 29.48582 | -137.06720 | 32269 ft | 458 kts | 242° |
| 2026-04-23 05:45 | 29.45474 | -137.13105 | 32271 ft | 458 kts | 242° |
| 2026-04-23 05:46 | 29.42352 | -137.19497 | 32276 ft | 458 kts | 242° |
| 2026-04-23 05:46 | 29.39261 | -137.25819 | 32270 ft | 458 kts | 242° |
| 2026-04-23 05:47 | 29.36143 | -137.32186 | 32269 ft | 458 kts | 242° |
| 2026-04-23 05:47 | 29.33025 | -137.38543 | 32268 ft | 457 kts | 242° |
| 2026-04-23 05:48 | 29.29899 | -137.44908 | 32266 ft | 457 kts | 242° |
| 2026-04-23 05:48 | 29.26768 | -137.51271 | 32244 ft | 457 kts | 242° |
| 2026-04-23 05:49 | 29.23640 | -137.57615 | 32264 ft | 458 kts | 242° |
| 2026-04-23 05:49 | 29.20515 | -137.63949 | 32261 ft | 456 kts | 242° |
| 2026-04-23 05:50 | 29.17385 | -137.70278 | 32261 ft | 456 kts | 242° |
| 2026-04-23 05:50 | 29.14259 | -137.76593 | 32244 ft | 457 kts | 242° |
| 2026-04-23 05:51 | 29.11124 | -137.82916 | 32262 ft | 457 kts | 241° |
| 2026-04-23 05:51 | 29.08006 | -137.89193 | 32261 ft | 457 kts | 241° |
| 2026-04-23 05:52 | 29.04859 | -137.95518 | 32255 ft | 457 kts | 241° |
| 2026-04-23 05:52 | 29.01705 | -138.01848 | 32265 ft | 459 kts | 241° |
| 2026-04-23 05:53 | 28.98568 | -138.08136 | 32257 ft | 459 kts | 241° |
| 2026-04-23 05:53 | 28.95399 | -138.14475 | 32258 ft | 459 kts | 241° |
| 2026-04-23 05:54 | 28.92230 | -138.20808 | 32253 ft | 459 kts | 241° |
| 2026-04-23 05:54 | 28.89053 | -138.27145 | 32258 ft | 458 kts | 241° |
| 2026-04-23 05:55 | 28.85884 | -138.33458 | 32256 ft | 458 kts | 241° |
| 2026-04-23 05:55 | 28.82739 | -138.39713 | 32254 ft | 458 kts | 241° |
| 2026-04-23 05:56 | 28.79563 | -138.46017 | 32255 ft | 460 kts | 241° |
| 2026-04-23 05:56 | 28.76364 | -138.52355 | 32249 ft | 462 kts | 242° |
| 2026-04-23 05:57 | 28.73167 | -138.58683 | 32254 ft | 461 kts | 242° |
| 2026-04-23 05:57 | 28.69964 | -138.65018 | 32252 ft | 461 kts | 242° |
| 2026-04-23 05:58 | 28.66754 | -138.71352 | 32251 ft | 460 kts | 242° |
| 2026-04-23 05:58 | 28.63546 | -138.77670 | 32265 ft | 462 kts | 242° |
| 2026-04-23 05:59 | 28.60346 | -138.83968 | 32245 ft | 462 kts | 242° |
| 2026-04-23 05:59 | 28.57121 | -138.90307 | 32243 ft | 462 kts | 242° |
| 2026-04-23 06:00 | 28.53898 | -138.96627 | 32243 ft | 462 kts | 242° |
| 2026-04-23 06:00 | 28.50663 | -139.02961 | 32253 ft | 463 kts | 242° |
| 2026-04-23 06:01 | 28.47451 | -139.09237 | 32260 ft | 462 kts | 242° |
| 2026-04-23 06:01 | 28.44235 | -139.15519 | 32259 ft | 459 kts | 242° |
| 2026-04-23 06:02 | 28.41023 | -139.21786 | 32237 ft | 459 kts | 242° |
| 2026-04-23 06:02 | 28.37809 | -139.28055 | 32250 ft | 462 kts | 242° |
| 2026-04-23 06:03 | 28.34574 | -139.34343 | 32239 ft | 456 kts | 242° |
| 2026-04-23 06:03 | 28.31371 | -139.40547 | 32244 ft | 455 kts | 242° |
| 2026-04-23 06:04 | 28.28166 | -139.46757 | 32245 ft | 456 kts | 242° |
| 2026-04-23 06:04 | 28.24977 | -139.52926 | 32239 ft | 457 kts | 242° |
| 2026-04-23 06:05 | 28.21765 | -139.59130 | 32244 ft | 454 kts | 242° |
| 2026-04-23 06:05 | 28.18584 | -139.65272 | 32239 ft | 454 kts | 242° |
| 2026-04-23 06:06 | 28.15380 | -139.71443 | 32242 ft | 454 kts | 242° |
| 2026-04-23 06:06 | 28.12170 | -139.77620 | 32206 ft | 455 kts | 242° |
| 2026-04-23 06:07 | 28.08943 | -139.83802 | 32237 ft | 454 kts | 241° |
| 2026-04-23 06:07 | 28.05158 | -139.89561 | 32237 ft | 458 kts | 235° |
| 2026-04-23 06:08 | 28.01205 | -139.95214 | 32236 ft | 457 kts | 236° |
| 2026-04-23 06:08 | 27.97276 | -140.00884 | 32220 ft | 458 kts | 236° |
| 2026-04-23 06:09 | 27.93361 | -140.06505 | 32238 ft | 458 kts | 236° |
| 2026-04-23 06:09 | 27.89411 | -140.12165 | 32235 ft | 458 kts | 236° |
| 2026-04-23 06:10 | 27.85458 | -140.17821 | 32237 ft | 458 kts | 236° |
| 2026-04-23 06:10 | 27.81501 | -140.23476 | 32219 ft | 459 kts | 235° |
| 2026-04-23 06:11 | 27.77557 | -140.29102 | 32232 ft | 459 kts | 235° |
| 2026-04-23 06:11 | 27.73589 | -140.34757 | 32233 ft | 459 kts | 235° |
| 2026-04-23 06:12 | 27.69622 | -140.40401 | 32231 ft | 459 kts | 235° |
| 2026-04-23 06:12 | 27.63646 | -140.48896 | 32230 ft | 461 kts | 235° |
| 2026-04-23 06:13 | 27.59682 | -140.54517 | 32229 ft | 461 kts | 235° |
| 2026-04-23 06:13 | 27.55689 | -140.60174 | 32229 ft | 461 kts | 235° |
| 2026-04-23 06:14 | 27.51681 | -140.65844 | 32236 ft | 462 kts | 235° |
| 2026-04-23 06:14 | 27.47692 | -140.71479 | 32224 ft | 462 kts | 235° |
| 2026-04-23 06:15 | 27.43676 | -140.77148 | 32227 ft | 462 kts | 235° |
| 2026-04-23 06:15 | 27.39646 | -140.82827 | 32228 ft | 462 kts | 235° |
| 2026-04-23 06:16 | 27.35632 | -140.88478 | 32231 ft | 464 kts | 235° |
| 2026-04-23 06:16 | 27.31620 | -140.94118 | 32226 ft | 464 kts | 235° |
| 2026-04-23 06:17 | 27.27574 | -140.99797 | 32226 ft | 465 kts | 235° |
| 2026-04-23 06:17 | 27.23529 | -141.05466 | 32228 ft | 464 kts | 235° |
| 2026-04-23 06:18 | 27.19508 | -141.11094 | 32224 ft | 464 kts | 235° |
| 2026-04-23 06:18 | 27.15455 | -141.16768 | 32226 ft | 464 kts | 235° |
| 2026-04-23 06:19 | 27.11410 | -141.22428 | 32223 ft | 464 kts | 235° |
| 2026-04-23 06:19 | 27.07354 | -141.28085 | 32223 ft | 464 kts | 235° |
| 2026-04-23 06:20 | 27.03325 | -141.33690 | 32227 ft | 465 kts | 235° |
| 2026-04-23 06:20 | 26.99254 | -141.39351 | 32220 ft | 466 kts | 235° |
| 2026-04-23 06:21 | 26.95180 | -141.45012 | 32218 ft | 466 kts | 235° |
| 2026-04-23 06:21 | 26.91105 | -141.50668 | 32220 ft | 466 kts | 235° |
| 2026-04-23 06:22 | 26.87023 | -141.56325 | 32218 ft | 466 kts | 235° |
| 2026-04-23 06:22 | 26.82925 | -141.61999 | 32214 ft | 468 kts | 235° |
| 2026-04-23 06:23 | 26.78844 | -141.67640 | 32218 ft | 468 kts | 235° |
| 2026-04-23 06:23 | 26.74744 | -141.73302 | 32210 ft | 468 kts | 235° |
| 2026-04-23 06:24 | 26.70640 | -141.78962 | 32224 ft | 468 kts | 235° |
| 2026-04-23 06:24 | 26.66522 | -141.84633 | 32211 ft | 470 kts | 235° |
| 2026-04-23 06:25 | 26.62396 | -141.90307 | 32214 ft | 470 kts | 235° |
| 2026-04-23 06:25 | 26.58270 | -141.95975 | 32210 ft | 470 kts | 235° |
| 2026-04-23 06:26 | 26.54171 | -142.01601 | 32211 ft | 470 kts | 235° |
| 2026-04-23 06:26 | 26.50035 | -142.07271 | 32210 ft | 471 kts | 234° |
| 2026-04-23 06:27 | 26.45883 | -142.12952 | 32211 ft | 471 kts | 234° |
| 2026-04-23 06:27 | 26.41768 | -142.18576 | 32211 ft | 471 kts | 234° |
| 2026-04-23 06:28 | 26.37617 | -142.24243 | 32212 ft | 471 kts | 234° |
| 2026-04-23 06:28 | 26.33476 | -142.29888 | 32212 ft | 470 kts | 234° |
| 2026-04-23 06:29 | 26.29332 | -142.35530 | 32209 ft | 471 kts | 234° |
| 2026-04-23 06:29 | 26.25868 | -142.40242 | 32205 ft | 470 kts | 234° |
| 2026-04-23 06:30 | 26.21052 | -142.46785 | 32206 ft | 470 kts | 234° |
| 2026-04-23 06:30 | 26.16903 | -142.52417 | 32203 ft | 469 kts | 234° |
| 2026-04-23 06:31 | 26.13253 | -142.56984 | 32202 ft | 474 kts | 228° |
| 2026-04-23 06:31 | 26.08543 | -142.62125 | 32205 ft | 473 kts | 229° |
| 2026-04-23 06:32 | 26.03930 | -142.67260 | 32201 ft | 473 kts | 229° |
| 2026-04-23 06:32 | 25.99271 | -142.72430 | 32193 ft | 473 kts | 229° |
| 2026-04-23 06:33 | 25.94598 | -142.77601 | 32201 ft | 474 kts | 229° |
| 2026-04-23 06:33 | 25.89912 | -142.82775 | 32204 ft | 474 kts | 229° |
| 2026-04-23 06:34 | 25.85230 | -142.87938 | 32199 ft | 474 kts | 229° |
| 2026-04-23 06:34 | 25.80542 | -142.93102 | 32196 ft | 474 kts | 229° |
| 2026-04-23 06:35 | 25.75854 | -142.98265 | 32197 ft | 474 kts | 229° |
| 2026-04-23 06:35 | 25.71210 | -143.03377 | 32199 ft | 475 kts | 229° |
| 2026-04-23 06:36 | 25.66510 | -143.08544 | 32197 ft | 475 kts | 229° |
| 2026-04-23 06:36 | 25.61798 | -143.13706 | 32203 ft | 476 kts | 229° |
| 2026-04-23 06:37 | 25.57089 | -143.18861 | 32204 ft | 476 kts | 229° |
| 2026-04-23 06:37 | 25.52377 | -143.24015 | 32196 ft | 476 kts | 229° |
| 2026-04-23 06:38 | 25.47667 | -143.29162 | 32191 ft | 476 kts | 229° |
| 2026-04-23 06:38 | 25.42944 | -143.34321 | 32201 ft | 478 kts | 228° |
| 2026-04-23 06:39 | 25.38213 | -143.39481 | 32189 ft | 477 kts | 228° |
| 2026-04-23 06:39 | 25.33488 | -143.44624 | 32189 ft | 477 kts | 228° |
| 2026-04-23 06:40 | 25.28758 | -143.49769 | 32189 ft | 477 kts | 228° |
| 2026-04-23 06:40 | 25.24030 | -143.54907 | 32189 ft | 479 kts | 227° |
| 2026-04-23 06:41 | 25.19316 | -143.60023 | 32192 ft | 479 kts | 227° |
| 2026-04-23 06:41 | 25.14559 | -143.65180 | 32189 ft | 478 kts | 227° |
| 2026-04-23 06:42 | 25.09804 | -143.70328 | 32187 ft | 479 kts | 227° |
| 2026-04-23 06:42 | 25.05051 | -143.75471 | 32180 ft | 480 kts | 227° |
| 2026-04-23 06:43 | 25.00293 | -143.80612 | 32181 ft | 479 kts | 227° |
| 2026-04-23 06:43 | 24.95518 | -143.85765 | 32180 ft | 479 kts | 227° |
| 2026-04-23 06:44 | 24.90745 | -143.90908 | 32180 ft | 479 kts | 227° |
| 2026-04-23 06:44 | 24.85972 | -143.96048 | 32168 ft | 481 kts | 227° |
| 2026-04-23 06:45 | 24.81219 | -144.01158 | 32181 ft | 481 kts | 227° |
| 2026-04-23 06:45 | 24.76426 | -144.06309 | 32182 ft | 481 kts | 227° |
| 2026-04-23 06:46 | 24.71630 | -144.11455 | 32182 ft | 481 kts | 227° |
| 2026-04-23 06:46 | 24.66833 | -144.16597 | 32167 ft | 481 kts | 227° |
| 2026-04-23 06:47 | 24.62034 | -144.21733 | 32180 ft | 482 kts | 227° |
| 2026-04-23 06:47 | 24.57227 | -144.26872 | 32182 ft | 482 kts | 228° |
| 2026-04-23 06:48 | 24.52420 | -144.32007 | 32182 ft | 482 kts | 228° |
| 2026-04-23 06:48 | 24.47608 | -144.37142 | 32181 ft | 482 kts | 228° |
| 2026-04-23 06:49 | 24.42798 | -144.42267 | 32182 ft | 484 kts | 228° |
| 2026-04-23 06:49 | 24.37976 | -144.47402 | 32178 ft | 484 kts | 228° |
| 2026-04-23 06:50 | 24.33120 | -144.52563 | 32177 ft | 484 kts | 228° |
| 2026-04-23 06:50 | 24.28284 | -144.57700 | 32179 ft | 484 kts | 228° |
| 2026-04-23 06:51 | 24.23475 | -144.62801 | 32177 ft | 485 kts | 228° |
| 2026-04-23 06:51 | 24.18626 | -144.67941 | 32174 ft | 485 kts | 228° |
| 2026-04-23 06:52 | 24.13762 | -144.73091 | 32178 ft | 485 kts | 228° |
| 2026-04-23 06:52 | 24.08888 | -144.78244 | 32179 ft | 486 kts | 229° |
| 2026-04-23 06:53 | 24.04056 | -144.83350 | 32177 ft | 488 kts | 229° |
| 2026-04-23 06:53 | 23.99171 | -144.88503 | 32175 ft | 488 kts | 229° |
| 2026-04-23 06:54 | 23.94271 | -144.93667 | 32175 ft | 488 kts | 229° |
| 2026-04-23 06:54 | 23.89359 | -144.98836 | 32173 ft | 488 kts | 228° |
| 2026-04-23 06:55 | 23.84487 | -145.03959 | 32174 ft | 488 kts | 229° |
| 2026-04-23 06:55 | 23.79580 | -145.09112 | 32171 ft | 488 kts | 229° |
| 2026-04-23 06:56 | 23.74706 | -145.14228 | 32170 ft | 489 kts | 229° |
| 2026-04-23 06:56 | 23.69806 | -145.19365 | 32168 ft | 489 kts | 229° |
| 2026-04-23 06:57 | 23.64897 | -145.24503 | 32165 ft | 489 kts | 229° |
| 2026-04-23 06:57 | 23.59986 | -145.29638 | 32170 ft | 489 kts | 229° |
| 2026-04-23 06:58 | 23.55075 | -145.34772 | 32170 ft | 489 kts | 229° |
| 2026-04-23 06:58 | 23.50187 | -145.39876 | 32169 ft | 489 kts | 228° |
| 2026-04-23 06:59 | 23.45244 | -145.45006 | 32171 ft | 489 kts | 228° |
| 2026-04-23 06:59 | 23.40305 | -145.50138 | 32164 ft | 490 kts | 228° |
| 2026-04-23 07:00 | 23.35369 | -145.55262 | 32181 ft | 490 kts | 228° |
| 2026-04-23 07:00 | 23.30478 | -145.60335 | 32184 ft | 490 kts | 228° |
| 2026-04-23 07:01 | 23.25545 | -145.65445 | 32166 ft | 489 kts | 228° |
| 2026-04-23 07:01 | 23.20605 | -145.70557 | 32168 ft | 490 kts | 228° |
| 2026-04-23 07:02 | 23.15654 | -145.75673 | 32166 ft | 490 kts | 228° |
| 2026-04-23 07:02 | 23.10736 | -145.80750 | 32164 ft | 490 kts | 228° |
| 2026-04-23 07:03 | 23.05782 | -145.85860 | 32170 ft | 490 kts | 228° |
| 2026-04-23 07:03 | 23.00827 | -145.90963 | 32165 ft | 490 kts | 228° |
| 2026-04-23 07:04 | 22.95883 | -145.96051 | 32162 ft | 490 kts | 228° |
| 2026-04-23 07:04 | 22.90926 | -146.01147 | 32165 ft | 490 kts | 228° |
| 2026-04-23 07:05 | 22.86011 | -146.06196 | 32164 ft | 490 kts | 228° |
| 2026-04-23 07:05 | 22.81045 | -146.11291 | 32148 ft | 490 kts | 228° |
| 2026-04-23 07:06 | 22.76104 | -146.16354 | 32164 ft | 489 kts | 227° |
| 2026-04-23 07:06 | 22.71163 | -146.21413 | 32161 ft | 489 kts | 227° |
| 2026-04-23 07:07 | 22.66214 | -146.26475 | 32160 ft | 489 kts | 227° |
| 2026-04-23 07:07 | 22.61299 | -146.31496 | 32153 ft | 489 kts | 227° |
| 2026-04-23 07:08 | 22.56345 | -146.36552 | 32161 ft | 489 kts | 227° |
| 2026-04-23 07:08 | 22.51384 | -146.41609 | 32157 ft | 489 kts | 227° |
| 2026-04-23 07:09 | 22.46455 | -146.46629 | 32156 ft | 489 kts | 227° |
| 2026-04-23 07:09 | 22.41492 | -146.51679 | 32157 ft | 489 kts | 227° |
| 2026-04-23 07:10 | 22.36533 | -146.56718 | 32146 ft | 489 kts | 227° |
| 2026-04-23 07:10 | 22.31565 | -146.61764 | 32156 ft | 489 kts | 227° |
| 2026-04-23 07:11 | 22.26605 | -146.66794 | 32157 ft | 489 kts | 227° |
| 2026-04-23 07:12 | 22.19185 | -146.74310 | 32153 ft | 489 kts | 227° |
| 2026-04-23 07:12 | 22.14212 | -146.79341 | 32149 ft | 489 kts | 227° |
| 2026-04-23 07:13 | 22.09238 | -146.84368 | 32156 ft | 490 kts | 227° |
| 2026-04-23 07:13 | 22.04257 | -146.89396 | 32153 ft | 490 kts | 227° |
| 2026-04-23 07:14 | 21.99276 | -146.94420 | 32158 ft | 490 kts | 227° |
| 2026-04-23 07:14 | 21.94329 | -146.99402 | 32158 ft | 490 kts | 227° |
| 2026-04-23 07:15 | 21.89343 | -147.04422 | 32161 ft | 490 kts | 227° |
| 2026-04-23 07:15 | 21.84398 | -147.09395 | 32160 ft | 490 kts | 227° |
| 2026-04-23 07:16 | 21.79418 | -147.14397 | 32151 ft | 490 kts | 227° |
| 2026-04-23 07:16 | 21.74428 | -147.19405 | 32132 ft | 489 kts | 227° |
| 2026-04-23 07:17 | 21.69431 | -147.24415 | 32156 ft | 489 kts | 227° |
| 2026-04-23 07:17 | 21.65285 | -147.28569 | 32152 ft | 489 kts | 226° |
| 2026-04-23 07:18 | 21.59500 | -147.34358 | 32158 ft | 489 kts | 226° |
| 2026-04-23 07:18 | 21.55334 | -147.38523 | 32154 ft | 489 kts | 226° |
| 2026-04-23 07:19 | 21.50338 | -147.43511 | 32151 ft | 489 kts | 226° |
| 2026-04-23 07:19 | 21.45377 | -147.48464 | 32147 ft | 490 kts | 226° |
| 2026-04-23 07:20 | 21.40381 | -147.53443 | 32151 ft | 490 kts | 226° |
| 2026-04-23 07:20 | 21.35367 | -147.58435 | 32149 ft | 490 kts | 226° |
| 2026-04-23 07:21 | 21.30365 | -147.63412 | 32147 ft | 490 kts | 226° |
| 2026-04-23 07:21 | 21.25402 | -147.68343 | 32151 ft | 490 kts | 226° |
| 2026-04-23 07:22 | 21.20387 | -147.73325 | 32142 ft | 491 kts | 226° |
| 2026-04-23 07:22 | 21.15365 | -147.78306 | 32143 ft | 491 kts | 226° |
| 2026-04-23 07:23 | 21.10394 | -147.83233 | 32145 ft | 491 kts | 226° |
| 2026-04-23 07:23 | 21.05366 | -147.88211 | 32368 ft | 493 kts | 226° |
| 2026-04-23 07:23 | 21.02831 | -147.90718 | 32745 ft | 493 kts | 226° |
| 2026-04-23 07:24 | 21.00312 | -147.93209 | 33110 ft | 492 kts | 226° |
| 2026-04-23 07:24 | 20.97830 | -147.95662 | 33464 ft | 492 kts | 226° |
| 2026-04-23 07:24 | 20.95311 | -147.98150 | 33883 ft | 491 kts | 226° |
| 2026-04-23 07:24 | 20.92808 | -148.00622 | 34113 ft | 489 kts | 226° |
| 2026-04-23 07:25 | 20.90311 | -148.03087 | 34146 ft | 487 kts | 226° |
| 2026-04-23 07:25 | 20.85335 | -148.08001 | 34146 ft | 487 kts | 226° |
| 2026-04-23 07:26 | 20.80423 | -148.13024 | 34148 ft | 486 kts | 228° |
| 2026-04-23 07:26 | 20.75613 | -148.18112 | 34144 ft | 487 kts | 228° |
| 2026-04-23 07:27 | 20.70802 | -148.23151 | 34149 ft | 487 kts | 228° |
| 2026-04-23 07:27 | 20.65927 | -148.28238 | 34146 ft | 488 kts | 228° |
| 2026-04-23 07:28 | 20.61095 | -148.33271 | 34140 ft | 488 kts | 228° |
| 2026-04-23 07:28 | 20.56232 | -148.38331 | 34147 ft | 488 kts | 227° |
| 2026-04-23 07:29 | 20.51371 | -148.43385 | 34141 ft | 488 kts | 227° |
| 2026-04-23 07:29 | 20.46503 | -148.48441 | 34132 ft | 488 kts | 227° |
| 2026-04-23 07:30 | 20.41668 | -148.53458 | 34137 ft | 488 kts | 227° |
| 2026-04-23 07:30 | 20.36804 | -148.58500 | 34140 ft | 488 kts | 227° |
| 2026-04-23 07:31 | 20.31932 | -148.63545 | 34140 ft | 488 kts | 227° |
| 2026-04-23 07:31 | 20.27046 | -148.68603 | 34134 ft | 488 kts | 227° |
| 2026-04-23 07:32 | 20.22162 | -148.73650 | 34131 ft | 488 kts | 227° |
| 2026-04-23 07:32 | 20.17334 | -148.78636 | 34134 ft | 489 kts | 227° |
| 2026-04-23 07:33 | 20.12447 | -148.83680 | 34136 ft | 489 kts | 227° |
| 2026-04-23 07:33 | 20.07549 | -148.88729 | 34137 ft | 489 kts | 227° |
| 2026-04-23 07:34 | 20.02641 | -148.93784 | 34126 ft | 489 kts | 227° |
| 2026-04-23 07:34 | 19.97786 | -148.98781 | 34129 ft | 489 kts | 227° |
| 2026-04-23 07:35 | 19.92870 | -149.03835 | 34129 ft | 490 kts | 227° |
| 2026-04-23 07:35 | 19.87999 | -149.08838 | 34127 ft | 490 kts | 227° |
| 2026-04-23 07:36 | 19.83083 | -149.13884 | 34129 ft | 490 kts | 227° |
| 2026-04-23 07:36 | 19.78204 | -149.18887 | 34126 ft | 490 kts | 227° |
| 2026-04-23 07:37 | 19.73284 | -149.23927 | 34129 ft | 490 kts | 227° |
| 2026-04-23 07:37 | 19.68363 | -149.28962 | 34134 ft | 490 kts | 227° |
| 2026-04-23 07:38 | 19.63447 | -149.33989 | 34128 ft | 491 kts | 227° |
| 2026-04-23 07:38 | 19.58566 | -149.38976 | 34129 ft | 491 kts | 227° |
| 2026-04-23 07:39 | 19.53640 | -149.44004 | 34131 ft | 491 kts | 227° |
| 2026-04-23 07:39 | 19.48717 | -149.49024 | 34125 ft | 491 kts | 227° |
| 2026-04-23 07:40 | 19.43787 | -149.54049 | 34126 ft | 491 kts | 227° |
| 2026-04-23 07:40 | 19.38855 | -149.59069 | 34128 ft | 491 kts | 227° |
| 2026-04-23 07:41 | 19.33959 | -149.64049 | 34123 ft | 491 kts | 227° |
| 2026-04-23 07:41 | 19.29007 | -149.69081 | 34124 ft | 491 kts | 227° |
| 2026-04-23 07:42 | 19.24097 | -149.74066 | 34127 ft | 491 kts | 226° |
| 2026-04-23 07:42 | 19.19152 | -149.79083 | 34127 ft | 492 kts | 226° |
| 2026-04-23 07:43 | 19.14205 | -149.84097 | 34132 ft | 492 kts | 226° |
| 2026-04-23 07:43 | 19.09295 | -149.89070 | 34125 ft | 492 kts | 226° |
| 2026-04-23 07:44 | 19.04355 | -149.94069 | 34123 ft | 492 kts | 226° |
| 2026-04-23 07:44 | 18.99398 | -149.99078 | 34117 ft | 492 kts | 226° |
| 2026-04-23 07:45 | 18.94441 | -150.04086 | 34117 ft | 492 kts | 226° |
| 2026-04-23 07:45 | 18.89527 | -150.09044 | 34119 ft | 492 kts | 226° |
| 2026-04-23 07:46 | 18.84561 | -150.14052 | 34115 ft | 492 kts | 226° |
| 2026-04-23 07:46 | 18.79595 | -150.19055 | 34123 ft | 492 kts | 226° |
| 2026-04-23 07:47 | 18.74675 | -150.24008 | 34121 ft | 493 kts | 226° |
| 2026-04-23 07:47 | 18.69708 | -150.29003 | 34121 ft | 493 kts | 226° |
| 2026-04-23 07:48 | 18.64720 | -150.34016 | 34118 ft | 493 kts | 226° |
| 2026-04-23 07:48 | 18.59772 | -150.38984 | 34120 ft | 493 kts | 226° |
| 2026-04-23 07:49 | 18.54792 | -150.43980 | 34109 ft | 494 kts | 226° |
| 2026-04-23 07:49 | 18.49838 | -150.48946 | 34110 ft | 494 kts | 226° |
| 2026-04-23 07:50 | 18.44840 | -150.53950 | 34117 ft | 494 kts | 226° |
| 2026-04-23 07:50 | 18.39836 | -150.58957 | 34117 ft | 495 kts | 226° |
| 2026-04-23 07:51 | 18.34878 | -150.63914 | 34119 ft | 495 kts | 226° |
| 2026-04-23 07:51 | 18.29888 | -150.68898 | 34112 ft | 495 kts | 226° |
| 2026-04-23 07:52 | 18.24888 | -150.73888 | 34111 ft | 495 kts | 226° |
| 2026-04-23 07:52 | 18.19869 | -150.78894 | 34113 ft | 495 kts | 226° |
| 2026-04-23 07:53 | 18.14904 | -150.83842 | 34110 ft | 496 kts | 226° |
| 2026-04-23 07:53 | 18.09888 | -150.88835 | 34111 ft | 496 kts | 225° |
| 2026-04-23 07:54 | 18.04859 | -150.93838 | 34107 ft | 496 kts | 225° |
| 2026-04-23 07:54 | 17.99863 | -150.98804 | 34105 ft | 497 kts | 225° |
| 2026-04-23 07:55 | 17.94836 | -151.03797 | 34112 ft | 497 kts | 225° |
| 2026-04-23 07:55 | 17.89831 | -151.08763 | 34112 ft | 497 kts | 225° |
| 2026-04-23 07:56 | 17.84782 | -151.13770 | 34110 ft | 497 kts | 225° |
| 2026-04-23 07:56 | 17.79749 | -151.18757 | 34100 ft | 498 kts | 225° |
| 2026-04-23 07:57 | 17.74701 | -151.23754 | 34106 ft | 498 kts | 225° |
| 2026-04-23 07:57 | 17.69692 | -151.28711 | 34108 ft | 499 kts | 225° |
| 2026-04-23 07:58 | 17.64629 | -151.33717 | 34103 ft | 499 kts | 225° |
| 2026-04-23 07:58 | 17.59640 | -151.38796 | 34107 ft | 498 kts | 227° |
| 2026-04-23 07:59 | 17.54854 | -151.43975 | 34107 ft | 498 kts | 227° |
| 2026-04-23 07:59 | 17.49996 | -151.49177 | 34100 ft | 499 kts | 227° |
| 2026-04-23 08:00 | 17.45114 | -151.54370 | 34109 ft | 499 kts | 227° |
| 2026-04-23 08:00 | 17.40233 | -151.59553 | 34109 ft | 500 kts | 227° |
| 2026-04-23 08:01 | 17.35380 | -151.64702 | 34110 ft | 500 kts | 227° |
| 2026-04-23 08:01 | 17.30484 | -151.69892 | 34109 ft | 500 kts | 227° |
| 2026-04-23 08:02 | 17.25590 | -151.75077 | 34099 ft | 499 kts | 227° |
| 2026-04-23 08:02 | 17.20731 | -151.80218 | 34108 ft | 499 kts | 227° |
| 2026-04-23 08:03 | 17.15839 | -151.85390 | 34106 ft | 499 kts | 226° |
| 2026-04-23 08:03 | 17.10954 | -151.90554 | 34092 ft | 499 kts | 226° |
| 2026-04-23 08:04 | 17.06101 | -151.95678 | 34092 ft | 499 kts | 226° |
| 2026-04-23 08:04 | 17.01211 | -152.00838 | 34084 ft | 498 kts | 226° |
| 2026-04-23 08:05 | 16.96327 | -152.05983 | 34105 ft | 498 kts | 227° |
| 2026-04-23 08:05 | 16.91486 | -152.11080 | 34109 ft | 497 kts | 227° |
| 2026-04-23 08:06 | 16.86617 | -152.16205 | 34095 ft | 497 kts | 227° |
| 2026-04-23 08:06 | 16.81745 | -152.21330 | 34080 ft | 497 kts | 226° |
| 2026-04-23 08:07 | 16.76861 | -152.26465 | 34083 ft | 497 kts | 226° |
| 2026-04-23 08:07 | 16.72796 | -152.30735 | 34079 ft | 497 kts | 226° |
| 2026-04-23 08:08 | 16.67125 | -152.36682 | 34095 ft | 497 kts | 226° |
| 2026-04-23 08:08 | 16.63060 | -152.40947 | 34097 ft | 498 kts | 227° |
| 2026-04-23 08:09 | 16.58172 | -152.46070 | 34094 ft | 498 kts | 226° |
| 2026-04-23 08:09 | 16.53272 | -152.51202 | 34082 ft | 499 kts | 226° |
| 2026-04-23 08:10 | 16.48404 | -152.56296 | 34084 ft | 499 kts | 226° |
| 2026-04-23 08:10 | 16.41051 | -152.63980 | 34095 ft | 498 kts | 226° |
| 2026-04-23 08:11 | 16.36141 | -152.69106 | 34094 ft | 497 kts | 226° |
| 2026-04-23 08:11 | 16.31289 | -152.74166 | 34090 ft | 496 kts | 226° |
| 2026-04-23 08:12 | 16.26405 | -152.79258 | 34094 ft | 496 kts | 226° |
| 2026-04-23 08:12 | 16.21523 | -152.84344 | 34064 ft | 496 kts | 226° |
| 2026-04-23 08:13 | 16.16656 | -152.89411 | 34081 ft | 495 kts | 225° |
| 2026-04-23 08:13 | 16.11821 | -152.94444 | 34075 ft | 494 kts | 226° |
| 2026-04-23 08:14 | 16.06958 | -152.99497 | 34081 ft | 494 kts | 226° |
| 2026-04-23 08:14 | 16.02092 | -153.04549 | 34083 ft | 493 kts | 225° |
| 2026-04-23 08:15 | 15.97229 | -153.09597 | 34075 ft | 494 kts | 226° |
| 2026-04-23 08:15 | 15.92358 | -153.14651 | 34062 ft | 494 kts | 226° |
| 2026-04-23 08:16 | 15.87535 | -153.19649 | 34057 ft | 494 kts | 226° |
| 2026-04-23 08:16 | 15.82666 | -153.24693 | 34075 ft | 493 kts | 226° |
| 2026-04-23 08:17 | 15.77791 | -153.29739 | 34073 ft | 493 kts | 226° |
| 2026-04-23 08:17 | 15.72968 | -153.34727 | 34077 ft | 493 kts | 225° |
| 2026-04-23 08:18 | 15.68102 | -153.39757 | 34071 ft | 493 kts | 226° |
| 2026-04-23 08:18 | 15.63222 | -153.44795 | 34070 ft | 493 kts | 226° |
| 2026-04-23 08:19 | 15.58354 | -153.49820 | 34062 ft | 493 kts | 226° |
| 2026-04-23 08:19 | 15.53482 | -153.54844 | 34073 ft | 493 kts | 226° |
| 2026-04-23 08:20 | 15.48652 | -153.59823 | 34072 ft | 493 kts | 227° |
| 2026-04-23 08:20 | 15.43779 | -153.64844 | 34078 ft | 493 kts | 226° |
| 2026-04-23 08:21 | 15.38908 | -153.69858 | 34072 ft | 493 kts | 226° |
| 2026-04-23 08:21 | 15.34032 | -153.74870 | 34070 ft | 493 kts | 226° |
| 2026-04-23 08:22 | 15.29157 | -153.79880 | 34065 ft | 493 kts | 226° |
| 2026-04-23 08:22 | 15.24275 | -153.84893 | 34065 ft | 493 kts | 227° |
| 2026-04-23 08:23 | 15.19432 | -153.89864 | 34069 ft | 493 kts | 226° |
| 2026-04-23 08:23 | 15.14550 | -153.94872 | 34068 ft | 493 kts | 226° |
| 2026-04-23 08:24 | 15.09671 | -153.99872 | 34064 ft | 493 kts | 226° |
| 2026-04-23 08:24 | 15.04817 | -154.04842 | 34063 ft | 493 kts | 227° |
| 2026-04-23 08:25 | 14.99928 | -154.09847 | 34056 ft | 494 kts | 227° |
| 2026-04-23 08:25 | 14.95047 | -154.14840 | 34060 ft | 494 kts | 227° |
| 2026-04-23 08:26 | 14.90141 | -154.19853 | 34061 ft | 494 kts | 227° |
| 2026-04-23 08:26 | 14.85257 | -154.24844 | 34064 ft | 494 kts | 226° |
| 2026-04-23 08:27 | 14.80350 | -154.29853 | 34052 ft | 494 kts | 227° |
| 2026-04-23 08:27 | 14.75458 | -154.34842 | 34062 ft | 494 kts | 227° |
| 2026-04-23 08:28 | 14.70562 | -154.39834 | 34056 ft | 494 kts | 227° |
| 2026-04-23 08:28 | 14.65699 | -154.44788 | 34056 ft | 494 kts | 227° |
| 2026-04-23 08:29 | 14.60802 | -154.49774 | 34058 ft | 494 kts | 227° |
| 2026-04-23 08:29 | 14.55905 | -154.54754 | 34052 ft | 494 kts | 227° |
| 2026-04-23 08:30 | 14.51002 | -154.59740 | 34048 ft | 494 kts | 227° |
| 2026-04-23 08:30 | 14.46096 | -154.64723 | 34061 ft | 494 kts | 227° |
| 2026-04-23 08:31 | 14.41190 | -154.69706 | 34052 ft | 493 kts | 227° |
| 2026-04-23 08:31 | 14.36337 | -154.74629 | 34055 ft | 493 kts | 227° |
| 2026-04-23 08:32 | 14.31436 | -154.79599 | 34048 ft | 493 kts | 227° |
| 2026-04-23 08:32 | 14.26550 | -154.84551 | 34045 ft | 493 kts | 227° |
| 2026-04-23 08:33 | 14.21647 | -154.89514 | 34038 ft | 493 kts | 227° |
| 2026-04-23 08:33 | 14.16747 | -154.94474 | 34047 ft | 493 kts | 227° |
| 2026-04-23 08:34 | 14.11876 | -154.99402 | 34034 ft | 493 kts | 227° |
| 2026-04-23 08:34 | 14.06960 | -155.04371 | 34039 ft | 493 kts | 227° |
| 2026-04-23 08:35 | 14.02052 | -155.09329 | 34039 ft | 494 kts | 227° |
| 2026-04-23 08:35 | 13.97146 | -155.14283 | 34040 ft | 494 kts | 227° |
| 2026-04-23 08:36 | 13.92275 | -155.19197 | 34039 ft | 494 kts | 227° |
| 2026-04-23 08:36 | 13.87355 | -155.24156 | 34043 ft | 494 kts | 227° |
| 2026-04-23 08:37 | 13.82435 | -155.29114 | 34043 ft | 495 kts | 227° |
| 2026-04-23 08:37 | 13.77513 | -155.34071 | 34037 ft | 495 kts | 227° |
| 2026-04-23 08:38 | 13.72597 | -155.39021 | 34038 ft | 495 kts | 227° |
| 2026-04-23 08:38 | 13.67686 | -155.43963 | 34043 ft | 495 kts | 227° |
| 2026-04-23 08:39 | 13.62768 | -155.48939 | 34042 ft | 495 kts | 229° |
| 2026-04-23 08:39 | 13.57973 | -155.54043 | 34047 ft | 494 kts | 229° |
| 2026-04-23 08:40 | 13.53222 | -155.59092 | 34045 ft | 494 kts | 229° |
| 2026-04-23 08:40 | 13.48415 | -155.64166 | 34033 ft | 495 kts | 229° |
| 2026-04-23 08:41 | 13.43615 | -155.69228 | 34033 ft | 495 kts | 229° |
| 2026-04-23 08:41 | 13.38794 | -155.74307 | 34030 ft | 495 kts | 229° |
| 2026-04-23 08:42 | 13.34022 | -155.79331 | 34025 ft | 495 kts | 229° |
| 2026-04-23 08:42 | 13.29204 | -155.84401 | 34037 ft | 495 kts | 229° |
| 2026-04-23 08:43 | 13.24394 | -155.89460 | 34035 ft | 495 kts | 229° |
| 2026-04-23 08:43 | 13.19581 | -155.94520 | 34024 ft | 495 kts | 229° |
| 2026-04-23 08:44 | 13.14790 | -155.99554 | 34026 ft | 495 kts | 229° |
| 2026-04-23 08:44 | 13.09986 | -156.04596 | 34028 ft | 496 kts | 229° |
| 2026-04-23 08:45 | 13.05156 | -156.09664 | 34030 ft | 496 kts | 229° |
| 2026-04-23 08:45 | 13.00323 | -156.14722 | 34032 ft | 496 kts | 228° |
| 2026-04-23 08:46 | 12.95322 | -156.19620 | 34034 ft | 497 kts | 226° |
| 2026-04-23 08:46 | 12.90324 | -156.24480 | 34029 ft | 497 kts | 227° |
| 2026-04-23 08:47 | 12.85313 | -156.29396 | 34025 ft | 497 kts | 227° |
| 2026-04-23 08:47 | 12.80312 | -156.34308 | 34028 ft | 497 kts | 227° |
| 2026-04-23 08:48 | 12.75348 | -156.39180 | 34026 ft | 498 kts | 227° |
| 2026-04-23 08:48 | 12.70344 | -156.44089 | 34026 ft | 498 kts | 227° |
| 2026-04-23 08:49 | 12.65337 | -156.48996 | 34022 ft | 498 kts | 227° |
| 2026-04-23 08:49 | 12.60315 | -156.53917 | 34024 ft | 498 kts | 227° |
| 2026-04-23 08:50 | 12.55331 | -156.58796 | 34018 ft | 498 kts | 227° |
| 2026-04-23 08:50 | 12.50306 | -156.63712 | 34018 ft | 498 kts | 227° |
| 2026-04-23 08:51 | 12.45289 | -156.68617 | 34019 ft | 498 kts | 227° |
| 2026-04-23 08:51 | 12.40313 | -156.73481 | 34022 ft | 498 kts | 227° |
| 2026-04-23 08:52 | 12.35284 | -156.78393 | 34022 ft | 498 kts | 227° |
| 2026-04-23 08:52 | 12.30249 | -156.83309 | 34021 ft | 498 kts | 227° |
| 2026-04-23 08:53 | 12.25236 | -156.88200 | 34022 ft | 498 kts | 227° |
| 2026-04-23 08:53 | 12.20247 | -156.93066 | 34020 ft | 498 kts | 227° |
| 2026-04-23 08:54 | 12.15222 | -156.97962 | 34019 ft | 499 kts | 227° |
| 2026-04-23 08:54 | 12.10228 | -157.02826 | 34018 ft | 499 kts | 227° |
| 2026-04-23 08:55 | 12.06034 | -157.06910 | 34009 ft | 499 kts | 227° |
| 2026-04-23 08:55 | 12.01005 | -157.11803 | 34013 ft | 499 kts | 227° |
| 2026-04-23 08:56 | 11.95976 | -157.16695 | 34034 ft | 499 kts | 227° |
| 2026-04-23 08:56 | 11.90935 | -157.21595 | 34030 ft | 499 kts | 227° |
| 2026-04-23 08:57 | 11.85937 | -157.26451 | 34009 ft | 499 kts | 227° |
| 2026-04-23 08:57 | 11.80883 | -157.31359 | 33996 ft | 499 kts | 227° |
| 2026-04-23 08:58 | 11.75846 | -157.36247 | 34002 ft | 499 kts | 227° |
| 2026-04-23 08:58 | 11.70812 | -157.41130 | 34016 ft | 499 kts | 227° |
| 2026-04-23 08:59 | 11.65768 | -157.46021 | 34015 ft | 500 kts | 227° |
| 2026-04-23 08:59 | 11.60761 | -157.50873 | 34002 ft | 500 kts | 227° |
| 2026-04-23 09:00 | 11.55723 | -157.55752 | 34020 ft | 500 kts | 227° |
| 2026-04-23 09:00 | 11.50678 | -157.60634 | 34019 ft | 500 kts | 227° |
| 2026-04-23 09:01 | 11.45631 | -157.65518 | 33991 ft | 500 kts | 227° |
| 2026-04-23 09:01 | 11.40583 | -157.70399 | 34004 ft | 500 kts | 227° |
| 2026-04-23 09:02 | 11.35567 | -157.75248 | 34010 ft | 500 kts | 227° |
| 2026-04-23 09:02 | 11.30504 | -157.80138 | 34011 ft | 500 kts | 227° |
| 2026-04-23 09:03 | 11.25442 | -157.85025 | 34011 ft | 500 kts | 227° |
| 2026-04-23 09:03 | 11.20383 | -157.89907 | 34010 ft | 500 kts | 227° |
| 2026-04-23 09:04 | 11.15324 | -157.94784 | 34006 ft | 500 kts | 227° |
| 2026-04-23 09:04 | 11.10261 | -157.99667 | 34009 ft | 500 kts | 227° |
| 2026-04-23 09:05 | 11.05234 | -158.04511 | 34005 ft | 500 kts | 227° |
| 2026-04-23 09:05 | 11.00156 | -158.09401 | 34005 ft | 500 kts | 227° |
| 2026-04-23 09:06 | 10.95133 | -158.14237 | 33989 ft | 501 kts | 227° |
| 2026-04-23 09:06 | 10.90051 | -158.19126 | 34002 ft | 500 kts | 227° |
| 2026-04-23 09:07 | 10.85018 | -158.23966 | 34004 ft | 500 kts | 227° |
| 2026-04-23 09:07 | 10.79957 | -158.28831 | 33998 ft | 500 kts | 227° |
| 2026-04-23 09:08 | 10.74891 | -158.33698 | 33994 ft | 500 kts | 227° |
| 2026-04-23 09:08 | 10.69830 | -158.38558 | 33988 ft | 500 kts | 227° |
| 2026-04-23 09:09 | 10.64803 | -158.43383 | 33998 ft | 500 kts | 227° |
| 2026-04-23 09:09 | 10.59738 | -158.48241 | 33992 ft | 500 kts | 227° |
| 2026-04-23 09:10 | 10.52132 | -158.55531 | 33996 ft | 500 kts | 227° |
| 2026-04-23 09:11 | 10.47066 | -158.60387 | 33999 ft | 500 kts | 227° |
| 2026-04-23 09:11 | 10.42053 | -158.65189 | 34001 ft | 499 kts | 227° |
| 2026-04-23 09:12 | 10.36993 | -158.70033 | 33996 ft | 499 kts | 227° |
| 2026-04-23 09:12 | 10.31930 | -158.74876 | 33995 ft | 499 kts | 227° |
| 2026-04-23 09:13 | 10.26859 | -158.79725 | 33991 ft | 499 kts | 227° |
| 2026-04-23 09:13 | 10.21819 | -158.84542 | 33978 ft | 499 kts | 227° |
| 2026-04-23 09:14 | 10.16761 | -158.89374 | 33995 ft | 498 kts | 227° |
| 2026-04-23 09:14 | 10.11706 | -158.94204 | 33994 ft | 498 kts | 227° |
| 2026-04-23 09:15 | 10.06684 | -158.98999 | 33991 ft | 498 kts | 227° |
| 2026-04-23 09:15 | 10.01635 | -159.03816 | 33990 ft | 498 kts | 227° |
| 2026-04-23 09:16 | 9.96584 | -159.08634 | 33988 ft | 498 kts | 227° |
| 2026-04-23 09:16 | 9.91562 | -159.13423 | 33988 ft | 498 kts | 227° |
| 2026-04-23 09:17 | 9.86492 | -159.18252 | 33984 ft | 498 kts | 227° |
| 2026-04-23 09:17 | 9.81419 | -159.23085 | 33985 ft | 498 kts | 227° |
| 2026-04-23 09:18 | 9.76365 | -159.27898 | 33988 ft | 498 kts | 227° |
| 2026-04-23 09:18 | 9.71346 | -159.32674 | 33983 ft | 499 kts | 227° |
| 2026-04-23 09:19 | 9.66263 | -159.37509 | 33985 ft | 499 kts | 227° |
| 2026-04-23 09:19 | 9.61234 | -159.42292 | 33986 ft | 499 kts | 227° |
| 2026-04-23 09:20 | 9.56156 | -159.47117 | 33982 ft | 499 kts | 228° |
| 2026-04-23 09:20 | 9.51079 | -159.51939 | 33986 ft | 499 kts | 228° |
| 2026-04-23 09:21 | 9.46055 | -159.56711 | 33983 ft | 499 kts | 228° |
| 2026-04-23 09:21 | 9.40987 | -159.61522 | 33983 ft | 499 kts | 228° |
| 2026-04-23 09:22 | 9.35903 | -159.66346 | 33981 ft | 499 kts | 228° |
| 2026-04-23 09:22 | 9.30830 | -159.71158 | 33983 ft | 499 kts | 228° |
| 2026-04-23 09:23 | 9.25789 | -159.75936 | 33983 ft | 499 kts | 228° |
| 2026-04-23 09:23 | 9.20712 | -159.80746 | 33983 ft | 499 kts | 228° |
| 2026-04-23 09:24 | 9.15630 | -159.85561 | 33980 ft | 499 kts | 228° |
| 2026-04-23 09:24 | 9.10591 | -159.90331 | 33977 ft | 499 kts | 228° |
| 2026-04-23 09:25 | 9.05498 | -159.95154 | 33985 ft | 500 kts | 228° |
| 2026-04-23 09:25 | 9.00406 | -159.99972 | 33982 ft | 500 kts | 228° |
| 2026-04-23 09:26 | 8.95347 | -160.04758 | 33980 ft | 500 kts | 228° |
| 2026-04-23 09:26 | 8.90275 | -160.09573 | 33973 ft | 500 kts | 229° |
| 2026-04-23 09:27 | 8.85226 | -160.14437 | 33980 ft | 500 kts | 229° |
| 2026-04-23 09:27 | 8.80217 | -160.19257 | 33977 ft | 500 kts | 229° |
| 2026-04-23 09:28 | 8.75173 | -160.24101 | 33969 ft | 500 kts | 228° |
| 2026-04-23 09:28 | 8.70121 | -160.28950 | 33974 ft | 500 kts | 228° |
| 2026-04-23 09:29 | 8.65062 | -160.33802 | 33979 ft | 501 kts | 228° |
| 2026-04-23 09:29 | 8.60040 | -160.38619 | 33979 ft | 501 kts | 228° |
| 2026-04-23 09:30 | 8.54990 | -160.43459 | 33974 ft | 501 kts | 228° |
| 2026-04-23 09:30 | 8.49906 | -160.48330 | 33978 ft | 501 kts | 228° |
| 2026-04-23 09:31 | 8.44843 | -160.53179 | 33979 ft | 501 kts | 228° |
| 2026-04-23 09:31 | 8.39823 | -160.57985 | 33970 ft | 502 kts | 228° |
| 2026-04-23 09:32 | 8.34743 | -160.62847 | 33973 ft | 502 kts | 228° |
| 2026-04-23 09:32 | 8.29657 | -160.67712 | 33970 ft | 502 kts | 228° |
| 2026-04-23 09:33 | 8.24628 | -160.72522 | 33991 ft | 502 kts | 228° |
| 2026-04-23 09:33 | 8.19544 | -160.77382 | 33970 ft | 502 kts | 228° |
| 2026-04-23 09:34 | 8.14453 | -160.82246 | 33982 ft | 502 kts | 228° |
| 2026-04-23 09:34 | 8.09368 | -160.87104 | 33983 ft | 502 kts | 228° |
| 2026-04-23 09:35 | 8.04294 | -160.91950 | 33960 ft | 502 kts | 228° |
| 2026-04-23 09:35 | 7.99247 | -160.96767 | 33960 ft | 503 kts | 228° |
| 2026-04-23 09:36 | 7.94161 | -161.01621 | 33964 ft | 502 kts | 228° |
| 2026-04-23 09:36 | 7.89063 | -161.06483 | 33983 ft | 502 kts | 228° |
| 2026-04-23 09:37 | 7.84019 | -161.11293 | 33964 ft | 502 kts | 228° |
| 2026-04-23 09:37 | 7.78913 | -161.16160 | 33966 ft | 503 kts | 228° |
| 2026-04-23 09:38 | 7.73859 | -161.20976 | 33956 ft | 503 kts | 228° |
| 2026-04-23 09:38 | 7.68767 | -161.25827 | 33963 ft | 503 kts | 228° |
| 2026-04-23 09:39 | 7.63674 | -161.30676 | 33981 ft | 503 kts | 228° |
| 2026-04-23 09:39 | 7.58594 | -161.35513 | 33961 ft | 503 kts | 228° |
| 2026-04-23 09:40 | 7.53509 | -161.40351 | 33980 ft | 503 kts | 228° |
| 2026-04-23 09:40 | 7.48449 | -161.45165 | 33960 ft | 503 kts | 228° |
| 2026-04-23 09:41 | 7.43352 | -161.50011 | 33955 ft | 503 kts | 228° |
| 2026-04-23 09:41 | 7.38270 | -161.54843 | 33955 ft | 503 kts | 228° |
| 2026-04-23 09:42 | 7.33177 | -161.59683 | 33975 ft | 502 kts | 228° |
| 2026-04-23 09:42 | 7.28935 | -161.63713 | 33953 ft | 502 kts | 228° |
| 2026-04-23 09:43 | 7.23030 | -161.69321 | 33958 ft | 502 kts | 228° |
| 2026-04-23 09:43 | 7.18793 | -161.73341 | 33938 ft | 503 kts | 228° |
| 2026-04-23 09:44 | 7.13676 | -161.78200 | 33943 ft | 504 kts | 228° |
| 2026-04-23 09:44 | 7.08596 | -161.83019 | 33951 ft | 505 kts | 228° |
| 2026-04-23 09:45 | 7.03469 | -161.87883 | 33953 ft | 506 kts | 228° |
| 2026-04-23 09:45 | 6.98323 | -161.92762 | 33971 ft | 507 kts | 228° |
| 2026-04-23 09:46 | 6.93233 | -161.97587 | 33979 ft | 507 kts | 228° |
| 2026-04-23 09:46 | 6.88070 | -162.02479 | 33972 ft | 508 kts | 228° |
| 2026-04-23 09:47 | 6.82924 | -162.07357 | 33971 ft | 507 kts | 228° |
| 2026-04-23 09:47 | 6.77780 | -162.12227 | 33958 ft | 507 kts | 228° |
| 2026-04-23 09:48 | 6.72686 | -162.17049 | 33945 ft | 506 kts | 228° |
| 2026-04-23 09:48 | 6.67554 | -162.21906 | 33943 ft | 506 kts | 228° |
| 2026-04-23 09:49 | 6.62419 | -162.26765 | 33959 ft | 505 kts | 228° |
| 2026-04-23 09:49 | 6.57303 | -162.31606 | 33954 ft | 505 kts | 228° |
| 2026-04-23 09:50 | 6.52169 | -162.36459 | 33929 ft | 505 kts | 227° |
| 2026-04-23 09:50 | 6.47097 | -162.41257 | 33946 ft | 504 kts | 227° |
| 2026-04-23 09:51 | 6.41987 | -162.46083 | 33933 ft | 503 kts | 227° |
| 2026-04-23 09:51 | 6.36878 | -162.50908 | 33935 ft | 503 kts | 227° |
| 2026-04-23 09:52 | 6.31776 | -162.55728 | 33945 ft | 502 kts | 227° |
| 2026-04-23 09:52 | 6.26677 | -162.60543 | 33953 ft | 502 kts | 227° |
| 2026-04-23 09:53 | 6.21591 | -162.65345 | 33929 ft | 503 kts | 227° |
| 2026-04-23 09:53 | 6.16476 | -162.70174 | 33953 ft | 504 kts | 226° |
| 2026-04-23 09:54 | 6.11560 | -162.75101 | 33952 ft | 501 kts | 229° |
| 2026-04-23 09:54 | 6.06706 | -162.80139 | 33949 ft | 501 kts | 229° |
| 2026-04-23 09:55 | 6.01819 | -162.85147 | 33943 ft | 500 kts | 229° |
| 2026-04-23 09:55 | 5.96972 | -162.90093 | 33945 ft | 500 kts | 229° |
| 2026-04-23 09:56 | 5.92089 | -162.95076 | 33944 ft | 499 kts | 229° |
| 2026-04-23 09:56 | 5.87205 | -163.00057 | 33922 ft | 500 kts | 229° |
| 2026-04-23 09:57 | 5.82322 | -163.05036 | 33932 ft | 500 kts | 229° |
| 2026-04-23 09:57 | 5.77439 | -163.10012 | 33943 ft | 499 kts | 229° |
| 2026-04-23 09:58 | 5.72595 | -163.14947 | 33945 ft | 499 kts | 229° |
| 2026-04-23 09:58 | 5.67715 | -163.19919 | 33942 ft | 499 kts | 229° |
| 2026-04-23 09:59 | 5.62843 | -163.24881 | 33937 ft | 499 kts | 229° |
| 2026-04-23 09:59 | 5.57957 | -163.29856 | 33936 ft | 498 kts | 229° |
| 2026-04-23 10:00 | 5.53130 | -163.34770 | 33947 ft | 497 kts | 229° |
| 2026-04-23 10:00 | 5.48260 | -163.39725 | 33942 ft | 497 kts | 229° |
| 2026-04-23 10:01 | 5.43392 | -163.44675 | 33937 ft | 496 kts | 229° |
| 2026-04-23 10:01 | 5.38542 | -163.49612 | 33932 ft | 497 kts | 229° |
| 2026-04-23 10:02 | 5.33723 | -163.54514 | 33916 ft | 497 kts | 229° |
| 2026-04-23 10:02 | 5.28847 | -163.59471 | 33933 ft | 497 kts | 229° |
| 2026-04-23 10:03 | 5.23984 | -163.64414 | 33930 ft | 498 kts | 229° |
| 2026-04-23 10:03 | 5.19126 | -163.69352 | 33942 ft | 497 kts | 229° |
| 2026-04-23 10:04 | 5.14297 | -163.74257 | 33943 ft | 497 kts | 229° |
| 2026-04-23 10:04 | 5.09427 | -163.79211 | 33896 ft | 500 kts | 227° |
| 2026-04-23 10:05 | 5.04481 | -163.84233 | 33936 ft | 510 kts | 227° |
| 2026-04-23 10:05 | 4.99489 | -163.89297 | 33936 ft | 510 kts | 227° |
| 2026-04-23 10:06 | 4.94504 | -163.94356 | 33936 ft | 510 kts | 227° |
| 2026-04-23 10:06 | 4.89512 | -163.99423 | 33936 ft | 510 kts | 227° |
| 2026-04-23 10:07 | 4.84553 | -164.04452 | 33937 ft | 510 kts | 228° |
| 2026-04-23 10:07 | 4.79555 | -164.09523 | 33941 ft | 511 kts | 228° |
| 2026-04-23 10:08 | 4.74551 | -164.14601 | 33946 ft | 511 kts | 227° |
| 2026-04-23 10:08 | 4.69540 | -164.19682 | 33945 ft | 511 kts | 227° |
| 2026-04-23 10:09 | 4.62070 | -164.27252 | 33941 ft | 511 kts | 227° |
| 2026-04-23 10:09 | 4.57064 | -164.32325 | 33938 ft | 511 kts | 227° |
| 2026-04-23 10:10 | 4.52053 | -164.37402 | 33937 ft | 510 kts | 227° |
| 2026-04-23 10:10 | 4.47098 | -164.42422 | 33938 ft | 510 kts | 227° |
| 2026-04-23 10:11 | 4.42099 | -164.47484 | 33935 ft | 510 kts | 227° |
| 2026-04-23 10:11 | 4.37096 | -164.52552 | 33932 ft | 510 kts | 227° |
| 2026-04-23 10:12 | 4.32091 | -164.57618 | 33931 ft | 510 kts | 227° |
| 2026-04-23 10:12 | 4.27141 | -164.62628 | 33931 ft | 510 kts | 227° |
| 2026-04-23 10:13 | 4.22142 | -164.67686 | 33933 ft | 510 kts | 227° |
| 2026-04-23 10:13 | 4.17143 | -164.72745 | 33931 ft | 511 kts | 227° |
| 2026-04-23 10:14 | 4.12131 | -164.77814 | 33937 ft | 511 kts | 227° |
| 2026-04-23 10:14 | 4.07134 | -164.82868 | 33934 ft | 511 kts | 227° |
| 2026-04-23 10:15 | 4.02169 | -164.87888 | 33930 ft | 511 kts | 227° |
| 2026-04-23 10:15 | 3.97169 | -164.92943 | 33934 ft | 511 kts | 227° |
| 2026-04-23 10:16 | 3.92167 | -164.97999 | 33931 ft | 510 kts | 227° |
| 2026-04-23 10:16 | 3.87157 | -165.03063 | 33932 ft | 510 kts | 227° |
| 2026-04-23 10:17 | 3.82186 | -165.08087 | 33926 ft | 511 kts | 227° |
| 2026-04-23 10:17 | 3.77173 | -165.13151 | 33927 ft | 511 kts | 227° |
| 2026-04-23 10:18 | 3.72162 | -165.18212 | 33929 ft | 511 kts | 227° |
| 2026-04-23 10:18 | 3.67151 | -165.23274 | 33958 ft | 510 kts | 227° |
| 2026-04-23 10:19 | 3.62195 | -165.28277 | 33948 ft | 509 kts | 227° |
| 2026-04-23 10:19 | 3.57216 | -165.33304 | 33939 ft | 508 kts | 227° |
| 2026-04-23 10:20 | 3.52244 | -165.38322 | 33928 ft | 507 kts | 227° |
| 2026-04-23 10:20 | 3.47276 | -165.43336 | 33925 ft | 506 kts | 227° |
| 2026-04-23 10:21 | 3.42326 | -165.48332 | 33926 ft | 505 kts | 227° |
| 2026-04-23 10:21 | 3.37411 | -165.53291 | 33918 ft | 505 kts | 227° |
| 2026-04-23 10:22 | 3.32466 | -165.58279 | 33915 ft | 505 kts | 227° |
| 2026-04-23 10:22 | 3.27507 | -165.63282 | 33920 ft | 504 kts | 227° |
| 2026-04-23 10:23 | 3.22568 | -165.68263 | 33919 ft | 504 kts | 227° |
| 2026-04-23 10:23 | 3.17659 | -165.73213 | 33916 ft | 504 kts | 227° |
| 2026-04-23 10:24 | 3.12670 | -165.78242 | 33923 ft | 505 kts | 227° |
| 2026-04-23 10:24 | 3.07765 | -165.83187 | 33922 ft | 505 kts | 227° |
| 2026-04-23 10:25 | 3.02804 | -165.88186 | 33924 ft | 505 kts | 227° |
| 2026-04-23 10:25 | 2.97844 | -165.93187 | 33926 ft | 506 kts | 227° |
| 2026-04-23 10:26 | 2.92874 | -165.98195 | 33898 ft | 508 kts | 227° |
| 2026-04-23 10:26 | 2.87917 | -166.03189 | 33905 ft | 509 kts | 227° |
| 2026-04-23 10:27 | 2.82917 | -166.08225 | 33917 ft | 510 kts | 227° |
| 2026-04-23 10:27 | 2.77891 | -166.13287 | 33929 ft | 511 kts | 227° |
| 2026-04-23 10:28 | 2.72902 | -166.18311 | 33928 ft | 512 kts | 227° |
| 2026-04-23 10:28 | 2.67869 | -166.23379 | 33936 ft | 512 kts | 227° |
| 2026-04-23 10:29 | 2.62846 | -166.28436 | 33933 ft | 512 kts | 227° |
| 2026-04-23 10:29 | 2.57822 | -166.33493 | 33908 ft | 513 kts | 227° |
| 2026-04-23 10:30 | 2.52819 | -166.38529 | 33907 ft | 515 kts | 227° |
| 2026-04-23 10:30 | 2.47765 | -166.43617 | 33917 ft | 516 kts | 227° |
| 2026-04-23 10:31 | 2.42708 | -166.48705 | 33923 ft | 517 kts | 227° |
| 2026-04-23 10:31 | 2.37630 | -166.53814 | 33935 ft | 517 kts | 227° |
| 2026-04-23 10:32 | 2.32560 | -166.58916 | 33937 ft | 516 kts | 227° |
| 2026-04-23 10:32 | 2.28337 | -166.63163 | 33932 ft | 516 kts | 227° |
| 2026-04-23 10:33 | 2.22458 | -166.69078 | 34084 ft | 517 kts | 227° |
| 2026-04-23 10:33 | 2.19930 | -166.71622 | 34535 ft | 514 kts | 227° |
| 2026-04-23 10:33 | 2.18246 | -166.73315 | 34815 ft | 512 kts | 227° |
| 2026-04-23 10:34 | 2.15736 | -166.75839 | 35223 ft | 511 kts | 227° |
| 2026-04-23 10:34 | 2.13223 | -166.78366 | 35626 ft | 509 kts | 227° |
| 2026-04-23 10:34 | 2.10730 | -166.80874 | 35867 ft | 507 kts | 227° |
| 2026-04-23 10:34 | 2.08250 | -166.83369 | 35924 ft | 505 kts | 227° |
| 2026-04-23 10:35 | 2.03297 | -166.88348 | 35919 ft | 504 kts | 227° |
| 2026-04-23 10:35 | 1.98355 | -166.93221 | 35920 ft | 504 kts | 225° |
| 2026-04-23 10:36 | 1.93210 | -166.98022 | 35920 ft | 504 kts | 225° |
| 2026-04-23 10:36 | 1.88088 | -167.02839 | 35919 ft | 504 kts | 225° |
| 2026-04-23 10:37 | 1.83025 | -167.07628 | 35933 ft | 503 kts | 225° |
| 2026-04-23 10:37 | 1.77938 | -167.12441 | 35925 ft | 503 kts | 225° |
| 2026-04-23 10:38 | 1.72856 | -167.17249 | 35920 ft | 502 kts | 225° |
| 2026-04-23 10:38 | 1.67781 | -167.22051 | 35916 ft | 502 kts | 225° |
| 2026-04-23 10:39 | 1.62743 | -167.26816 | 35914 ft | 501 kts | 225° |
| 2026-04-23 10:39 | 1.57665 | -167.31619 | 35910 ft | 501 kts | 225° |
| 2026-04-23 10:40 | 1.52606 | -167.36403 | 35913 ft | 501 kts | 225° |
| 2026-04-23 10:40 | 1.47540 | -167.41194 | 35920 ft | 501 kts | 225° |
| 2026-04-23 10:41 | 1.42470 | -167.45987 | 35920 ft | 501 kts | 225° |
| 2026-04-23 10:41 | 1.37447 | -167.50737 | 35919 ft | 501 kts | 225° |
| 2026-04-23 10:42 | 1.32383 | -167.55525 | 35918 ft | 500 kts | 225° |
| 2026-04-23 10:42 | 1.27310 | -167.60322 | 35921 ft | 500 kts | 225° |
| 2026-04-23 10:43 | 1.22284 | -167.65074 | 35920 ft | 500 kts | 225° |
| 2026-04-23 10:43 | 1.17221 | -167.69859 | 35920 ft | 500 kts | 225° |
| 2026-04-23 10:44 | 1.12162 | -167.74641 | 35916 ft | 500 kts | 225° |
| 2026-04-23 10:44 | 1.07097 | -167.79428 | 35928 ft | 499 kts | 226° |
| 2026-04-23 10:45 | 1.02046 | -167.84204 | 35927 ft | 499 kts | 225° |
| 2026-04-23 10:45 | 0.97054 | -167.88923 | 35922 ft | 498 kts | 225° |
| 2026-04-23 10:46 | 0.92014 | -167.93685 | 35916 ft | 498 kts | 225° |
| 2026-04-23 10:46 | 0.86964 | -167.98456 | 35917 ft | 497 kts | 225° |
| 2026-04-23 10:47 | 0.81940 | -168.03204 | 35914 ft | 497 kts | 225° |
| 2026-04-23 10:47 | 0.76952 | -168.07917 | 35913 ft | 497 kts | 225° |
| 2026-04-23 10:48 | 0.71926 | -168.12665 | 35919 ft | 496 kts | 225° |
| 2026-04-23 10:48 | 0.66906 | -168.17410 | 35920 ft | 496 kts | 225° |
| 2026-04-23 10:49 | 0.61920 | -168.22120 | 35917 ft | 496 kts | 225° |
| 2026-04-23 10:49 | 0.56890 | -168.26873 | 35917 ft | 496 kts | 225° |
| 2026-04-23 10:50 | 0.51862 | -168.31624 | 35918 ft | 496 kts | 225° |
| 2026-04-23 10:50 | 0.46883 | -168.36329 | 35917 ft | 496 kts | 225° |
| 2026-04-23 10:51 | 0.41862 | -168.41072 | 35915 ft | 496 kts | 225° |
| 2026-04-23 10:51 | 0.36830 | -168.45827 | 35918 ft | 496 kts | 225° |
| 2026-04-23 10:52 | 0.31829 | -168.50552 | 35916 ft | 497 kts | 225° |
| 2026-04-23 10:52 | 0.26811 | -168.55292 | 35918 ft | 497 kts | 225° |
| 2026-04-23 10:53 | 0.21782 | -168.60043 | 35922 ft | 497 kts | 225° |
| 2026-04-23 10:53 | 0.16793 | -168.64757 | 35920 ft | 497 kts | 225° |
| 2026-04-23 10:54 | 0.11768 | -168.69504 | 35945 ft | 496 kts | 225° |
| 2026-04-23 10:54 | 0.06737 | -168.74257 | 35927 ft | 497 kts | 225° |
| 2026-04-23 10:55 | 0.01727 | -168.78990 | 35927 ft | 496 kts | 225° |
| 2026-04-23 10:55 | -0.03284 | -168.83722 | 35938 ft | 495 kts | 226° |
| 2026-04-23 10:56 | -0.08289 | -168.88451 | 35926 ft | 494 kts | 226° |
| 2026-04-23 10:56 | -0.13287 | -168.93173 | 35917 ft | 493 kts | 226° |
| 2026-04-23 10:57 | -0.18228 | -168.97841 | 35908 ft | 492 kts | 226° |
| 2026-04-23 10:57 | -0.23215 | -169.02553 | 35907 ft | 492 kts | 226° |
| 2026-04-23 10:58 | -0.28197 | -169.07260 | 35905 ft | 492 kts | 226° |
| 2026-04-23 10:58 | -0.33125 | -169.11916 | 35906 ft | 492 kts | 226° |
| 2026-04-23 10:59 | -0.38107 | -169.16624 | 35910 ft | 492 kts | 226° |
| 2026-04-23 10:59 | -0.43079 | -169.21331 | 35914 ft | 492 kts | 226° |
| 2026-04-23 11:00 | -0.47868 | -169.26225 | 35918 ft | 491 kts | 228° |
| 2026-04-23 11:00 | -0.52598 | -169.31100 | 35919 ft | 491 kts | 228° |
| 2026-04-23 11:01 | -0.57384 | -169.35981 | 35918 ft | 492 kts | 228° |
| 2026-04-23 11:01 | -0.62192 | -169.40872 | 35918 ft | 492 kts | 228° |
| 2026-04-23 11:02 | -0.66953 | -169.45717 | 35916 ft | 492 kts | 227° |
| 2026-04-23 11:02 | -0.71752 | -169.50599 | 35917 ft | 492 kts | 227° |
| 2026-04-23 11:03 | -0.76553 | -169.55484 | 35919 ft | 492 kts | 228° |
| 2026-04-23 11:03 | -0.81354 | -169.60371 | 35915 ft | 492 kts | 228° |
| 2026-04-23 11:04 | -0.86110 | -169.65211 | 35917 ft | 491 kts | 228° |
| 2026-04-23 11:04 | -0.90903 | -169.70089 | 35919 ft | 491 kts | 228° |
| 2026-04-23 11:05 | -0.95694 | -169.74966 | 35916 ft | 491 kts | 228° |
| 2026-04-23 11:05 | -1.00480 | -169.79837 | 35913 ft | 491 kts | 227° |
| 2026-04-23 11:06 | -1.07652 | -169.87138 | 35911 ft | 491 kts | 227° |
| 2026-04-23 11:07 | -1.12438 | -169.92010 | 35913 ft | 491 kts | 227° |
| 2026-04-23 11:07 | -1.17221 | -169.96879 | 35922 ft | 491 kts | 227° |
| 2026-04-23 11:08 | -1.22020 | -170.01764 | 35918 ft | 491 kts | 227° |
| 2026-04-23 11:08 | -1.26762 | -170.06592 | 35914 ft | 490 kts | 227° |
| 2026-04-23 11:09 | -1.31563 | -170.11480 | 35913 ft | 490 kts | 227° |
| 2026-04-23 11:09 | -1.36343 | -170.16347 | 35913 ft | 490 kts | 227° |
| 2026-04-23 11:10 | -1.41123 | -170.21216 | 35915 ft | 490 kts | 227° |
| 2026-04-23 11:10 | -1.45868 | -170.26047 | 35915 ft | 490 kts | 227° |
| 2026-04-23 11:11 | -1.50646 | -170.30913 | 35914 ft | 490 kts | 227° |
| 2026-04-23 11:11 | -1.55430 | -170.35787 | 35914 ft | 490 kts | 227° |
| 2026-04-23 11:12 | -1.60164 | -170.40608 | 35915 ft | 490 kts | 227° |
| 2026-04-23 11:12 | -1.64942 | -170.45476 | 35916 ft | 490 kts | 227° |
| 2026-04-23 11:13 | -1.69733 | -170.50356 | 35917 ft | 490 kts | 227° |
| 2026-04-23 11:13 | -1.74508 | -170.55221 | 35913 ft | 490 kts | 227° |
| 2026-04-23 11:14 | -1.79254 | -170.60058 | 35915 ft | 490 kts | 227° |
| 2026-04-23 11:14 | -1.84036 | -170.64929 | 35918 ft | 490 kts | 227° |
| 2026-04-23 11:15 | -1.88825 | -170.69809 | 35918 ft | 490 kts | 227° |
| 2026-04-23 11:15 | -1.93598 | -170.74673 | 35918 ft | 490 kts | 227° |
| 2026-04-23 11:16 | -1.98389 | -170.79556 | 35918 ft | 491 kts | 227° |
| 2026-04-23 11:16 | -2.03134 | -170.84393 | 35917 ft | 491 kts | 227° |
| 2026-04-23 11:17 | -2.07919 | -170.89271 | 35918 ft | 490 kts | 227° |
| 2026-04-23 11:17 | -2.12699 | -170.94145 | 35919 ft | 490 kts | 227° |
| 2026-04-23 11:18 | -2.17491 | -170.99030 | 35914 ft | 490 kts | 227° |
| 2026-04-23 11:18 | -2.22231 | -171.03863 | 35914 ft | 490 kts | 227° |
| 2026-04-23 11:19 | -2.27022 | -171.08749 | 35916 ft | 490 kts | 226° |
| 2026-04-23 11:19 | -2.31800 | -171.13623 | 35914 ft | 490 kts | 226° |
| 2026-04-23 11:20 | -2.36545 | -171.18461 | 35915 ft | 490 kts | 226° |
| 2026-04-23 11:20 | -2.41346 | -171.23358 | 35915 ft | 490 kts | 226° |
| 2026-04-23 11:21 | -2.46072 | -171.28180 | 35912 ft | 489 kts | 226° |
| 2026-04-23 11:21 | -2.50841 | -171.33046 | 35910 ft | 489 kts | 226° |
| 2026-04-23 11:22 | -2.55613 | -171.37916 | 35915 ft | 489 kts | 226° |
| 2026-04-23 11:22 | -2.60371 | -171.42771 | 35917 ft | 489 kts | 226° |
| 2026-04-23 11:23 | -2.64341 | -171.46823 | 35919 ft | 489 kts | 226° |
| 2026-04-23 11:23 | -2.69864 | -171.52464 | 35891 ft | 489 kts | 226° |
| 2026-04-23 11:24 | -2.73840 | -171.56521 | 35904 ft | 489 kts | 226° |
| 2026-04-23 11:24 | -2.78613 | -171.61393 | 35923 ft | 489 kts | 226° |
| 2026-04-23 11:25 | -2.83356 | -171.66237 | 35910 ft | 490 kts | 226° |
| 2026-04-23 11:25 | -2.88161 | -171.71145 | 35902 ft | 491 kts | 226° |
| 2026-04-23 11:26 | -2.92908 | -171.75994 | 35920 ft | 491 kts | 226° |
| 2026-04-23 11:26 | -2.97692 | -171.80879 | 35919 ft | 491 kts | 226° |
| 2026-04-23 11:27 | -3.02494 | -171.85785 | 35915 ft | 492 kts | 225° |
| 2026-04-23 11:27 | -3.07246 | -171.90645 | 35908 ft | 493 kts | 225° |
| 2026-04-23 11:28 | -3.12052 | -171.95552 | 35913 ft | 493 kts | 225° |
| 2026-04-23 11:28 | -3.16866 | -172.00471 | 35913 ft | 494 kts | 225° |
| 2026-04-23 11:29 | -3.21679 | -172.05392 | 35916 ft | 495 kts | 225° |
| 2026-04-23 11:29 | -3.26491 | -172.10311 | 35925 ft | 495 kts | 225° |
| 2026-04-23 11:30 | -3.31326 | -172.15256 | 35924 ft | 495 kts | 225° |
| 2026-04-23 11:30 | -3.36104 | -172.20141 | 35925 ft | 495 kts | 225° |
| 2026-04-23 11:31 | -3.40917 | -172.25064 | 35918 ft | 495 kts | 225° |
| 2026-04-23 11:31 | -3.45740 | -172.29999 | 35912 ft | 494 kts | 225° |
| 2026-04-23 11:32 | -3.50522 | -172.34890 | 35919 ft | 494 kts | 225° |
| 2026-04-23 11:32 | -3.55334 | -172.39813 | 35918 ft | 494 kts | 225° |
| 2026-04-23 11:33 | -3.60141 | -172.44735 | 35904 ft | 494 kts | 225° |
| 2026-04-23 11:33 | -3.64937 | -172.49645 | 35914 ft | 494 kts | 225° |
| 2026-04-23 11:34 | -3.69753 | -172.54574 | 35913 ft | 494 kts | 225° |
| 2026-04-23 11:34 | -3.74538 | -172.59472 | 35906 ft | 495 kts | 225° |
| 2026-04-23 11:35 | -3.79300 | -172.64447 | 35880 ft | 496 kts | 227° |
| 2026-04-23 11:35 | -3.83864 | -172.69653 | 35892 ft | 498 kts | 227° |
| 2026-04-23 11:36 | -3.88461 | -172.74847 | 35905 ft | 499 kts | 227° |
| 2026-04-23 11:36 | -3.93107 | -172.80051 | 35915 ft | 501 kts | 227° |
| 2026-04-23 11:37 | -3.97761 | -172.85261 | 35924 ft | 502 kts | 226° |
| 2026-04-23 11:37 | -4.02425 | -172.90484 | 35929 ft | 503 kts | 226° |
| 2026-04-23 11:38 | -4.07092 | -172.95710 | 35931 ft | 503 kts | 227° |
| 2026-04-23 11:38 | -4.11749 | -173.00928 | 35929 ft | 502 kts | 227° |
| 2026-04-23 11:39 | -4.16363 | -173.06099 | 35925 ft | 502 kts | 226° |
| 2026-04-23 11:39 | -4.21027 | -173.11325 | 35918 ft | 502 kts | 226° |
| 2026-04-23 11:40 | -4.25694 | -173.16554 | 35909 ft | 502 kts | 226° |
| 2026-04-23 11:40 | -4.30320 | -173.21740 | 35907 ft | 502 kts | 226° |
| 2026-04-23 11:41 | -4.34961 | -173.26945 | 35907 ft | 502 kts | 226° |
| 2026-04-23 11:41 | -4.39615 | -173.32162 | 35908 ft | 502 kts | 226° |
| 2026-04-23 11:42 | -4.44274 | -173.37389 | 35914 ft | 502 kts | 226° |
| 2026-04-23 11:42 | -4.48936 | -173.42620 | 35915 ft | 502 kts | 226° |
| 2026-04-23 11:43 | -4.53590 | -173.47843 | 35910 ft | 502 kts | 226° |
| 2026-04-23 11:43 | -4.58214 | -173.53031 | 35912 ft | 502 kts | 226° |
| 2026-04-23 11:44 | -4.62877 | -173.58268 | 35908 ft | 502 kts | 226° |
| 2026-04-23 11:44 | -4.67529 | -173.63491 | 35909 ft | 502 kts | 226° |
| 2026-04-23 11:45 | -4.72189 | -173.68725 | 35913 ft | 503 kts | 226° |
| 2026-04-23 11:45 | -4.76845 | -173.73956 | 35916 ft | 503 kts | 226° |
| 2026-04-23 11:46 | -4.81502 | -173.79188 | 35914 ft | 503 kts | 226° |
| 2026-04-23 11:46 | -4.86157 | -173.84420 | 35913 ft | 503 kts | 226° |
| 2026-04-23 11:47 | -4.90774 | -173.89609 | 35914 ft | 503 kts | 226° |
| 2026-04-23 11:47 | -4.95436 | -173.94853 | 35915 ft | 503 kts | 226° |
| 2026-04-23 11:48 | -5.00103 | -174.00102 | 35912 ft | 502 kts | 226° |
| 2026-04-23 11:48 | -5.04753 | -174.05353 | 35911 ft | 502 kts | 226° |
| 2026-04-23 11:49 | -5.09345 | -174.10554 | 35915 ft | 502 kts | 226° |
| 2026-04-23 11:49 | -5.14011 | -174.15836 | 35911 ft | 502 kts | 226° |
| 2026-04-23 11:50 | -5.18618 | -174.21051 | 35910 ft | 502 kts | 226° |
| 2026-04-23 11:50 | -5.23260 | -174.26306 | 35909 ft | 502 kts | 226° |
| 2026-04-23 11:51 | -5.27900 | -174.31560 | 35904 ft | 502 kts | 226° |
| 2026-04-23 11:51 | -5.32534 | -174.36809 | 35906 ft | 502 kts | 226° |
| 2026-04-23 11:52 | -5.37145 | -174.42032 | 35909 ft | 503 kts | 226° |
| 2026-04-23 11:52 | -5.41779 | -174.47285 | 35913 ft | 503 kts | 226° |
| 2026-04-23 11:53 | -5.46420 | -174.52545 | 35910 ft | 503 kts | 226° |
| 2026-04-23 11:53 | -5.51071 | -174.57818 | 35911 ft | 503 kts | 226° |
| 2026-04-23 11:54 | -5.55715 | -174.63086 | 35914 ft | 503 kts | 226° |
| 2026-04-23 11:54 | -5.60326 | -174.68317 | 35906 ft | 503 kts | 226° |
| 2026-04-23 11:55 | -5.64975 | -174.73591 | 35910 ft | 503 kts | 226° |
| 2026-04-23 11:55 | -5.69621 | -174.78864 | 35905 ft | 504 kts | 226° |
| 2026-04-23 11:56 | -5.74269 | -174.84142 | 35905 ft | 504 kts | 226° |
| 2026-04-23 11:56 | -5.78926 | -174.89430 | 35907 ft | 505 kts | 226° |
| 2026-04-23 11:57 | -5.83575 | -174.94711 | 35912 ft | 505 kts | 226° |
| 2026-04-23 11:57 | -5.88227 | -174.99997 | 35914 ft | 505 kts | 226° |
| 2026-04-23 11:58 | -5.92855 | -175.05256 | 35908 ft | 505 kts | 226° |
| 2026-04-23 11:58 | -5.97509 | -175.10547 | 35904 ft | 505 kts | 226° |
| 2026-04-23 11:59 | -6.02164 | -175.15840 | 35906 ft | 505 kts | 226° |
| 2026-04-23 11:59 | -6.06827 | -175.21144 | 35905 ft | 505 kts | 226° |
| 2026-04-23 12:00 | -6.11445 | -175.26399 | 35909 ft | 505 kts | 226° |
| 2026-04-23 12:00 | -6.16123 | -175.31689 | 35911 ft | 505 kts | 226° |
| 2026-04-23 12:01 | -6.20817 | -175.36968 | 35910 ft | 505 kts | 226° |
| 2026-04-23 12:01 | -6.25493 | -175.42237 | 35907 ft | 505 kts | 226° |
| 2026-04-23 12:02 | -6.30175 | -175.47517 | 35901 ft | 505 kts | 226° |
| 2026-04-23 12:02 | -6.34824 | -175.52761 | 35904 ft | 505 kts | 226° |
| 2026-04-23 12:03 | -6.39510 | -175.58050 | 35902 ft | 505 kts | 226° |
| 2026-04-23 12:03 | -6.44194 | -175.63337 | 35904 ft | 506 kts | 226° |
| 2026-04-23 12:04 | -6.48870 | -175.68618 | 35908 ft | 505 kts | 226° |
| 2026-04-23 12:04 | -6.53546 | -175.73900 | 35909 ft | 505 kts | 226° |
| 2026-04-23 12:05 | -6.58193 | -175.79150 | 35907 ft | 505 kts | 226° |
| 2026-04-23 12:05 | -6.62859 | -175.84423 | 35906 ft | 505 kts | 226° |
| 2026-04-23 12:06 | -6.67534 | -175.89710 | 35903 ft | 504 kts | 226° |
| 2026-04-23 12:06 | -6.74544 | -175.97638 | 35903 ft | 504 kts | 226° |
| 2026-04-23 12:07 | -6.79204 | -176.02910 | 35900 ft | 504 kts | 226° |
| 2026-04-23 12:07 | -6.83834 | -176.08150 | 35898 ft | 504 kts | 226° |
| 2026-04-23 12:08 | -6.88502 | -176.13436 | 35899 ft | 504 kts | 226° |
| 2026-04-23 12:08 | -6.93167 | -176.18719 | 35894 ft | 505 kts | 226° |
| 2026-04-23 12:09 | -6.97842 | -176.24015 | 35902 ft | 505 kts | 226° |
| 2026-04-23 12:09 | -7.02511 | -176.29307 | 35903 ft | 505 kts | 226° |
| 2026-04-23 12:10 | -7.07140 | -176.34554 | 35905 ft | 505 kts | 226° |
| 2026-04-23 12:10 | -7.11811 | -176.39853 | 35903 ft | 505 kts | 226° |
| 2026-04-23 12:11 | -7.15703 | -176.44266 | 35907 ft | 505 kts | 226° |
| 2026-04-23 12:11 | -7.20374 | -176.49566 | 35911 ft | 505 kts | 226° |
| 2026-04-23 12:12 | -7.25041 | -176.54865 | 35906 ft | 505 kts | 226° |
| 2026-04-23 12:12 | -7.29709 | -176.60163 | 35898 ft | 505 kts | 227° |
| 2026-04-23 12:13 | -7.34340 | -176.65425 | 35899 ft | 505 kts | 227° |
| 2026-04-23 12:13 | -7.39008 | -176.70730 | 35897 ft | 505 kts | 226° |
| 2026-04-23 12:14 | -7.43666 | -176.76023 | 35905 ft | 505 kts | 226° |
| 2026-04-23 12:14 | -7.48322 | -176.81318 | 35904 ft | 505 kts | 227° |
| 2026-04-23 12:15 | -7.52990 | -176.86629 | 35900 ft | 506 kts | 226° |
| 2026-04-23 12:15 | -7.57660 | -176.91939 | 35912 ft | 506 kts | 226° |
| 2026-04-23 12:16 | -7.62320 | -176.97247 | 35901 ft | 505 kts | 226° |
| 2026-04-23 12:16 | -7.66984 | -177.02557 | 35900 ft | 505 kts | 227° |
| 2026-04-23 12:17 | -7.71650 | -177.07869 | 35909 ft | 505 kts | 227° |
| 2026-04-23 12:17 | -7.76312 | -177.13183 | 35907 ft | 505 kts | 226° |
| 2026-04-23 12:18 | -7.80937 | -177.18454 | 35907 ft | 505 kts | 226° |
| 2026-04-23 12:18 | -7.85596 | -177.23766 | 35907 ft | 505 kts | 227° |
| 2026-04-23 12:19 | -7.90259 | -177.29088 | 35901 ft | 506 kts | 227° |
| 2026-04-23 12:19 | -7.94922 | -177.34407 | 35899 ft | 506 kts | 227° |
| 2026-04-23 12:20 | -7.99593 | -177.39740 | 35900 ft | 506 kts | 226° |
| 2026-04-23 12:20 | -8.04224 | -177.45029 | 35903 ft | 506 kts | 226° |
| 2026-04-23 12:21 | -8.08890 | -177.50358 | 35910 ft | 506 kts | 226° |
| 2026-04-23 12:21 | -8.13550 | -177.55685 | 35908 ft | 506 kts | 227° |
| 2026-04-23 12:22 | -8.18221 | -177.61026 | 35907 ft | 506 kts | 226° |
| 2026-04-23 12:22 | -8.22849 | -177.66319 | 35910 ft | 506 kts | 227° |
| 2026-04-23 12:23 | -8.27524 | -177.71668 | 35906 ft | 506 kts | 227° |
| 2026-04-23 12:23 | -8.32188 | -177.77003 | 35907 ft | 506 kts | 227° |
| 2026-04-23 12:24 | -8.36888 | -177.82258 | 35906 ft | 506 kts | 225° |
| 2026-04-23 12:24 | -8.41720 | -177.87423 | 35899 ft | 506 kts | 225° |
| 2026-04-23 12:25 | -8.46545 | -177.92618 | 35907 ft | 505 kts | 225° |
| 2026-04-23 12:25 | -8.51319 | -177.97784 | 35908 ft | 505 kts | 225° |
| 2026-04-23 12:26 | -8.56124 | -178.02987 | 35908 ft | 505 kts | 225° |
| 2026-04-23 12:26 | -8.60927 | -178.08190 | 35912 ft | 505 kts | 225° |
| 2026-04-23 12:27 | -8.65714 | -178.13381 | 35910 ft | 505 kts | 226° |
| 2026-04-23 12:27 | -8.70506 | -178.18578 | 35911 ft | 505 kts | 225° |
| 2026-04-23 12:28 | -8.75303 | -178.23783 | 35903 ft | 505 kts | 226° |
| 2026-04-23 12:28 | -8.80047 | -178.28932 | 35903 ft | 505 kts | 225° |
| 2026-04-23 12:29 | -8.84872 | -178.34171 | 35911 ft | 505 kts | 225° |
| 2026-04-23 12:29 | -8.89618 | -178.39328 | 35903 ft | 505 kts | 225° |
| 2026-04-23 12:30 | -8.94405 | -178.44530 | 35912 ft | 505 kts | 225° |
| 2026-04-23 12:30 | -8.99197 | -178.49740 | 35905 ft | 505 kts | 226° |
| 2026-04-23 12:31 | -9.03993 | -178.54955 | 35907 ft | 505 kts | 225° |
| 2026-04-23 12:31 | -9.08757 | -178.60137 | 35916 ft | 505 kts | 225° |
| 2026-04-23 12:32 | -9.13551 | -178.65357 | 35904 ft | 506 kts | 225° |
| 2026-04-23 12:32 | -9.18353 | -178.70586 | 35910 ft | 506 kts | 225° |
| 2026-04-23 12:33 | -9.23152 | -178.75814 | 35909 ft | 506 kts | 225° |
| 2026-04-23 12:33 | -9.27914 | -178.81005 | 35916 ft | 507 kts | 225° |
| 2026-04-23 12:34 | -9.32715 | -178.86239 | 35922 ft | 506 kts | 225° |
| 2026-04-23 12:34 | -9.37505 | -178.91465 | 35914 ft | 507 kts | 225° |
| 2026-04-23 12:35 | -9.42305 | -178.96703 | 35912 ft | 506 kts | 226° |
| 2026-04-23 12:35 | -9.47098 | -179.01938 | 35912 ft | 506 kts | 226° |
| 2026-04-23 12:36 | -9.51883 | -179.07166 | 35915 ft | 506 kts | 225° |
| 2026-04-23 12:36 | -9.56672 | -179.12396 | 35921 ft | 505 kts | 226° |
| 2026-04-23 12:37 | -9.61425 | -179.17597 | 35906 ft | 506 kts | 226° |
| 2026-04-23 12:37 | -9.66212 | -179.22831 | 35913 ft | 505 kts | 226° |
| 2026-04-23 12:38 | -9.71001 | -179.28073 | 35918 ft | 505 kts | 226° |
| 2026-04-23 12:38 | -9.75747 | -179.33267 | 35919 ft | 505 kts | 226° |
| 2026-04-23 12:39 | -9.80518 | -179.38492 | 35915 ft | 504 kts | 226° |
| 2026-04-23 12:39 | -9.85261 | -179.43690 | 35917 ft | 504 kts | 226° |
| 2026-04-23 12:40 | -9.90029 | -179.48916 | 35921 ft | 504 kts | 226° |
| 2026-04-23 12:40 | -9.94799 | -179.54150 | 35908 ft | 504 kts | 226° |
| 2026-04-23 12:41 | -9.99575 | -179.59389 | 35917 ft | 504 kts | 226° |
| 2026-04-23 12:41 | -10.04334 | -179.64613 | 35911 ft | 504 kts | 226° |
| 2026-04-23 12:42 | -10.09060 | -179.69804 | 35913 ft | 504 kts | 226° |
| 2026-04-23 12:42 | -10.13830 | -179.75045 | 35914 ft | 504 kts | 226° |
| 2026-04-23 12:43 | -10.18609 | -179.80301 | 35909 ft | 505 kts | 226° |
| 2026-04-23 12:43 | -10.23346 | -179.85507 | 35920 ft | 504 kts | 226° |
| 2026-04-23 12:44 | -10.28109 | -179.90750 | 35915 ft | 504 kts | 227° |
| 2026-04-23 12:44 | -10.32872 | -179.95993 | 35915 ft | 504 kts | 227° |
| 2026-04-23 12:45 | -10.37596 | 179.98801 | 35915 ft | 504 kts | 226° |
| 2026-04-23 12:45 | -10.42370 | 179.93538 | 35916 ft | 504 kts | 226° |
| 2026-04-23 12:46 | -10.47143 | 179.88280 | 35914 ft | 505 kts | 226° |
| 2026-04-23 12:46 | -10.51877 | 179.83057 | 35914 ft | 505 kts | 226° |
| 2026-04-23 12:47 | -10.56653 | 179.77787 | 35917 ft | 505 kts | 226° |
| 2026-04-23 12:47 | -10.61400 | 179.72547 | 35932 ft | 504 kts | 226° |
| 2026-04-23 12:48 | -10.66151 | 179.67298 | 35927 ft | 504 kts | 227° |
| 2026-04-23 12:48 | -10.70858 | 179.62096 | 35925 ft | 503 kts | 226° |
| 2026-04-23 12:49 | -10.75591 | 179.56862 | 35936 ft | 502 kts | 226° |
| 2026-04-23 12:49 | -10.80319 | 179.51631 | 35925 ft | 501 kts | 226° |
| 2026-04-23 12:50 | -10.85029 | 179.46417 | 35920 ft | 500 kts | 226° |
| 2026-04-23 12:50 | -10.89737 | 179.41202 | 35914 ft | 500 kts | 226° |
| 2026-04-23 12:51 | -10.94445 | 179.35985 | 35912 ft | 500 kts | 226° |
| 2026-04-23 12:51 | -10.99111 | 179.30814 | 35914 ft | 500 kts | 226° |
| 2026-04-23 12:52 | -11.03818 | 179.25593 | 35916 ft | 500 kts | 226° |
| 2026-04-23 12:52 | -11.08536 | 179.20359 | 35934 ft | 499 kts | 227° |
| 2026-04-23 12:53 | -11.13233 | 179.15145 | 35926 ft | 499 kts | 227° |
| 2026-04-23 12:53 | -11.17898 | 179.09963 | 35927 ft | 499 kts | 227° |
| 2026-04-23 12:54 | -11.22583 | 179.04755 | 35924 ft | 498 kts | 226° |
| 2026-04-23 12:54 | -11.27271 | 178.99542 | 35924 ft | 498 kts | 227° |
| 2026-04-23 12:55 | -11.31957 | 178.94330 | 35932 ft | 497 kts | 227° |
| 2026-04-23 12:55 | -11.36626 | 178.89133 | 35930 ft | 497 kts | 227° |
| 2026-04-23 12:56 | -11.41255 | 178.83978 | 35927 ft | 497 kts | 227° |
| 2026-04-23 12:56 | -11.45924 | 178.78773 | 35929 ft | 496 kts | 227° |
| 2026-04-23 12:57 | -11.50604 | 178.73557 | 35919 ft | 496 kts | 227° |
| 2026-04-23 12:57 | -11.55239 | 178.68387 | 35921 ft | 496 kts | 227° |
| 2026-04-23 12:58 | -11.59901 | 178.63184 | 35923 ft | 496 kts | 227° |
| 2026-04-23 12:58 | -11.63794 | 178.58836 | 35925 ft | 496 kts | 227° |
| 2026-04-23 12:59 | -11.69205 | 178.52793 | 35920 ft | 496 kts | 227° |
| 2026-04-23 12:59 | -11.73104 | 178.48434 | 35921 ft | 496 kts | 227° |
| 2026-04-23 13:00 | -11.77727 | 178.43262 | 35942 ft | 496 kts | 227° |
| 2026-04-23 13:00 | -11.82394 | 178.38041 | 35939 ft | 496 kts | 227° |
| 2026-04-23 13:01 | -11.87054 | 178.32824 | 35933 ft | 496 kts | 227° |
| 2026-04-23 13:01 | -11.91685 | 178.27636 | 35933 ft | 496 kts | 227° |
| 2026-04-23 13:02 | -11.96339 | 178.22420 | 35926 ft | 496 kts | 227° |
| 2026-04-23 13:02 | -12.00945 | 178.17256 | 35925 ft | 496 kts | 227° |
| 2026-04-23 13:03 | -12.05604 | 178.12032 | 35942 ft | 495 kts | 228° |
| 2026-04-23 13:03 | -12.10250 | 178.06820 | 35941 ft | 494 kts | 228° |
| 2026-04-23 13:04 | -12.14860 | 178.01658 | 35943 ft | 494 kts | 227° |
| 2026-04-23 13:04 | -12.19649 | 177.96611 | 35944 ft | 493 kts | 226° |
| 2026-04-23 13:05 | -12.24435 | 177.91592 | 35931 ft | 493 kts | 226° |
| 2026-04-23 13:05 | -12.29168 | 177.86587 | 35934 ft | 493 kts | 226° |
| 2026-04-23 13:06 | -12.36323 | 177.79005 | 35937 ft | 492 kts | 226° |
| 2026-04-23 13:07 | -12.41081 | 177.73960 | 35932 ft | 493 kts | 227° |
| 2026-04-23 13:07 | -12.45849 | 177.68899 | 35952 ft | 492 kts | 227° |
| 2026-04-23 13:08 | -12.50565 | 177.63891 | 35942 ft | 492 kts | 226° |
| 2026-04-23 13:08 | -12.55381 | 177.58772 | 35931 ft | 491 kts | 227° |
| 2026-04-23 13:09 | -12.60123 | 177.53730 | 35937 ft | 491 kts | 227° |
| 2026-04-23 13:09 | -12.64857 | 177.48694 | 35945 ft | 490 kts | 227° |
| 2026-04-23 13:10 | -12.69554 | 177.43695 | 35940 ft | 490 kts | 227° |
| 2026-04-23 13:10 | -12.74283 | 177.38659 | 35941 ft | 490 kts | 227° |
| 2026-04-23 13:11 | -12.79015 | 177.33618 | 35939 ft | 490 kts | 227° |
| 2026-04-23 13:11 | -12.83755 | 177.28565 | 35938 ft | 490 kts | 227° |
| 2026-04-23 13:12 | -12.88453 | 177.23554 | 35941 ft | 490 kts | 227° |
| 2026-04-23 13:12 | -12.93175 | 177.18513 | 35944 ft | 490 kts | 227° |
| 2026-04-23 13:13 | -12.97896 | 177.13472 | 35940 ft | 490 kts | 227° |
| 2026-04-23 13:13 | -13.02591 | 177.08455 | 35949 ft | 490 kts | 227° |
| 2026-04-23 13:14 | -13.07324 | 177.03395 | 35953 ft | 490 kts | 227° |
| 2026-04-23 13:14 | -13.12018 | 176.98373 | 35948 ft | 490 kts | 227° |
| 2026-04-23 13:15 | -13.16744 | 176.93314 | 35952 ft | 490 kts | 227° |
| 2026-04-23 13:15 | -13.21471 | 176.88251 | 35955 ft | 490 kts | 227° |
| 2026-04-23 13:16 | -13.26178 | 176.83205 | 35952 ft | 490 kts | 227° |
| 2026-04-23 13:16 | -13.30881 | 176.78163 | 35949 ft | 489 kts | 227° |
| 2026-04-23 13:17 | -13.35578 | 176.73123 | 35950 ft | 489 kts | 227° |
| 2026-04-23 13:17 | -13.40288 | 176.68066 | 35949 ft | 489 kts | 227° |
| 2026-04-23 13:18 | -13.44979 | 176.63026 | 35948 ft | 489 kts | 227° |
| 2026-04-23 13:18 | -13.49676 | 176.57977 | 35943 ft | 490 kts | 227° |
| 2026-04-23 13:19 | -13.54379 | 176.52919 | 35945 ft | 490 kts | 228° |
| 2026-04-23 13:19 | -13.59090 | 176.47848 | 35949 ft | 491 kts | 228° |
| 2026-04-23 13:20 | -13.63801 | 176.42775 | 35956 ft | 491 kts | 228° |
| 2026-04-23 13:20 | -13.68534 | 176.37675 | 35959 ft | 491 kts | 228° |
| 2026-04-23 13:21 | -13.73242 | 176.32598 | 35961 ft | 491 kts | 228° |
| 2026-04-23 13:21 | -13.77949 | 176.27519 | 35962 ft | 491 kts | 228° |
| 2026-04-23 13:22 | -13.82655 | 176.22439 | 35962 ft | 491 kts | 228° |
| 2026-04-23 13:22 | -13.87376 | 176.17339 | 35946 ft | 492 kts | 228° |
| 2026-04-23 13:23 | -13.92085 | 176.12248 | 35953 ft | 493 kts | 228° |
| 2026-04-23 13:23 | -13.96816 | 176.07131 | 35957 ft | 493 kts | 228° |
| 2026-04-23 13:24 | -14.01573 | 176.01983 | 35958 ft | 493 kts | 228° |
| 2026-04-23 13:24 | -14.06295 | 175.96869 | 35968 ft | 494 kts | 228° |
| 2026-04-23 13:25 | -14.11031 | 175.91736 | 35963 ft | 494 kts | 228° |
| 2026-04-23 13:25 | -14.15759 | 175.86609 | 35965 ft | 494 kts | 228° |
| 2026-04-23 13:26 | -14.20488 | 175.81477 | 35950 ft | 495 kts | 228° |
| 2026-04-23 13:26 | -14.25209 | 175.76350 | 35964 ft | 494 kts | 228° |
| 2026-04-23 13:27 | -14.29941 | 175.71209 | 35963 ft | 495 kts | 228° |
| 2026-04-23 13:27 | -14.34690 | 175.66046 | 35965 ft | 495 kts | 228° |
| 2026-04-23 13:28 | -14.39433 | 175.60885 | 35963 ft | 495 kts | 228° |
| 2026-04-23 13:28 | -14.44154 | 175.55746 | 35962 ft | 495 kts | 228° |
| 2026-04-23 13:29 | -14.48907 | 175.50567 | 35969 ft | 495 kts | 228° |
| 2026-04-23 13:29 | -14.53642 | 175.45406 | 35966 ft | 495 kts | 228° |
| 2026-04-23 13:30 | -14.58337 | 175.40284 | 35956 ft | 495 kts | 228° |
| 2026-04-23 13:30 | -14.63091 | 175.35095 | 35961 ft | 495 kts | 228° |
| 2026-04-23 13:31 | -14.67798 | 175.29953 | 35966 ft | 495 kts | 228° |
| 2026-04-23 13:31 | -14.72560 | 175.24748 | 35964 ft | 496 kts | 228° |
| 2026-04-23 13:32 | -14.77265 | 175.19601 | 35965 ft | 496 kts | 228° |
| 2026-04-23 13:32 | -14.82000 | 175.14419 | 35964 ft | 496 kts | 228° |
| 2026-04-23 13:33 | -14.86735 | 175.09233 | 35966 ft | 496 kts | 228° |
| 2026-04-23 13:33 | -14.91459 | 175.04056 | 35957 ft | 496 kts | 228° |
| 2026-04-23 13:34 | -14.96204 | 174.98851 | 35961 ft | 497 kts | 228° |
| 2026-04-23 13:34 | -15.00934 | 174.93659 | 35960 ft | 497 kts | 228° |
| 2026-04-23 13:35 | -15.05670 | 174.88457 | 35964 ft | 497 kts | 228° |
| 2026-04-23 13:35 | -15.10437 | 174.83218 | 35965 ft | 497 kts | 229° |
| 2026-04-23 13:36 | -15.15173 | 174.78009 | 35967 ft | 497 kts | 229° |
| 2026-04-23 13:36 | -15.19885 | 174.72824 | 35967 ft | 497 kts | 229° |
| 2026-04-23 13:37 | -15.24645 | 174.67584 | 35971 ft | 497 kts | 229° |
| 2026-04-23 13:37 | -15.29353 | 174.62398 | 35963 ft | 497 kts | 229° |
| 2026-04-23 13:38 | -15.34379 | 174.57470 | 35959 ft | 498 kts | 225° |
| 2026-04-23 13:38 | -15.39472 | 174.52612 | 35959 ft | 498 kts | 225° |
| 2026-04-23 13:39 | -15.44565 | 174.47741 | 35962 ft | 498 kts | 225° |
| 2026-04-23 13:39 | -15.49653 | 174.42867 | 35961 ft | 498 kts | 225° |
| 2026-04-23 13:40 | -15.54715 | 174.38015 | 35960 ft | 498 kts | 225° |
| 2026-04-23 13:40 | -15.59800 | 174.33136 | 35955 ft | 498 kts | 225° |
| 2026-04-23 13:41 | -15.64873 | 174.28266 | 35957 ft | 498 kts | 225° |
| 2026-04-23 13:41 | -15.69962 | 174.23377 | 35959 ft | 499 kts | 225° |
| 2026-04-23 13:42 | -15.75078 | 174.18458 | 35960 ft | 499 kts | 225° |
| 2026-04-23 13:42 | -15.80149 | 174.13579 | 35961 ft | 499 kts | 225° |
| 2026-04-23 13:43 | -15.85253 | 174.08665 | 35967 ft | 499 kts | 225° |
| 2026-04-23 13:43 | -15.90324 | 174.03779 | 35966 ft | 499 kts | 225° |
| 2026-04-23 13:44 | -15.95406 | 173.98881 | 35970 ft | 499 kts | 225° |
| 2026-04-23 13:44 | -16.00480 | 173.93984 | 35966 ft | 498 kts | 225° |
| 2026-04-23 13:45 | -16.04705 | 173.89904 | 35955 ft | 498 kts | 226° |
| 2026-04-23 13:45 | -16.10648 | 173.84161 | 35953 ft | 498 kts | 226° |
| 2026-04-23 13:46 | -16.15708 | 173.79268 | 35958 ft | 499 kts | 226° |
| 2026-04-23 13:46 | -16.20794 | 173.74346 | 35962 ft | 499 kts | 226° |
| 2026-04-23 13:47 | -16.25881 | 173.69420 | 35971 ft | 499 kts | 226° |
| 2026-04-23 13:47 | -16.30975 | 173.64484 | 35970 ft | 500 kts | 226° |
| 2026-04-23 13:48 | -16.35204 | 173.60382 | 35969 ft | 499 kts | 226° |
| 2026-04-23 13:48 | -16.41124 | 173.54637 | 35970 ft | 499 kts | 226° |
| 2026-04-23 13:49 | -16.45352 | 173.50531 | 35974 ft | 499 kts | 226° |
| 2026-04-23 13:49 | -16.50430 | 173.45595 | 35971 ft | 498 kts | 226° |
| 2026-04-23 13:50 | -16.55502 | 173.40662 | 35972 ft | 498 kts | 226° |
| 2026-04-23 13:50 | -16.60538 | 173.35760 | 35971 ft | 498 kts | 227° |
| 2026-04-23 13:51 | -16.65612 | 173.30817 | 35961 ft | 498 kts | 227° |
| 2026-04-23 13:51 | -16.70674 | 173.25881 | 35963 ft | 498 kts | 227° |
| 2026-04-23 13:52 | -16.75718 | 173.20961 | 35966 ft | 498 kts | 227° |
| 2026-04-23 13:52 | -16.80779 | 173.16019 | 35971 ft | 498 kts | 227° |
| 2026-04-23 13:53 | -16.85836 | 173.11078 | 35992 ft | 496 kts | 226° |
| 2026-04-23 13:53 | -16.90845 | 173.06180 | 35983 ft | 495 kts | 226° |
| 2026-04-23 13:54 | -16.95840 | 173.01293 | 35997 ft | 493 kts | 227° |
| 2026-04-23 13:54 | -17.00849 | 172.96387 | 35983 ft | 492 kts | 227° |
| 2026-04-23 13:55 | -17.05844 | 172.91491 | 35975 ft | 490 kts | 227° |
| 2026-04-23 13:55 | -17.10775 | 172.86655 | 35972 ft | 489 kts | 227° |
| 2026-04-23 13:56 | -17.15739 | 172.81782 | 35968 ft | 488 kts | 227° |
| 2026-04-23 13:56 | -17.20710 | 172.76898 | 35958 ft | 488 kts | 227° |
| 2026-04-23 13:57 | -17.25663 | 172.72028 | 35957 ft | 488 kts | 227° |
| 2026-04-23 13:57 | -17.30585 | 172.67187 | 35968 ft | 489 kts | 227° |
| 2026-04-23 13:58 | -17.35545 | 172.62302 | 35971 ft | 490 kts | 227° |
| 2026-04-23 13:58 | -17.40494 | 172.57425 | 35976 ft | 490 kts | 227° |
| 2026-04-23 13:59 | -17.45463 | 172.52525 | 35983 ft | 491 kts | 227° |
| 2026-04-23 13:59 | -17.50437 | 172.47615 | 35988 ft | 491 kts | 227° |
| 2026-04-23 14:00 | -17.54582 | 172.43522 | 35989 ft | 491 kts | 227° |
| 2026-04-23 14:00 | -17.57912 | 172.40231 | 36325 ft | 493 kts | 228° |
| 2026-04-23 14:00 | -17.60406 | 172.37767 | 36758 ft | 492 kts | 228° |
| 2026-04-23 14:00 | -17.62895 | 172.35307 | 37142 ft | 491 kts | 229° |
| 2026-04-23 14:01 | -17.65362 | 172.32865 | 37521 ft | 491 kts | 229° |
| 2026-04-23 14:01 | -17.67840 | 172.30412 | 37893 ft | 491 kts | 229° |
| 2026-04-23 14:01 | -17.70337 | 172.27937 | 37996 ft | 492 kts | 229° |
| 2026-04-23 14:02 | -17.75237 | 172.23088 | 37991 ft | 483 kts | 229° |
| 2026-04-23 14:02 | -17.80285 | 172.18338 | 37987 ft | 492 kts | 224° |
| 2026-04-23 14:03 | -17.85636 | 172.13849 | 37986 ft | 491 kts | 224° |
| 2026-04-23 14:03 | -17.90977 | 172.09344 | 37992 ft | 491 kts | 224° |
| 2026-04-23 14:04 | -17.96287 | 172.04860 | 37993 ft | 492 kts | 224° |
| 2026-04-23 14:04 | -18.01630 | 172.00348 | 38027 ft | 493 kts | 224° |
| 2026-04-23 14:05 | -18.06982 | 171.95822 | 38013 ft | 492 kts | 224° |
| 2026-04-23 14:05 | -18.12289 | 171.91330 | 38003 ft | 491 kts | 224° |
| 2026-04-23 14:06 | -18.17584 | 171.86845 | 37996 ft | 490 kts | 224° |
| 2026-04-23 14:06 | -18.22895 | 171.82342 | 37994 ft | 489 kts | 225° |
| 2026-04-23 14:07 | -18.28190 | 171.77849 | 38005 ft | 488 kts | 224° |
| 2026-04-23 14:07 | -18.36107 | 171.71125 | 37992 ft | 487 kts | 225° |
| 2026-04-23 14:08 | -18.41374 | 171.66647 | 37989 ft | 486 kts | 225° |
| 2026-04-23 14:08 | -18.46640 | 171.62165 | 37988 ft | 486 kts | 225° |
| 2026-04-23 14:09 | -18.51887 | 171.57697 | 37987 ft | 487 kts | 225° |
| 2026-04-23 14:09 | -18.57159 | 171.53204 | 37991 ft | 487 kts | 225° |
| 2026-04-23 14:10 | -18.62411 | 171.48724 | 37998 ft | 487 kts | 225° |
| 2026-04-23 14:10 | -18.67689 | 171.44218 | 38002 ft | 488 kts | 225° |
| 2026-04-23 14:11 | -18.72963 | 171.39712 | 37998 ft | 488 kts | 225° |
| 2026-04-23 14:11 | -18.78250 | 171.35191 | 38005 ft | 488 kts | 225° |
| 2026-04-23 14:12 | -18.83494 | 171.30703 | 38004 ft | 488 kts | 225° |
| 2026-04-23 14:12 | -18.88772 | 171.26183 | 38011 ft | 489 kts | 225° |
| 2026-04-23 14:13 | -18.94063 | 171.21647 | 38023 ft | 488 kts | 225° |
| 2026-04-23 14:13 | -18.99297 | 171.17157 | 38016 ft | 487 kts | 225° |
| 2026-04-23 14:14 | -19.04579 | 171.12622 | 38016 ft | 486 kts | 225° |
| 2026-04-23 14:14 | -19.09835 | 171.08104 | 38007 ft | 485 kts | 225° |
| 2026-04-23 14:15 | -19.15062 | 171.03608 | 38000 ft | 485 kts | 225° |
| 2026-04-23 14:15 | -19.20260 | 170.99133 | 38004 ft | 484 kts | 225° |
| 2026-04-23 14:16 | -19.25490 | 170.94627 | 38020 ft | 484 kts | 226° |
| 2026-04-23 14:16 | -19.30726 | 170.90113 | 38026 ft | 483 kts | 226° |
| 2026-04-23 14:17 | -19.35921 | 170.85629 | 38009 ft | 483 kts | 226° |
| 2026-04-23 14:17 | -19.41138 | 170.81122 | 38008 ft | 483 kts | 226° |
| 2026-04-23 14:18 | -19.46358 | 170.76608 | 38010 ft | 483 kts | 226° |
| 2026-04-23 14:18 | -19.51540 | 170.72124 | 38012 ft | 484 kts | 226° |
| 2026-04-23 14:19 | -19.56760 | 170.67604 | 38038 ft | 484 kts | 226° |
| 2026-04-23 14:19 | -19.61984 | 170.63077 | 38027 ft | 483 kts | 227° |
| 2026-04-23 14:20 | -19.67158 | 170.58588 | 38024 ft | 483 kts | 227° |
| 2026-04-23 14:20 | -19.72366 | 170.54066 | 38022 ft | 483 kts | 227° |
| 2026-04-23 14:21 | -19.77576 | 170.49539 | 38013 ft | 483 kts | 227° |
| 2026-04-23 14:21 | -19.82745 | 170.45043 | 38023 ft | 483 kts | 227° |
| 2026-04-23 14:22 | -19.87941 | 170.40519 | 38044 ft | 483 kts | 227° |
| 2026-04-23 14:22 | -19.93137 | 170.35993 | 38036 ft | 483 kts | 227° |
| 2026-04-23 14:23 | -19.98315 | 170.31477 | 38036 ft | 482 kts | 227° |
| 2026-04-23 14:23 | -20.03497 | 170.26954 | 38032 ft | 482 kts | 227° |
| 2026-04-23 14:24 | -20.08696 | 170.22412 | 38030 ft | 481 kts | 227° |
| 2026-04-23 14:24 | -20.13832 | 170.17921 | 38029 ft | 481 kts | 227° |
| 2026-04-23 14:25 | -20.19008 | 170.13392 | 38016 ft | 481 kts | 227° |
| 2026-04-23 14:25 | -20.24197 | 170.08847 | 38026 ft | 481 kts | 228° |
| 2026-04-23 14:26 | -20.29349 | 170.04330 | 38033 ft | 481 kts | 228° |
| 2026-04-23 14:26 | -20.34532 | 169.99782 | 38052 ft | 481 kts | 228° |
| 2026-04-23 14:27 | -20.39670 | 169.95269 | 38055 ft | 481 kts | 228° |
| 2026-04-23 14:27 | -20.44851 | 169.90715 | 38052 ft | 481 kts | 228° |
| 2026-04-23 14:28 | -20.49950 | 169.86228 | 38032 ft | 482 kts | 228° |
| 2026-04-23 14:28 | -20.55165 | 169.81639 | 38060 ft | 481 kts | 228° |
| 2026-04-23 14:29 | -20.60334 | 169.77081 | 38064 ft | 480 kts | 228° |
| 2026-04-23 14:29 | -20.65463 | 169.72556 | 38058 ft | 479 kts | 228° |
| 2026-04-23 14:30 | -20.70597 | 169.68023 | 38054 ft | 478 kts | 228° |
| 2026-04-23 14:30 | -20.75730 | 169.63486 | 38044 ft | 477 kts | 228° |
| 2026-04-23 14:31 | -20.80815 | 169.58987 | 38037 ft | 477 kts | 228° |
| 2026-04-23 14:31 | -20.85927 | 169.54461 | 38047 ft | 477 kts | 229° |
| 2026-04-23 14:32 | -20.91043 | 169.49927 | 38042 ft | 477 kts | 229° |
| 2026-04-23 14:32 | -20.96142 | 169.45403 | 38043 ft | 477 kts | 229° |
| 2026-04-23 14:33 | -21.01260 | 169.40859 | 38047 ft | 478 kts | 229° |
| 2026-04-23 14:33 | -21.06393 | 169.36297 | 38052 ft | 479 kts | 229° |
| 2026-04-23 14:34 | -21.11497 | 169.31756 | 38057 ft | 479 kts | 229° |
| 2026-04-23 14:34 | -21.16636 | 169.27181 | 38061 ft | 480 kts | 229° |
| 2026-04-23 14:35 | -21.21758 | 169.22617 | 38066 ft | 480 kts | 229° |
| 2026-04-23 14:35 | -21.26899 | 169.18032 | 38073 ft | 480 kts | 229° |
| 2026-04-23 14:36 | -21.32041 | 169.13442 | 38077 ft | 481 kts | 229° |
| 2026-04-23 14:36 | -21.37169 | 169.08861 | 38076 ft | 481 kts | 229° |
| 2026-04-23 14:37 | -21.41463 | 169.05023 | 38074 ft | 480 kts | 229° |
| 2026-04-23 14:37 | -21.46700 | 169.00512 | 38089 ft | 485 kts | 226° |
| 2026-04-23 14:38 | -21.52153 | 168.96292 | 38081 ft | 485 kts | 226° |
| 2026-04-23 14:38 | -21.57629 | 168.92016 | 38072 ft | 483 kts | 226° |
| 2026-04-23 14:39 | -21.63036 | 168.87737 | 38062 ft | 482 kts | 226° |
| 2026-04-23 14:39 | -21.68424 | 168.83457 | 38059 ft | 482 kts | 226° |
| 2026-04-23 14:40 | -21.73793 | 168.79189 | 38064 ft | 482 kts | 226° |
| 2026-04-23 14:40 | -21.79179 | 168.74904 | 38075 ft | 482 kts | 227° |
| 2026-04-23 14:41 | -21.84595 | 168.70592 | 38080 ft | 482 kts | 227° |
| 2026-04-23 14:41 | -21.89983 | 168.66297 | 38079 ft | 483 kts | 227° |
| 2026-04-23 14:42 | -21.95356 | 168.62010 | 38082 ft | 483 kts | 227° |
| 2026-04-23 14:42 | -22.00755 | 168.57699 | 38083 ft | 483 kts | 227° |
| 2026-04-23 14:43 | -22.06174 | 168.53368 | 38121 ft | 483 kts | 227° |
| 2026-04-23 14:43 | -22.11542 | 168.49073 | 38098 ft | 483 kts | 227° |
| 2026-04-23 14:44 | -22.16938 | 168.44752 | 38098 ft | 483 kts | 227° |
| 2026-04-23 14:44 | -22.22360 | 168.40405 | 38098 ft | 482 kts | 227° |
| 2026-04-23 14:45 | -22.27743 | 168.36085 | 38094 ft | 482 kts | 227° |
| 2026-04-23 14:45 | -22.33095 | 168.31787 | 38107 ft | 482 kts | 227° |
| 2026-04-23 14:46 | -22.38503 | 168.27438 | 38103 ft | 482 kts | 228° |
| 2026-04-23 14:46 | -22.43873 | 168.23116 | 38106 ft | 482 kts | 228° |
| 2026-04-23 14:47 | -22.49236 | 168.18795 | 38100 ft | 481 kts | 228° |
| 2026-04-23 14:47 | -22.54588 | 168.14479 | 38108 ft | 481 kts | 228° |
| 2026-04-23 14:48 | -22.59954 | 168.10147 | 38103 ft | 481 kts | 228° |
| 2026-04-23 14:48 | -22.65316 | 168.05815 | 38102 ft | 481 kts | 228° |
| 2026-04-23 14:49 | -22.70683 | 168.01474 | 38115 ft | 480 kts | 228° |
| 2026-04-23 14:49 | -22.76033 | 167.97143 | 38112 ft | 480 kts | 228° |
| 2026-04-23 14:50 | -22.81353 | 167.92831 | 38116 ft | 480 kts | 229° |
| 2026-04-23 14:50 | -22.86710 | 167.88485 | 38113 ft | 479 kts | 229° |
| 2026-04-23 14:51 | -22.92025 | 167.84169 | 38112 ft | 479 kts | 229° |
| 2026-04-23 14:51 | -22.97362 | 167.79830 | 38114 ft | 480 kts | 229° |
| 2026-04-23 14:52 | -23.02717 | 167.75473 | 38124 ft | 479 kts | 229° |
| 2026-04-23 14:52 | -23.08024 | 167.71149 | 38115 ft | 479 kts | 229° |
| 2026-04-23 14:53 | -23.13353 | 167.66804 | 38121 ft | 478 kts | 229° |
| 2026-04-23 14:53 | -23.18679 | 167.62457 | 38119 ft | 478 kts | 229° |
| 2026-04-23 14:54 | -23.23969 | 167.58135 | 38127 ft | 478 kts | 229° |
| 2026-04-23 14:54 | -23.29297 | 167.53777 | 38129 ft | 479 kts | 229° |
| 2026-04-23 14:55 | -23.34642 | 167.49401 | 38127 ft | 479 kts | 229° |
| 2026-04-23 14:55 | -23.39966 | 167.45040 | 38128 ft | 478 kts | 229° |
| 2026-04-23 14:56 | -23.45162 | 167.40615 | 38127 ft | 475 kts | 231° |
| 2026-04-23 14:56 | -23.50330 | 167.36104 | 38131 ft | 475 kts | 231° |
| 2026-04-23 14:57 | -23.55477 | 167.31643 | 38165 ft | 475 kts | 231° |
| 2026-04-23 14:57 | -23.60670 | 167.27153 | 38135 ft | 476 kts | 231° |
| 2026-04-23 14:58 | -23.65869 | 167.22654 | 38137 ft | 475 kts | 231° |
| 2026-04-23 14:58 | -23.71026 | 167.18185 | 38131 ft | 475 kts | 231° |
| 2026-04-23 14:59 | -23.76213 | 167.13684 | 38133 ft | 475 kts | 231° |
| 2026-04-23 14:59 | -23.81356 | 167.09216 | 38131 ft | 475 kts | 231° |
| 2026-04-23 15:00 | -23.86542 | 167.04707 | 38152 ft | 475 kts | 231° |
| 2026-04-23 15:00 | -23.91718 | 167.00201 | 38147 ft | 474 kts | 231° |
| 2026-04-23 15:01 | -23.96848 | 166.95731 | 38141 ft | 474 kts | 231° |
| 2026-04-23 15:01 | -24.02001 | 166.91237 | 38137 ft | 473 kts | 231° |
| 2026-04-23 15:02 | -24.07167 | 166.86725 | 38132 ft | 473 kts | 231° |
| 2026-04-23 15:02 | -24.12304 | 166.82234 | 38134 ft | 473 kts | 232° |
| 2026-04-23 15:03 | -24.17428 | 166.77749 | 38133 ft | 473 kts | 232° |
| 2026-04-23 15:03 | -24.22536 | 166.73275 | 38137 ft | 473 kts | 232° |
| 2026-04-23 15:04 | -24.27676 | 166.68767 | 38135 ft | 473 kts | 232° |
| 2026-04-23 15:04 | -24.32821 | 166.64251 | 38137 ft | 473 kts | 232° |
| 2026-04-23 15:05 | -24.37963 | 166.59731 | 38142 ft | 473 kts | 232° |
| 2026-04-23 15:05 | -24.43103 | 166.55210 | 38157 ft | 474 kts | 232° |
| 2026-04-23 15:06 | -24.48228 | 166.50697 | 38155 ft | 473 kts | 232° |
| 2026-04-23 15:06 | -24.53366 | 166.46167 | 38159 ft | 473 kts | 232° |
| 2026-04-23 15:07 | -24.58469 | 166.41663 | 38154 ft | 472 kts | 232° |
| 2026-04-23 15:07 | -24.63598 | 166.37132 | 38148 ft | 472 kts | 232° |
| 2026-04-23 15:08 | -24.68713 | 166.32606 | 38148 ft | 471 kts | 232° |
| 2026-04-23 15:09 | -24.76358 | 166.25836 | 38158 ft | 471 kts | 232° |
| 2026-04-23 15:09 | -24.81455 | 166.21315 | 38138 ft | 470 kts | 233° |
| 2026-04-23 15:10 | -24.85692 | 166.17553 | 38143 ft | 469 kts | 233° |
| 2026-04-23 15:10 | -24.91633 | 166.12272 | 38135 ft | 469 kts | 233° |
| 2026-04-23 15:11 | -24.96715 | 166.07749 | 38136 ft | 470 kts | 233° |
| 2026-04-23 15:11 | -25.01791 | 166.03227 | 38161 ft | 470 kts | 233° |
| 2026-04-23 15:12 | -25.06874 | 165.98695 | 38157 ft | 470 kts | 233° |
| 2026-04-23 15:12 | -25.11950 | 165.94164 | 38153 ft | 469 kts | 233° |
| 2026-04-23 15:13 | -25.17014 | 165.89637 | 38154 ft | 469 kts | 233° |
| 2026-04-23 15:13 | -25.22061 | 165.85122 | 38151 ft | 469 kts | 233° |
| 2026-04-23 15:14 | -25.27127 | 165.80583 | 38186 ft | 468 kts | 233° |
| 2026-04-23 15:14 | -25.32145 | 165.76084 | 38167 ft | 468 kts | 233° |
| 2026-04-23 15:15 | -25.37210 | 165.71538 | 38163 ft | 467 kts | 233° |
| 2026-04-23 15:15 | -25.42226 | 165.67030 | 38158 ft | 467 kts | 233° |
| 2026-04-23 15:16 | -25.47273 | 165.62489 | 38160 ft | 466 kts | 233° |
| 2026-04-23 15:16 | -25.52319 | 165.57943 | 38157 ft | 466 kts | 233° |
| 2026-04-23 15:17 | -25.57327 | 165.53427 | 38177 ft | 466 kts | 233° |
| 2026-04-23 15:17 | -25.62350 | 165.48893 | 38175 ft | 465 kts | 233° |
| 2026-04-23 15:18 | -25.67377 | 165.44351 | 38167 ft | 465 kts | 233° |
| 2026-04-23 15:18 | -25.72357 | 165.39845 | 38164 ft | 464 kts | 233° |
| 2026-04-23 15:19 | -25.77371 | 165.35303 | 38167 ft | 464 kts | 233° |
| 2026-04-23 15:19 | -25.82391 | 165.30750 | 38196 ft | 464 kts | 233° |
| 2026-04-23 15:20 | -25.86554 | 165.26971 | 38178 ft | 464 kts | 233° |
| 2026-04-23 15:20 | -25.92364 | 165.21693 | 38176 ft | 464 kts | 233° |
| 2026-04-23 15:21 | -25.97359 | 165.17148 | 38172 ft | 463 kts | 233° |
| 2026-04-23 15:21 | -26.02360 | 165.12592 | 38177 ft | 463 kts | 233° |
| 2026-04-23 15:22 | -26.07310 | 165.08078 | 38179 ft | 463 kts | 233° |
| 2026-04-23 15:22 | -26.12300 | 165.03520 | 38189 ft | 464 kts | 233° |
| 2026-04-23 15:23 | -26.17267 | 164.98982 | 38187 ft | 463 kts | 233° |
| 2026-04-23 15:23 | -26.22256 | 164.94418 | 38187 ft | 463 kts | 233° |
| 2026-04-23 15:24 | -26.27201 | 164.89888 | 38181 ft | 462 kts | 233° |
| 2026-04-23 15:24 | -26.32173 | 164.85327 | 38185 ft | 462 kts | 233° |
| 2026-04-23 15:25 | -26.36305 | 164.81533 | 38227 ft | 462 kts | 233° |
| 2026-04-23 15:25 | -26.41283 | 164.76958 | 38189 ft | 462 kts | 233° |
| 2026-04-23 15:26 | -26.46246 | 164.72393 | 38188 ft | 462 kts | 233° |
| 2026-04-23 15:26 | -26.51179 | 164.67847 | 38192 ft | 462 kts | 233° |
| 2026-04-23 15:27 | -26.56151 | 164.63263 | 38191 ft | 461 kts | 233° |
| 2026-04-23 15:27 | -26.61099 | 164.58694 | 38189 ft | 461 kts | 233° |
| 2026-04-23 15:28 | -26.66023 | 164.54141 | 38207 ft | 462 kts | 232° |
| 2026-04-23 15:28 | -26.70977 | 164.49557 | 38201 ft | 461 kts | 232° |
| 2026-04-23 15:29 | -26.75915 | 164.44983 | 38196 ft | 460 kts | 232° |
| 2026-04-23 15:29 | -26.80822 | 164.40431 | 38198 ft | 460 kts | 232° |
| 2026-04-23 15:30 | -26.85751 | 164.35853 | 38191 ft | 460 kts | 233° |
| 2026-04-23 15:30 | -26.90684 | 164.31266 | 38179 ft | 460 kts | 232° |
| 2026-04-23 15:31 | -26.95573 | 164.26714 | 38185 ft | 460 kts | 232° |
| 2026-04-23 15:31 | -27.00498 | 164.22124 | 38190 ft | 460 kts | 232° |
| 2026-04-23 15:32 | -27.05428 | 164.17524 | 38186 ft | 461 kts | 232° |
| 2026-04-23 15:32 | -27.10360 | 164.12917 | 38196 ft | 461 kts | 232° |
| 2026-04-23 15:33 | -27.15301 | 164.08295 | 38262 ft | 461 kts | 232° |
| 2026-04-23 15:33 | -27.20214 | 164.03695 | 38216 ft | 461 kts | 232° |
| 2026-04-23 15:34 | -27.25130 | 163.99088 | 38212 ft | 461 kts | 232° |
| 2026-04-23 15:34 | -27.30045 | 163.94474 | 38204 ft | 460 kts | 232° |
| 2026-04-23 15:35 | -27.34950 | 163.89866 | 38199 ft | 459 kts | 232° |
| 2026-04-23 15:35 | -27.39857 | 163.85248 | 38200 ft | 458 kts | 232° |
| 2026-04-23 15:36 | -27.44743 | 163.80645 | 38209 ft | 458 kts | 232° |
| 2026-04-23 15:36 | -27.49604 | 163.76061 | 38203 ft | 458 kts | 232° |
| 2026-04-23 15:37 | -27.54479 | 163.71460 | 38201 ft | 457 kts | 232° |
| 2026-04-23 15:37 | -27.59379 | 163.66830 | 38200 ft | 457 kts | 232° |
| 2026-04-23 15:38 | -27.64232 | 163.62239 | 38204 ft | 457 kts | 232° |
| 2026-04-23 15:38 | -27.69048 | 163.57578 | 38215 ft | 452 kts | 235° |
| 2026-04-23 15:39 | -27.73511 | 163.52683 | 38209 ft | 450 kts | 236° |
| 2026-04-23 15:39 | -27.78036 | 163.47783 | 38211 ft | 450 kts | 236° |
| 2026-04-23 15:40 | -27.82548 | 163.42880 | 38212 ft | 450 kts | 236° |
| 2026-04-23 15:40 | -27.87040 | 163.37982 | 38212 ft | 450 kts | 236° |
| 2026-04-23 15:41 | -27.91517 | 163.33092 | 38211 ft | 450 kts | 236° |
| 2026-04-23 15:41 | -27.96023 | 163.28164 | 38220 ft | 451 kts | 236° |
| 2026-04-23 15:42 | -28.00533 | 163.23228 | 38228 ft | 450 kts | 236° |
| 2026-04-23 15:42 | -28.05034 | 163.18295 | 38223 ft | 450 kts | 236° |
| 2026-04-23 15:43 | -28.09527 | 163.13365 | 38213 ft | 450 kts | 236° |
| 2026-04-23 15:43 | -28.14021 | 163.08427 | 38220 ft | 450 kts | 236° |
| 2026-04-23 15:44 | -28.18488 | 163.03513 | 38254 ft | 450 kts | 236° |
| 2026-04-23 15:44 | -28.22986 | 162.98552 | 38221 ft | 450 kts | 236° |
| 2026-04-23 15:45 | -28.27400 | 162.93577 | 38199 ft | 450 kts | 236° |
| 2026-04-23 15:45 | -28.31845 | 162.88552 | 38227 ft | 450 kts | 236° |
| 2026-04-23 15:46 | -28.36278 | 162.83549 | 38220 ft | 451 kts | 236° |
| 2026-04-23 15:46 | -28.40736 | 162.78513 | 38232 ft | 451 kts | 236° |
| 2026-04-23 15:47 | -28.45198 | 162.73463 | 38220 ft | 453 kts | 235° |
| 2026-04-23 15:47 | -28.49685 | 162.68383 | 38222 ft | 454 kts | 235° |
| 2026-04-23 15:48 | -28.54133 | 162.63340 | 38224 ft | 455 kts | 235° |
| 2026-04-23 15:48 | -28.58622 | 162.58242 | 38231 ft | 456 kts | 235° |
| 2026-04-23 15:49 | -28.63119 | 162.53130 | 38226 ft | 456 kts | 235° |
| 2026-04-23 15:49 | -28.67586 | 162.48046 | 38276 ft | 457 kts | 234° |
| 2026-04-23 15:50 | -28.72094 | 162.42904 | 38222 ft | 459 kts | 234° |
| 2026-04-23 15:50 | -28.76622 | 162.37738 | 38229 ft | 460 kts | 234° |
| 2026-04-23 15:51 | -28.81124 | 162.32594 | 38234 ft | 460 kts | 234° |
| 2026-04-23 15:51 | -28.85659 | 162.27406 | 38238 ft | 461 kts | 234° |
| 2026-04-23 15:52 | -28.90196 | 162.22207 | 38236 ft | 461 kts | 234° |
| 2026-04-23 15:52 | -28.94712 | 162.17024 | 38240 ft | 463 kts | 233° |
| 2026-04-23 15:53 | -28.99262 | 162.11799 | 38243 ft | 463 kts | 233° |
| 2026-04-23 15:53 | -29.03785 | 162.06597 | 38243 ft | 463 kts | 233° |
| 2026-04-23 15:54 | -29.08325 | 162.01369 | 38240 ft | 463 kts | 233° |
| 2026-04-23 15:54 | -29.12841 | 161.96160 | 38242 ft | 462 kts | 233° |
| 2026-04-23 15:55 | -29.17375 | 161.90923 | 38235 ft | 463 kts | 233° |
| 2026-04-23 15:55 | -29.21915 | 161.85672 | 38241 ft | 463 kts | 233° |
| 2026-04-23 15:56 | -29.26421 | 161.80455 | 38244 ft | 463 kts | 233° |
| 2026-04-23 15:56 | -29.30950 | 161.75203 | 38246 ft | 463 kts | 233° |
| 2026-04-23 15:57 | -29.35485 | 161.69938 | 38247 ft | 463 kts | 233° |
| 2026-04-23 15:57 | -29.39991 | 161.64700 | 38248 ft | 463 kts | 233° |
| 2026-04-23 15:58 | -29.44515 | 161.59433 | 38252 ft | 463 kts | 233° |
| 2026-04-23 15:58 | -29.49041 | 161.54154 | 38256 ft | 463 kts | 233° |
| 2026-04-23 15:59 | -29.53542 | 161.48901 | 38254 ft | 464 kts | 233° |
| 2026-04-23 15:59 | -29.58074 | 161.43603 | 38251 ft | 464 kts | 233° |
| 2026-04-23 16:00 | -29.62587 | 161.38321 | 38271 ft | 465 kts | 233° |
| 2026-04-23 16:00 | -29.67106 | 161.33023 | 38246 ft | 466 kts | 233° |
| 2026-04-23 16:01 | -29.71660 | 161.27680 | 38243 ft | 467 kts | 233° |
| 2026-04-23 16:01 | -29.76213 | 161.22328 | 38263 ft | 468 kts | 233° |
| 2026-04-23 16:02 | -29.80750 | 161.16987 | 38255 ft | 468 kts | 232° |
| 2026-04-23 16:02 | -29.85319 | 161.11605 | 38268 ft | 469 kts | 232° |
| 2026-04-23 16:03 | -29.89577 | 161.05959 | 38261 ft | 465 kts | 237° |
| 2026-04-23 16:03 | -29.93707 | 161.00244 | 38264 ft | 466 kts | 236° |
| 2026-04-23 16:04 | -29.97872 | 160.94489 | 38266 ft | 466 kts | 236° |
| 2026-04-23 16:04 | -30.01983 | 160.88783 | 38268 ft | 466 kts | 236° |
| 2026-04-23 16:05 | -30.05426 | 160.83994 | 38267 ft | 465 kts | 236° |
| 2026-04-23 16:05 | -30.10239 | 160.77289 | 38281 ft | 465 kts | 236° |
| 2026-04-23 16:06 | -30.14356 | 160.71547 | 38284 ft | 464 kts | 236° |
| 2026-04-23 16:06 | -30.18497 | 160.65763 | 38287 ft | 464 kts | 236° |
| 2026-04-23 16:07 | -30.22585 | 160.60043 | 38272 ft | 463 kts | 236° |
| 2026-04-23 16:07 | -30.26691 | 160.54291 | 38272 ft | 463 kts | 236° |
| 2026-04-23 16:08 | -30.30791 | 160.48538 | 38308 ft | 463 kts | 236° |
| 2026-04-23 16:08 | -30.34867 | 160.42811 | 38290 ft | 462 kts | 236° |
| 2026-04-23 16:09 | -30.38960 | 160.37051 | 38281 ft | 462 kts | 236° |
| 2026-04-23 16:09 | -30.43053 | 160.31285 | 38275 ft | 461 kts | 236° |
| 2026-04-23 16:10 | -30.47103 | 160.25569 | 38280 ft | 461 kts | 236° |
| 2026-04-23 16:10 | -30.51180 | 160.19806 | 38284 ft | 461 kts | 236° |
| 2026-04-23 16:11 | -30.55247 | 160.14050 | 38294 ft | 461 kts | 236° |
| 2026-04-23 16:11 | -30.59281 | 160.08333 | 38289 ft | 460 kts | 236° |
| 2026-04-23 16:12 | -30.63341 | 160.02570 | 38287 ft | 460 kts | 236° |
| 2026-04-23 16:12 | -30.67392 | 159.96810 | 38285 ft | 460 kts | 236° |
| 2026-04-23 16:13 | -30.70761 | 159.92014 | 38281 ft | 460 kts | 236° |
| 2026-04-23 16:13 | -30.76761 | 159.81890 | 38267 ft | 456 kts | 243° |
| 2026-04-23 16:14 | -30.80095 | 159.75643 | 38276 ft | 457 kts | 242° |
| 2026-04-23 16:14 | -30.83457 | 159.69350 | 38284 ft | 458 kts | 242° |
| 2026-04-23 16:15 | -30.86275 | 159.64060 | 38291 ft | 459 kts | 242° |
| 2026-04-23 16:15 | -30.89618 | 159.57768 | 38295 ft | 459 kts | 242° |
| 2026-04-23 16:16 | -30.92982 | 159.51424 | 38285 ft | 460 kts | 242° |
| 2026-04-23 16:16 | -30.96332 | 159.45091 | 38270 ft | 462 kts | 242° |
| 2026-04-23 16:17 | -30.99700 | 159.38716 | 38280 ft | 462 kts | 242° |
| 2026-04-23 16:17 | -31.03073 | 159.32321 | 38291 ft | 463 kts | 242° |
| 2026-04-23 16:18 | -31.06463 | 159.25883 | 38292 ft | 464 kts | 242° |
| 2026-04-23 16:18 | -31.09832 | 159.19476 | 38296 ft | 464 kts | 242° |
| 2026-04-23 16:19 | -31.13190 | 159.13076 | 38289 ft | 465 kts | 242° |
| 2026-04-23 16:19 | -31.16575 | 159.06615 | 38277 ft | 467 kts | 241° |
| 2026-04-23 16:20 | -31.19953 | 159.00159 | 38289 ft | 467 kts | 241° |
| 2026-04-23 16:20 | -31.23331 | 158.93690 | 38294 ft | 468 kts | 241° |
| 2026-04-23 16:21 | -31.26729 | 158.87173 | 38301 ft | 469 kts | 241° |
| 2026-04-23 16:21 | -31.30117 | 158.80663 | 38304 ft | 469 kts | 241° |
| 2026-04-23 16:22 | -31.33491 | 158.74169 | 38304 ft | 469 kts | 241° |
| 2026-04-23 16:22 | -31.36884 | 158.67626 | 38292 ft | 471 kts | 240° |
| 2026-04-23 16:23 | -31.40286 | 158.61058 | 38297 ft | 471 kts | 241° |
| 2026-04-23 16:23 | -31.43670 | 158.54512 | 38300 ft | 472 kts | 241° |
| 2026-04-23 16:24 | -31.47067 | 158.47931 | 38306 ft | 472 kts | 241° |
| 2026-04-23 16:24 | -31.50473 | 158.41319 | 38312 ft | 472 kts | 241° |
| 2026-04-23 16:25 | -31.53838 | 158.34776 | 38318 ft | 472 kts | 241° |
| 2026-04-23 16:25 | -31.57234 | 158.28161 | 38320 ft | 472 kts | 241° |
| 2026-04-23 16:26 | -31.60590 | 158.21612 | 38314 ft | 471 kts | 241° |
| 2026-04-23 16:26 | -31.63967 | 158.15010 | 38318 ft | 471 kts | 240° |
| 2026-04-23 16:27 | -31.67342 | 158.08404 | 38306 ft | 470 kts | 240° |
| 2026-04-23 16:27 | -31.70691 | 158.01835 | 38309 ft | 470 kts | 241° |
| 2026-04-23 16:28 | -31.74056 | 157.95224 | 38340 ft | 470 kts | 240° |
| 2026-04-23 16:28 | -31.77394 | 157.88654 | 38305 ft | 470 kts | 240° |
| 2026-04-23 16:29 | -31.80738 | 157.82060 | 38297 ft | 470 kts | 240° |
| 2026-04-23 16:29 | -31.84088 | 157.75445 | 38326 ft | 469 kts | 240° |
| 2026-04-23 16:30 | -31.87402 | 157.68888 | 38342 ft | 469 kts | 240° |
| 2026-04-23 16:30 | -31.90750 | 157.62253 | 38331 ft | 469 kts | 240° |
| 2026-04-23 16:31 | -31.94082 | 157.55636 | 38290 ft | 470 kts | 240° |
| 2026-04-23 16:31 | -31.97400 | 157.49038 | 38333 ft | 469 kts | 240° |
| 2026-04-23 16:32 | -32.00721 | 157.42422 | 38347 ft | 469 kts | 240° |
| 2026-04-23 16:32 | -32.04040 | 157.35797 | 38337 ft | 469 kts | 240° |
| 2026-04-23 16:33 | -32.07364 | 157.29153 | 38298 ft | 470 kts | 240° |
| 2026-04-23 16:33 | -32.10660 | 157.22547 | 38300 ft | 470 kts | 239° |
| 2026-04-23 16:34 | -32.13985 | 157.15876 | 38346 ft | 470 kts | 239° |
| 2026-04-23 16:34 | -32.17295 | 157.09225 | 38353 ft | 470 kts | 239° |
| 2026-04-23 16:35 | -32.20588 | 157.02596 | 38326 ft | 470 kts | 239° |
| 2026-04-23 16:35 | -32.23907 | 156.95900 | 38321 ft | 471 kts | 239° |
| 2026-04-23 16:36 | -32.27196 | 156.89253 | 38346 ft | 470 kts | 239° |
| 2026-04-23 16:36 | -32.30496 | 156.82570 | 38369 ft | 471 kts | 238° |
| 2026-04-23 16:37 | -32.33811 | 156.75850 | 38342 ft | 472 kts | 238° |
| 2026-04-23 16:37 | -32.37097 | 156.69175 | 38335 ft | 472 kts | 238° |
| 2026-04-23 16:38 | -32.40401 | 156.62449 | 38365 ft | 472 kts | 238° |
| 2026-04-23 16:38 | -32.43703 | 156.55716 | 38354 ft | 472 kts | 238° |
| 2026-04-23 16:39 | -32.46977 | 156.49026 | 38338 ft | 473 kts | 238° |
| 2026-04-23 16:39 | -32.50280 | 156.42268 | 38336 ft | 473 kts | 238° |
| 2026-04-23 16:40 | -32.53578 | 156.35505 | 38365 ft | 473 kts | 238° |
| 2026-04-23 16:40 | -32.56859 | 156.28767 | 38362 ft | 474 kts | 238° |
| 2026-04-23 16:41 | -32.60154 | 156.21987 | 38368 ft | 474 kts | 238° |
| 2026-04-23 16:41 | -32.63427 | 156.15240 | 38361 ft | 474 kts | 238° |
| 2026-04-23 16:42 | -32.66724 | 156.08429 | 38361 ft | 475 kts | 238° |
| 2026-04-23 16:42 | -32.70021 | 156.01607 | 38362 ft | 476 kts | 238° |
| 2026-04-23 16:43 | -32.73298 | 155.94814 | 38375 ft | 476 kts | 238° |
| 2026-04-23 16:43 | -32.76591 | 155.87974 | 38379 ft | 476 kts | 238° |
| 2026-04-23 16:44 | -32.79855 | 155.81183 | 38377 ft | 476 kts | 238° |
| 2026-04-23 16:44 | -32.83142 | 155.74332 | 38371 ft | 476 kts | 238° |
| 2026-04-23 16:45 | -32.86410 | 155.67507 | 38369 ft | 477 kts | 238° |
| 2026-04-23 16:45 | -32.89691 | 155.60640 | 38364 ft | 477 kts | 237° |
| 2026-04-23 16:46 | -32.92967 | 155.53772 | 38382 ft | 476 kts | 237° |
| 2026-04-23 16:46 | -32.96239 | 155.46899 | 38384 ft | 476 kts | 237° |
| 2026-04-23 16:47 | -32.99504 | 155.40029 | 38380 ft | 476 kts | 237° |
| 2026-04-23 16:47 | -33.02752 | 155.33182 | 38383 ft | 476 kts | 237° |
| 2026-04-23 16:48 | -33.06016 | 155.26286 | 38383 ft | 476 kts | 237° |
| 2026-04-23 16:48 | -33.09272 | 155.19401 | 38385 ft | 476 kts | 237° |
| 2026-04-23 16:49 | -33.12514 | 155.12536 | 38389 ft | 476 kts | 237° |
| 2026-04-23 16:49 | -33.15746 | 155.05623 | 38383 ft | 477 kts | 239° |
| 2026-04-23 16:50 | -33.18552 | 154.98430 | 38377 ft | 479 kts | 242° |
| 2026-04-23 16:50 | -33.21319 | 154.91251 | 38391 ft | 479 kts | 241° |
| 2026-04-23 16:51 | -33.24107 | 154.84017 | 38394 ft | 479 kts | 241° |
| 2026-04-23 16:51 | -33.26879 | 154.76773 | 38396 ft | 479 kts | 241° |
| 2026-04-23 16:52 | -33.29649 | 154.69510 | 38402 ft | 480 kts | 242° |
| 2026-04-23 16:52 | -33.32397 | 154.62286 | 38402 ft | 479 kts | 241° |
| 2026-04-23 16:53 | -33.35156 | 154.55020 | 38406 ft | 479 kts | 241° |
| 2026-04-23 16:53 | -33.37906 | 154.47763 | 38404 ft | 478 kts | 241° |
| 2026-04-23 16:54 | -33.40633 | 154.40552 | 38402 ft | 478 kts | 242° |
| 2026-04-23 16:54 | -33.43367 | 154.33304 | 38403 ft | 477 kts | 242° |
| 2026-04-23 16:55 | -33.46095 | 154.26055 | 38401 ft | 477 kts | 241° |
| 2026-04-23 16:55 | -33.48823 | 154.18794 | 38403 ft | 477 kts | 241° |
| 2026-04-23 16:56 | -33.51530 | 154.11572 | 38409 ft | 477 kts | 241° |
| 2026-04-23 16:56 | -33.54251 | 154.04296 | 38395 ft | 477 kts | 241° |
| 2026-04-23 16:57 | -33.56967 | 153.97018 | 38410 ft | 477 kts | 242° |
| 2026-04-23 16:57 | -33.59661 | 153.89782 | 38412 ft | 477 kts | 242° |
| 2026-04-23 16:58 | -33.62365 | 153.82504 | 38413 ft | 477 kts | 242° |
| 2026-04-23 16:58 | -33.65071 | 153.75204 | 38414 ft | 477 kts | 242° |
| 2026-04-23 16:59 | -33.67756 | 153.67947 | 38374 ft | 476 kts | 242° |
| 2026-04-23 16:59 | -33.69092 | 153.64325 | 38115 ft | 471 kts | 242° |
| 2026-04-23 16:59 | -33.70417 | 153.60729 | 37851 ft | 470 kts | 242° |
| 2026-04-23 17:00 | -33.71741 | 153.57138 | 37597 ft | 472 kts | 242° |
| 2026-04-23 17:00 | -33.73077 | 153.53511 | 37308 ft | 473 kts | 242° |
| 2026-04-23 17:00 | -33.74392 | 153.49936 | 36667 ft | 474 kts | 241° |
| 2026-04-23 17:00 | -33.75732 | 153.46291 | 35738 ft | 480 kts | 241° |
| 2026-04-23 17:01 | -33.77088 | 153.42600 | 34888 ft | 483 kts | 241° |
| 2026-04-23 17:01 | -33.78434 | 153.38922 | 34346 ft | 478 kts | 241° |
| 2026-04-23 17:01 | -33.79756 | 153.35299 | 34011 ft | 469 kts | 241° |
| 2026-04-23 17:01 | -33.81069 | 153.31702 | 33433 ft | 466 kts | 241° |
| 2026-04-23 17:02 | -33.81932 | 153.29339 | 33054 ft | 463 kts | 242° |
| 2026-04-23 17:02 | -33.83637 | 153.24670 | 32297 ft | 459 kts | 242° |
| 2026-04-23 17:02 | -33.84919 | 153.21153 | 31726 ft | 456 kts | 242° |
| 2026-04-23 17:02 | -33.86189 | 153.17666 | 31152 ft | 453 kts | 242° |
| 2026-04-23 17:03 | -33.87460 | 153.14176 | 30389 ft | 455 kts | 242° |
| 2026-04-23 17:03 | -33.88716 | 153.10721 | 29566 ft | 455 kts | 242° |
| 2026-04-23 17:03 | -33.89991 | 153.07213 | 28724 ft | 456 kts | 243° |
| 2026-04-23 17:03 | -33.91249 | 153.03738 | 28242 ft | 449 kts | 243° |
| 2026-04-23 17:04 | -33.92477 | 153.00335 | 27941 ft | 438 kts | 243° |
| 2026-04-23 17:04 | -33.93284 | 152.98101 | 27588 ft | 435 kts | 243° |
| 2026-04-23 17:04 | -33.94490 | 152.94765 | 27048 ft | 431 kts | 243° |
| 2026-04-23 17:04 | -33.95683 | 152.91463 | 26516 ft | 427 kts | 243° |
| 2026-04-23 17:05 | -33.96860 | 152.88201 | 25986 ft | 423 kts | 243° |
| 2026-04-23 17:05 | -33.98027 | 152.84963 | 25467 ft | 420 kts | 243° |
| 2026-04-23 17:05 | -33.99189 | 152.81736 | 24927 ft | 416 kts | 243° |
| 2026-04-23 17:05 | -34.00321 | 152.78591 | 24417 ft | 413 kts | 243° |
| 2026-04-23 17:06 | -34.01458 | 152.75427 | 23883 ft | 410 kts | 243° |
| 2026-04-23 17:06 | -34.02596 | 152.72257 | 23323 ft | 406 kts | 243° |
| 2026-04-23 17:06 | -34.03705 | 152.69162 | 22833 ft | 401 kts | 243° |
| 2026-04-23 17:06 | -34.04810 | 152.66077 | 22314 ft | 397 kts | 243° |
| 2026-04-23 17:07 | -34.05888 | 152.63065 | 21826 ft | 393 kts | 243° |
| 2026-04-23 17:07 | -34.06962 | 152.60046 | 21341 ft | 390 kts | 245° |
| 2026-04-23 17:07 | -34.07711 | 152.56900 | 20855 ft | 391 kts | 257° |
| 2026-04-23 17:07 | -34.07919 | 152.53634 | 20361 ft | 392 kts | 269° |
| 2026-04-23 17:08 | -34.07647 | 152.50394 | 19870 ft | 390 kts | 275° |
| 2026-04-23 17:08 | -34.07321 | 152.47136 | 19354 ft | 389 kts | 274° |
| 2026-04-23 17:08 | -34.07017 | 152.43902 | 18874 ft | 387 kts | 274° |
| 2026-04-23 17:08 | -34.06718 | 152.40680 | 18326 ft | 385 kts | 274° |
| 2026-04-23 17:09 | -34.06423 | 152.37508 | 17844 ft | 381 kts | 274° |
| 2026-04-23 17:09 | -34.06125 | 152.34350 | 17354 ft | 378 kts | 274° |
| 2026-04-23 17:09 | -34.05828 | 152.31213 | 16851 ft | 376 kts | 274° |
| 2026-04-23 17:09 | -34.05530 | 152.28074 | 16378 ft | 373 kts | 275° |
| 2026-04-23 17:10 | -34.05233 | 152.24967 | 15881 ft | 370 kts | 275° |
| 2026-04-23 17:10 | -34.04941 | 152.21922 | 15398 ft | 368 kts | 275° |
| 2026-04-23 17:10 | -34.04647 | 152.18861 | 14925 ft | 366 kts | 275° |
| 2026-04-23 17:10 | -34.04354 | 152.15819 | 14451 ft | 364 kts | 275° |
| 2026-04-23 17:11 | -34.04061 | 152.12782 | 13946 ft | 362 kts | 275° |
| 2026-04-23 17:11 | -34.03774 | 152.09822 | 13478 ft | 358 kts | 275° |
| 2026-04-23 17:11 | -34.03486 | 152.06854 | 13017 ft | 354 kts | 275° |
| 2026-04-23 17:11 | -34.03197 | 152.03911 | 12571 ft | 351 kts | 275° |
| 2026-04-23 17:12 | -34.02905 | 152.01002 | 12105 ft | 348 kts | 276° |
| 2026-04-23 17:12 | -34.02613 | 151.98116 | 11655 ft | 345 kts | 276° |
| 2026-04-23 17:12 | -34.02324 | 151.95254 | 11219 ft | 342 kts | 276° |
| 2026-04-23 17:12 | -34.02041 | 151.92417 | 10795 ft | 339 kts | 277° |
| 2026-04-23 17:13 | -34.01476 | 151.89745 | 10662 ft | 326 kts | 289° |
| 2026-04-23 17:13 | -34.00721 | 151.87217 | 10553 ft | 314 kts | 289° |
| 2026-04-23 17:13 | -33.99973 | 151.84785 | 10353 ft | 308 kts | 290° |
| 2026-04-23 17:13 | -33.99196 | 151.82391 | 10124 ft | 305 kts | 291° |
| 2026-04-23 17:14 | -33.98399 | 151.80032 | 9871 ft | 304 kts | 292° |
| 2026-04-23 17:14 | -33.97591 | 151.77690 | 9741 ft | 302 kts | 292° |
| 2026-04-23 17:14 | -33.96778 | 151.75351 | 9607 ft | 302 kts | 292° |
| 2026-04-23 17:14 | -33.95970 | 151.73034 | 9483 ft | 302 kts | 292° |
| 2026-04-23 17:15 | -33.95159 | 151.70711 | 9356 ft | 301 kts | 292° |
| 2026-04-23 17:15 | -33.94346 | 151.68380 | 9158 ft | 302 kts | 292° |
| 2026-04-23 17:15 | -33.93531 | 151.66045 | 8886 ft | 304 kts | 292° |
| 2026-04-23 17:15 | -33.92715 | 151.63705 | 8573 ft | 300 kts | 293° |
| 2026-04-23 17:16 | -33.91909 | 151.61396 | 8180 ft | 300 kts | 293° |
| 2026-04-23 17:16 | -33.91103 | 151.59091 | 7854 ft | 296 kts | 293° |
| 2026-04-23 17:16 | -33.90316 | 151.56841 | 7451 ft | 296 kts | 294° |
| 2026-04-23 17:16 | -33.89503 | 151.54519 | 7140 ft | 293 kts | 294° |
| 2026-04-23 17:17 | -33.88725 | 151.52299 | 7019 ft | 289 kts | 294° |
| 2026-04-23 17:17 | -33.87945 | 151.50074 | 6818 ft | 289 kts | 294° |
| 2026-04-23 17:17 | -33.87163 | 151.47848 | 6514 ft | 287 kts | 294° |
| 2026-04-23 17:17 | -33.86387 | 151.45640 | 6248 ft | 282 kts | 294° |
| 2026-04-23 17:18 | -33.84887 | 151.41373 | 5681 ft | 274 kts | 294° |
| 2026-04-23 17:18 | -33.84149 | 151.39273 | 5399 ft | 271 kts | 294° |
| 2026-04-23 17:18 | -33.83419 | 151.37200 | 5096 ft | 267 kts | 294° |
| 2026-04-23 17:19 | -33.82697 | 151.35156 | 4834 ft | 263 kts | 294° |
| 2026-04-23 17:19 | -33.81985 | 151.33139 | 4569 ft | 260 kts | 293° |
| 2026-04-23 17:19 | -33.81282 | 151.31147 | 4286 ft | 258 kts | 293° |
| 2026-04-23 17:19 | -33.80592 | 151.29190 | 4004 ft | 257 kts | 293° |
| 2026-04-23 17:20 | -33.79898 | 151.27223 | 3735 ft | 255 kts | 293° |
| 2026-04-23 17:20 | -33.78511 | 151.23302 | 3177 ft | 253 kts | 292° |
| 2026-04-23 17:21 | -33.77156 | 151.19484 | 2807 ft | 242 kts | 292° |
| 2026-04-23 17:21 | -33.76596 | 151.17606 | 2700 ft | 231 kts | 276° |
| 2026-04-23 17:21 | -33.77638 | 151.14425 | 2530 ft | 198 kts | 213° |
| 2026-04-23 17:22 | -33.78787 | 151.13795 | 2422 ft | 163 kts | 189° |
| 2026-04-23 17:22 | -33.80778 | 151.14044 | 1762 ft | 141 kts | 165° |
| 2026-04-23 17:23 | -33.82714 | 151.14535 | 1703 ft | 142 kts | 167° |
| 2026-04-23 17:23 | -33.83685 | 151.14772 | 1701 ft | 143 kts | 166° |
| 2026-04-23 17:23 | -33.85629 | 151.15263 | 1549 ft | 144 kts | 166° |
| 2026-04-23 17:24 | -33.86588 | 151.15508 | 1373 ft | 142 kts | 166° |
| 2026-04-23 17:24 | -33.87550 | 151.15760 | 1184 ft | 141 kts | 167° |
| 2026-04-23 17:24 | -33.89459 | 151.16255 | 810 ft | 139 kts | 167° |
| 2026-04-23 17:25 | -33.91370 | 151.16780 | 431 ft | 141 kts | 174° |
| 2026-04-23 17:25 | -33.92321 | 151.17024 | 229 ft | 142 kts | 174° |
| 2026-04-23 17:26 | -33.94080 | 151.17447 | 31 ft | 87 kts | 168° |
| 2026-04-23 17:26 | -33.94387 | 151.17591 | 35 ft | 5 kts | 149° |
| 2026-04-23 17:27 | -33.94436 | 151.17628 | 35 ft | 1 kts | 142° |
| 2026-04-23 17:28 | -33.94447 | 151.17640 | 35 ft | 7 kts | 138° |
| 2026-04-23 17:28 | -33.94483 | 151.17678 | 35 ft | 1 kts | 137° |
| 2026-04-23 17:29 | -33.94502 | 151.17706 | 34 ft | 6 kts | 118° |
| 2026-04-23 17:29 | -33.94511 | 151.17731 | 35 ft | 1 kts | 104° |
| 2026-04-23 17:29 | -33.94513 | 151.17758 | 35 ft | 5 kts | 82° |
| 2026-04-23 17:30 | -33.94508 | 151.17778 | 35 ft | 5 kts | 62° |
| 2026-04-23 17:30 | -33.94410 | 151.17791 | 35 ft | 7 kts | 330° |
| 2026-04-23 17:30 | -33.94363 | 151.17758 | 35 ft | 10 kts | 332° |
| 2026-04-23 17:31 | -33.94286 | 151.17722 | 34 ft | 13 kts | 341° |
| 2026-04-23 17:31 | -33.94244 | 151.17651 | 34 ft | 11 kts | 269° |
| 2026-04-23 17:31 | -33.94258 | 151.17551 | 35 ft | 13 kts | 257° |
| 2026-04-23 17:31 | -33.94285 | 151.17442 | 32 ft | 14 kts | 252° |
| 2026-04-23 17:32 | -33.94273 | 151.17332 | 34 ft | 14 kts | 318° |
| 2026-04-23 17:32 | -33.94171 | 151.17278 | 33 ft | 18 kts | 346° |